<?xml version="1.0" encoding="UTF-8" standalone="no" ?>
<gpx xmlns="http://www.topografix.com/GPX/1/1" xmlns:xsi="http://www.w3.org/2001/XMLSchema-instance" xsi:schemaLocation="http://www.topografix.com/GPX/1/1 http://www.topografix.com/GPX/1/1/gpx.xsd" version="1.1" creator="VisuGPX - https://www.visugpx.com">
  <metadata>
    <name>VTT Sortie 2013-05-01</name>
    <desc><![CDATA[bon c\'est la reprise...]]></desc>
  </metadata>
  <trk>
    <name><![CDATA[Sequence 1]]></name>
    <trkseg>
      <trkpt lat="47.28174" lon="0.64655">
        <ele>59</ele>
        <time>2013-05-01T07:22:46Z</time>
      </trkpt>
      <trkpt lat="47.28129" lon="0.64691">
        <ele>59</ele>
        <time>2013-05-01T07:25:02Z</time>
      </trkpt>
      <trkpt lat="47.28119" lon="0.64695">
        <ele>60</ele>
        <time>2013-05-01T07:25:09Z</time>
      </trkpt>
      <trkpt lat="47.2811" lon="0.64685">
        <ele>61</ele>
        <time>2013-05-01T07:25:13Z</time>
      </trkpt>
      <trkpt lat="47.28099" lon="0.64688">
        <ele>60</ele>
        <time>2013-05-01T07:25:17Z</time>
      </trkpt>
      <trkpt lat="47.28089" lon="0.64696">
        <ele>60</ele>
        <time>2013-05-01T07:25:21Z</time>
      </trkpt>
      <trkpt lat="47.28077" lon="0.64704">
        <ele>60</ele>
        <time>2013-05-01T07:25:25Z</time>
      </trkpt>
      <trkpt lat="47.28066" lon="0.64713">
        <ele>60</ele>
        <time>2013-05-01T07:25:29Z</time>
      </trkpt>
      <trkpt lat="47.28054" lon="0.64721">
        <ele>59</ele>
        <time>2013-05-01T07:25:33Z</time>
      </trkpt>
      <trkpt lat="47.28044" lon="0.6473">
        <ele>59</ele>
        <time>2013-05-01T07:25:37Z</time>
      </trkpt>
      <trkpt lat="47.28032" lon="0.64738">
        <ele>58</ele>
        <time>2013-05-01T07:25:41Z</time>
      </trkpt>
      <trkpt lat="47.28022" lon="0.64747">
        <ele>58</ele>
        <time>2013-05-01T07:25:45Z</time>
      </trkpt>
      <trkpt lat="47.28013" lon="0.64756">
        <ele>59</ele>
        <time>2013-05-01T07:25:49Z</time>
      </trkpt>
      <trkpt lat="47.28003" lon="0.64765">
        <ele>61</ele>
        <time>2013-05-01T07:25:53Z</time>
      </trkpt>
      <trkpt lat="47.27992" lon="0.64773">
        <ele>61</ele>
        <time>2013-05-01T07:25:57Z</time>
      </trkpt>
      <trkpt lat="47.27983" lon="0.64783">
        <ele>64</ele>
        <time>2013-05-01T07:26:01Z</time>
      </trkpt>
      <trkpt lat="47.27973" lon="0.64792">
        <ele>65</ele>
        <time>2013-05-01T07:26:05Z</time>
      </trkpt>
      <trkpt lat="47.27964" lon="0.64802">
        <ele>66</ele>
        <time>2013-05-01T07:26:09Z</time>
      </trkpt>
      <trkpt lat="47.27954" lon="0.64811">
        <ele>67</ele>
        <time>2013-05-01T07:26:13Z</time>
      </trkpt>
      <trkpt lat="47.27945" lon="0.64821">
        <ele>68</ele>
        <time>2013-05-01T07:26:17Z</time>
      </trkpt>
      <trkpt lat="47.27936" lon="0.64829">
        <ele>67</ele>
        <time>2013-05-01T07:26:21Z</time>
      </trkpt>
      <trkpt lat="47.27924" lon="0.64832">
        <ele>68</ele>
        <time>2013-05-01T07:26:25Z</time>
      </trkpt>
      <trkpt lat="47.27914" lon="0.6484">
        <ele>69</ele>
        <time>2013-05-01T07:26:29Z</time>
      </trkpt>
      <trkpt lat="47.27906" lon="0.6485">
        <ele>68</ele>
        <time>2013-05-01T07:26:33Z</time>
      </trkpt>
      <trkpt lat="47.27901" lon="0.64865">
        <ele>69</ele>
        <time>2013-05-01T07:26:37Z</time>
      </trkpt>
      <trkpt lat="47.27893" lon="0.64874">
        <ele>70</ele>
        <time>2013-05-01T07:26:41Z</time>
      </trkpt>
      <trkpt lat="47.27884" lon="0.64881">
        <ele>71</ele>
        <time>2013-05-01T07:26:45Z</time>
      </trkpt>
      <trkpt lat="47.27875" lon="0.64889">
        <ele>73</ele>
        <time>2013-05-01T07:26:49Z</time>
      </trkpt>
      <trkpt lat="47.27864" lon="0.64887">
        <ele>72</ele>
        <time>2013-05-01T07:26:53Z</time>
      </trkpt>
      <trkpt lat="47.27856" lon="0.64872">
        <ele>73</ele>
        <time>2013-05-01T07:26:57Z</time>
      </trkpt>
      <trkpt lat="47.2785" lon="0.64856">
        <ele>72</ele>
        <time>2013-05-01T07:27:01Z</time>
      </trkpt>
      <trkpt lat="47.27842" lon="0.64839">
        <ele>72</ele>
        <time>2013-05-01T07:27:05Z</time>
      </trkpt>
      <trkpt lat="47.27835" lon="0.64823">
        <ele>73</ele>
        <time>2013-05-01T07:27:09Z</time>
      </trkpt>
      <trkpt lat="47.27826" lon="0.64806">
        <ele>74</ele>
        <time>2013-05-01T07:27:13Z</time>
      </trkpt>
      <trkpt lat="47.27816" lon="0.64791">
        <ele>74</ele>
        <time>2013-05-01T07:27:17Z</time>
      </trkpt>
      <trkpt lat="47.27806" lon="0.64776">
        <ele>74</ele>
        <time>2013-05-01T07:27:21Z</time>
      </trkpt>
      <trkpt lat="47.27794" lon="0.64764">
        <ele>75</ele>
        <time>2013-05-01T07:27:25Z</time>
      </trkpt>
      <trkpt lat="47.27783" lon="0.64758">
        <ele>75</ele>
        <time>2013-05-01T07:27:29Z</time>
      </trkpt>
      <trkpt lat="47.27771" lon="0.64757">
        <ele>75</ele>
        <time>2013-05-01T07:27:33Z</time>
      </trkpt>
      <trkpt lat="47.2776" lon="0.6476">
        <ele>76</ele>
        <time>2013-05-01T07:27:37Z</time>
      </trkpt>
      <trkpt lat="47.27748" lon="0.64764">
        <ele>77</ele>
        <time>2013-05-01T07:27:41Z</time>
      </trkpt>
      <trkpt lat="47.27739" lon="0.64762">
        <ele>80</ele>
        <time>2013-05-01T07:27:45Z</time>
      </trkpt>
      <trkpt lat="47.27735" lon="0.64746">
        <ele>79</ele>
        <time>2013-05-01T07:27:49Z</time>
      </trkpt>
      <trkpt lat="47.27732" lon="0.64725">
        <ele>79</ele>
        <time>2013-05-01T07:27:53Z</time>
      </trkpt>
      <trkpt lat="47.27727" lon="0.64705">
        <ele>80</ele>
        <time>2013-05-01T07:27:57Z</time>
      </trkpt>
      <trkpt lat="47.27723" lon="0.64684">
        <ele>79</ele>
        <time>2013-05-01T07:28:01Z</time>
      </trkpt>
      <trkpt lat="47.27717" lon="0.64663">
        <ele>79</ele>
        <time>2013-05-01T07:28:05Z</time>
      </trkpt>
      <trkpt lat="47.27709" lon="0.64638">
        <ele>79</ele>
        <time>2013-05-01T07:28:09Z</time>
      </trkpt>
      <trkpt lat="47.27701" lon="0.64614">
        <ele>78</ele>
        <time>2013-05-01T07:28:13Z</time>
      </trkpt>
      <trkpt lat="47.27696" lon="0.64596">
        <ele>78</ele>
        <time>2013-05-01T07:28:17Z</time>
      </trkpt>
      <trkpt lat="47.27685" lon="0.64582">
        <ele>77</ele>
        <time>2013-05-01T07:28:21Z</time>
      </trkpt>
      <trkpt lat="47.2767" lon="0.64573">
        <ele>76</ele>
        <time>2013-05-01T07:28:25Z</time>
      </trkpt>
      <trkpt lat="47.27654" lon="0.64565">
        <ele>77</ele>
        <time>2013-05-01T07:28:29Z</time>
      </trkpt>
      <trkpt lat="47.2764" lon="0.64558">
        <ele>78</ele>
        <time>2013-05-01T07:28:33Z</time>
      </trkpt>
      <trkpt lat="47.27628" lon="0.64548">
        <ele>78</ele>
        <time>2013-05-01T07:28:37Z</time>
      </trkpt>
      <trkpt lat="47.27615" lon="0.64543">
        <ele>79</ele>
        <time>2013-05-01T07:28:41Z</time>
      </trkpt>
      <trkpt lat="47.27607" lon="0.64557">
        <ele>79</ele>
        <time>2013-05-01T07:28:45Z</time>
      </trkpt>
      <trkpt lat="47.27603" lon="0.64572">
        <ele>80</ele>
        <time>2013-05-01T07:28:49Z</time>
      </trkpt>
      <trkpt lat="47.276" lon="0.64585">
        <ele>82</ele>
        <time>2013-05-01T07:28:53Z</time>
      </trkpt>
      <trkpt lat="47.27594" lon="0.64604">
        <ele>85</ele>
        <time>2013-05-01T07:28:59Z</time>
      </trkpt>
      <trkpt lat="47.2759" lon="0.64614">
        <ele>86</ele>
        <time>2013-05-01T07:29:03Z</time>
      </trkpt>
      <trkpt lat="47.27589" lon="0.64628">
        <ele>90</ele>
        <time>2013-05-01T07:29:08Z</time>
      </trkpt>
      <trkpt lat="47.27588" lon="0.64639">
        <ele>92</ele>
        <time>2013-05-01T07:29:12Z</time>
      </trkpt>
      <trkpt lat="47.27584" lon="0.64652">
        <ele>95</ele>
        <time>2013-05-01T07:29:17Z</time>
      </trkpt>
      <trkpt lat="47.2758" lon="0.64664">
        <ele>97</ele>
        <time>2013-05-01T07:29:21Z</time>
      </trkpt>
      <trkpt lat="47.27575" lon="0.64676">
        <ele>99</ele>
        <time>2013-05-01T07:29:25Z</time>
      </trkpt>
      <trkpt lat="47.2757" lon="0.64687">
        <ele>101</ele>
        <time>2013-05-01T07:29:29Z</time>
      </trkpt>
      <trkpt lat="47.27567" lon="0.64698">
        <ele>104</ele>
        <time>2013-05-01T07:29:33Z</time>
      </trkpt>
      <trkpt lat="47.2756" lon="0.64709">
        <ele>105</ele>
        <time>2013-05-01T07:29:37Z</time>
      </trkpt>
      <trkpt lat="47.27555" lon="0.64721">
        <ele>107</ele>
        <time>2013-05-01T07:29:41Z</time>
      </trkpt>
      <trkpt lat="47.27549" lon="0.64733">
        <ele>109</ele>
        <time>2013-05-01T07:29:45Z</time>
      </trkpt>
      <trkpt lat="47.2754" lon="0.64747">
        <ele>109</ele>
        <time>2013-05-01T07:29:49Z</time>
      </trkpt>
      <trkpt lat="47.27529" lon="0.64761">
        <ele>106</ele>
        <time>2013-05-01T07:29:53Z</time>
      </trkpt>
      <trkpt lat="47.27512" lon="0.64762">
        <ele>99</ele>
        <time>2013-05-01T07:29:57Z</time>
      </trkpt>
      <trkpt lat="47.27495" lon="0.64754">
        <ele>97</ele>
        <time>2013-05-01T07:30:01Z</time>
      </trkpt>
      <trkpt lat="47.27475" lon="0.64748">
        <ele>97</ele>
        <time>2013-05-01T07:30:05Z</time>
      </trkpt>
      <trkpt lat="47.2746" lon="0.6474">
        <ele>97</ele>
        <time>2013-05-01T07:30:09Z</time>
      </trkpt>
      <trkpt lat="47.27448" lon="0.64729">
        <ele>96</ele>
        <time>2013-05-01T07:30:13Z</time>
      </trkpt>
      <trkpt lat="47.27438" lon="0.64717">
        <ele>96</ele>
        <time>2013-05-01T07:30:17Z</time>
      </trkpt>
      <trkpt lat="47.2743" lon="0.64703">
        <ele>97</ele>
        <time>2013-05-01T07:30:21Z</time>
      </trkpt>
      <trkpt lat="47.27423" lon="0.64684">
        <ele>96</ele>
        <time>2013-05-01T07:30:25Z</time>
      </trkpt>
      <trkpt lat="47.27416" lon="0.64662">
        <ele>94</ele>
        <time>2013-05-01T07:30:29Z</time>
      </trkpt>
      <trkpt lat="47.27408" lon="0.64641">
        <ele>94</ele>
        <time>2013-05-01T07:30:33Z</time>
      </trkpt>
      <trkpt lat="47.27401" lon="0.64618">
        <ele>93</ele>
        <time>2013-05-01T07:30:37Z</time>
      </trkpt>
      <trkpt lat="47.27394" lon="0.64594">
        <ele>93</ele>
        <time>2013-05-01T07:30:41Z</time>
      </trkpt>
      <trkpt lat="47.27387" lon="0.64571">
        <ele>92</ele>
        <time>2013-05-01T07:30:45Z</time>
      </trkpt>
      <trkpt lat="47.27381" lon="0.64545">
        <ele>93</ele>
        <time>2013-05-01T07:30:49Z</time>
      </trkpt>
      <trkpt lat="47.27374" lon="0.64519">
        <ele>92</ele>
        <time>2013-05-01T07:30:53Z</time>
      </trkpt>
      <trkpt lat="47.27369" lon="0.64494">
        <ele>90</ele>
        <time>2013-05-01T07:30:57Z</time>
      </trkpt>
      <trkpt lat="47.27362" lon="0.64468">
        <ele>90</ele>
        <time>2013-05-01T07:31:01Z</time>
      </trkpt>
      <trkpt lat="47.27354" lon="0.64443">
        <ele>89</ele>
        <time>2013-05-01T07:31:05Z</time>
      </trkpt>
      <trkpt lat="47.27348" lon="0.64417">
        <ele>89</ele>
        <time>2013-05-01T07:31:09Z</time>
      </trkpt>
      <trkpt lat="47.2734" lon="0.64393">
        <ele>90</ele>
        <time>2013-05-01T07:31:13Z</time>
      </trkpt>
      <trkpt lat="47.27334" lon="0.6437">
        <ele>89</ele>
        <time>2013-05-01T07:31:17Z</time>
      </trkpt>
      <trkpt lat="47.27328" lon="0.64347">
        <ele>89</ele>
        <time>2013-05-01T07:31:21Z</time>
      </trkpt>
      <trkpt lat="47.27324" lon="0.64323">
        <ele>89</ele>
        <time>2013-05-01T07:31:25Z</time>
      </trkpt>
      <trkpt lat="47.2732" lon="0.64299">
        <ele>89</ele>
        <time>2013-05-01T07:31:29Z</time>
      </trkpt>
      <trkpt lat="47.27308" lon="0.64295">
        <ele>88</ele>
        <time>2013-05-01T07:31:33Z</time>
      </trkpt>
      <trkpt lat="47.27292" lon="0.64308">
        <ele>88</ele>
        <time>2013-05-01T07:31:37Z</time>
      </trkpt>
      <trkpt lat="47.27277" lon="0.6432">
        <ele>87</ele>
        <time>2013-05-01T07:31:41Z</time>
      </trkpt>
      <trkpt lat="47.27265" lon="0.64335">
        <ele>88</ele>
        <time>2013-05-01T07:31:45Z</time>
      </trkpt>
      <trkpt lat="47.27255" lon="0.6435">
        <ele>88</ele>
        <time>2013-05-01T07:31:49Z</time>
      </trkpt>
      <trkpt lat="47.27246" lon="0.64347">
        <ele>88</ele>
        <time>2013-05-01T07:31:53Z</time>
      </trkpt>
      <trkpt lat="47.27235" lon="0.64334">
        <ele>87</ele>
        <time>2013-05-01T07:31:57Z</time>
      </trkpt>
      <trkpt lat="47.27222" lon="0.64325">
        <ele>86</ele>
        <time>2013-05-01T07:32:01Z</time>
      </trkpt>
      <trkpt lat="47.27209" lon="0.64321">
        <ele>84</ele>
        <time>2013-05-01T07:32:05Z</time>
      </trkpt>
      <trkpt lat="47.27194" lon="0.64322">
        <ele>84</ele>
        <time>2013-05-01T07:32:09Z</time>
      </trkpt>
      <trkpt lat="47.27178" lon="0.64325">
        <ele>83</ele>
        <time>2013-05-01T07:32:13Z</time>
      </trkpt>
      <trkpt lat="47.2716" lon="0.64327">
        <ele>83</ele>
        <time>2013-05-01T07:32:17Z</time>
      </trkpt>
      <trkpt lat="47.27143" lon="0.64329">
        <ele>82</ele>
        <time>2013-05-01T07:32:21Z</time>
      </trkpt>
      <trkpt lat="47.27133" lon="0.64325">
        <ele>82</ele>
        <time>2013-05-01T07:32:25Z</time>
      </trkpt>
      <trkpt lat="47.27136" lon="0.64304">
        <ele>81</ele>
        <time>2013-05-01T07:32:29Z</time>
      </trkpt>
      <trkpt lat="47.27146" lon="0.64273">
        <ele>80</ele>
        <time>2013-05-01T07:32:33Z</time>
      </trkpt>
      <trkpt lat="47.27153" lon="0.64222">
        <ele>79</ele>
        <time>2013-05-01T07:32:40Z</time>
      </trkpt>
      <trkpt lat="47.27154" lon="0.64214">
        <ele>79</ele>
        <time>2013-05-01T07:32:41Z</time>
      </trkpt>
      <trkpt lat="47.27159" lon="0.64186">
        <ele>80</ele>
        <time>2013-05-01T07:32:45Z</time>
      </trkpt>
      <trkpt lat="47.27161" lon="0.64157">
        <ele>79</ele>
        <time>2013-05-01T07:32:49Z</time>
      </trkpt>
      <trkpt lat="47.27163" lon="0.64132">
        <ele>80</ele>
        <time>2013-05-01T07:32:53Z</time>
      </trkpt>
      <trkpt lat="47.27165" lon="0.64107">
        <ele>81</ele>
        <time>2013-05-01T07:32:57Z</time>
      </trkpt>
      <trkpt lat="47.27166" lon="0.64086">
        <ele>81</ele>
        <time>2013-05-01T07:33:01Z</time>
      </trkpt>
      <trkpt lat="47.27162" lon="0.64071">
        <ele>81</ele>
        <time>2013-05-01T07:33:05Z</time>
      </trkpt>
      <trkpt lat="47.27144" lon="0.64086">
        <ele>80</ele>
        <time>2013-05-01T07:33:09Z</time>
      </trkpt>
      <trkpt lat="47.27126" lon="0.64102">
        <ele>79</ele>
        <time>2013-05-01T07:33:13Z</time>
      </trkpt>
      <trkpt lat="47.27107" lon="0.64118">
        <ele>78</ele>
        <time>2013-05-01T07:33:17Z</time>
      </trkpt>
      <trkpt lat="47.27088" lon="0.64132">
        <ele>78</ele>
        <time>2013-05-01T07:33:21Z</time>
      </trkpt>
      <trkpt lat="47.27068" lon="0.64143">
        <ele>77</ele>
        <time>2013-05-01T07:33:25Z</time>
      </trkpt>
      <trkpt lat="47.27048" lon="0.64149">
        <ele>77</ele>
        <time>2013-05-01T07:33:29Z</time>
      </trkpt>
      <trkpt lat="47.27029" lon="0.64142">
        <ele>77</ele>
        <time>2013-05-01T07:33:33Z</time>
      </trkpt>
      <trkpt lat="47.27011" lon="0.64126">
        <ele>76</ele>
        <time>2013-05-01T07:33:37Z</time>
      </trkpt>
      <trkpt lat="47.26993" lon="0.64106">
        <ele>76</ele>
        <time>2013-05-01T07:33:41Z</time>
      </trkpt>
      <trkpt lat="47.26974" lon="0.64084">
        <ele>75</ele>
        <time>2013-05-01T07:33:45Z</time>
      </trkpt>
      <trkpt lat="47.26955" lon="0.64063">
        <ele>75</ele>
        <time>2013-05-01T07:33:49Z</time>
      </trkpt>
      <trkpt lat="47.26936" lon="0.64044">
        <ele>75</ele>
        <time>2013-05-01T07:33:53Z</time>
      </trkpt>
      <trkpt lat="47.26916" lon="0.64028">
        <ele>75</ele>
        <time>2013-05-01T07:33:57Z</time>
      </trkpt>
      <trkpt lat="47.26894" lon="0.64022">
        <ele>74</ele>
        <time>2013-05-01T07:34:01Z</time>
      </trkpt>
      <trkpt lat="47.26873" lon="0.64026">
        <ele>75</ele>
        <time>2013-05-01T07:34:05Z</time>
      </trkpt>
      <trkpt lat="47.26852" lon="0.64034">
        <ele>74</ele>
        <time>2013-05-01T07:34:09Z</time>
      </trkpt>
      <trkpt lat="47.26831" lon="0.64036">
        <ele>75</ele>
        <time>2013-05-01T07:34:13Z</time>
      </trkpt>
      <trkpt lat="47.26811" lon="0.64034">
        <ele>76</ele>
        <time>2013-05-01T07:34:17Z</time>
      </trkpt>
      <trkpt lat="47.26792" lon="0.6403">
        <ele>77</ele>
        <time>2013-05-01T07:34:21Z</time>
      </trkpt>
      <trkpt lat="47.26772" lon="0.64027">
        <ele>75</ele>
        <time>2013-05-01T07:34:25Z</time>
      </trkpt>
      <trkpt lat="47.26752" lon="0.64023">
        <ele>76</ele>
        <time>2013-05-01T07:34:29Z</time>
      </trkpt>
      <trkpt lat="47.26732" lon="0.6402">
        <ele>76</ele>
        <time>2013-05-01T07:34:33Z</time>
      </trkpt>
      <trkpt lat="47.26714" lon="0.64017">
        <ele>76</ele>
        <time>2013-05-01T07:34:37Z</time>
      </trkpt>
      <trkpt lat="47.26698" lon="0.64013">
        <ele>76</ele>
        <time>2013-05-01T07:34:41Z</time>
      </trkpt>
      <trkpt lat="47.2669" lon="0.64002">
        <ele>76</ele>
        <time>2013-05-01T07:34:45Z</time>
      </trkpt>
      <trkpt lat="47.26694" lon="0.63982">
        <ele>76</ele>
        <time>2013-05-01T07:34:49Z</time>
      </trkpt>
      <trkpt lat="47.267" lon="0.63956">
        <ele>76</ele>
        <time>2013-05-01T07:34:53Z</time>
      </trkpt>
      <trkpt lat="47.26707" lon="0.63929">
        <ele>76</ele>
        <time>2013-05-01T07:34:57Z</time>
      </trkpt>
      <trkpt lat="47.26714" lon="0.63901">
        <ele>77</ele>
        <time>2013-05-01T07:35:01Z</time>
      </trkpt>
      <trkpt lat="47.26724" lon="0.63871">
        <ele>75</ele>
        <time>2013-05-01T07:35:05Z</time>
      </trkpt>
      <trkpt lat="47.26727" lon="0.63842">
        <ele>76</ele>
        <time>2013-05-01T07:35:09Z</time>
      </trkpt>
      <trkpt lat="47.26718" lon="0.6381">
        <ele>74</ele>
        <time>2013-05-01T07:35:13Z</time>
      </trkpt>
      <trkpt lat="47.26707" lon="0.63775">
        <ele>74</ele>
        <time>2013-05-01T07:35:18Z</time>
      </trkpt>
      <trkpt lat="47.26701" lon="0.63756">
        <ele>74</ele>
        <time>2013-05-01T07:35:21Z</time>
      </trkpt>
      <trkpt lat="47.26691" lon="0.63735">
        <ele>74</ele>
        <time>2013-05-01T07:35:25Z</time>
      </trkpt>
      <trkpt lat="47.26681" lon="0.63716">
        <ele>74</ele>
        <time>2013-05-01T07:35:29Z</time>
      </trkpt>
      <trkpt lat="47.26674" lon="0.63697">
        <ele>73</ele>
        <time>2013-05-01T07:35:33Z</time>
      </trkpt>
      <trkpt lat="47.26666" lon="0.63678">
        <ele>73</ele>
        <time>2013-05-01T07:35:37Z</time>
      </trkpt>
      <trkpt lat="47.26658" lon="0.63661">
        <ele>73</ele>
        <time>2013-05-01T07:35:41Z</time>
      </trkpt>
      <trkpt lat="47.26651" lon="0.63645">
        <ele>74</ele>
        <time>2013-05-01T07:35:45Z</time>
      </trkpt>
      <trkpt lat="47.26645" lon="0.63627">
        <ele>74</ele>
        <time>2013-05-01T07:35:49Z</time>
      </trkpt>
      <trkpt lat="47.26639" lon="0.63611">
        <ele>75</ele>
        <time>2013-05-01T07:35:53Z</time>
      </trkpt>
      <trkpt lat="47.26628" lon="0.63583">
        <ele>75</ele>
        <time>2013-05-01T07:36:00Z</time>
      </trkpt>
      <trkpt lat="47.26622" lon="0.63569">
        <ele>76</ele>
        <time>2013-05-01T07:36:04Z</time>
      </trkpt>
      <trkpt lat="47.26617" lon="0.63555">
        <ele>76</ele>
        <time>2013-05-01T07:36:08Z</time>
      </trkpt>
      <trkpt lat="47.26612" lon="0.63539">
        <ele>76</ele>
        <time>2013-05-01T07:36:12Z</time>
      </trkpt>
      <trkpt lat="47.26608" lon="0.63523">
        <ele>77</ele>
        <time>2013-05-01T07:36:16Z</time>
      </trkpt>
      <trkpt lat="47.26603" lon="0.63506">
        <ele>77</ele>
        <time>2013-05-01T07:36:20Z</time>
      </trkpt>
      <trkpt lat="47.26598" lon="0.63491">
        <ele>77</ele>
        <time>2013-05-01T07:36:24Z</time>
      </trkpt>
      <trkpt lat="47.26593" lon="0.63475">
        <ele>78</ele>
        <time>2013-05-01T07:36:28Z</time>
      </trkpt>
      <trkpt lat="47.26589" lon="0.63458">
        <ele>77</ele>
        <time>2013-05-01T07:36:32Z</time>
      </trkpt>
      <trkpt lat="47.26584" lon="0.63442">
        <ele>77</ele>
        <time>2013-05-01T07:36:36Z</time>
      </trkpt>
      <trkpt lat="47.26579" lon="0.63426">
        <ele>77</ele>
        <time>2013-05-01T07:36:40Z</time>
      </trkpt>
      <trkpt lat="47.26574" lon="0.63409">
        <ele>78</ele>
        <time>2013-05-01T07:36:44Z</time>
      </trkpt>
      <trkpt lat="47.26569" lon="0.63392">
        <ele>78</ele>
        <time>2013-05-01T07:36:48Z</time>
      </trkpt>
      <trkpt lat="47.26565" lon="0.63376">
        <ele>79</ele>
        <time>2013-05-01T07:36:52Z</time>
      </trkpt>
      <trkpt lat="47.2656" lon="0.6336">
        <ele>78</ele>
        <time>2013-05-01T07:36:56Z</time>
      </trkpt>
      <trkpt lat="47.26555" lon="0.63343">
        <ele>78</ele>
        <time>2013-05-01T07:37:00Z</time>
      </trkpt>
      <trkpt lat="47.26551" lon="0.63326">
        <ele>78</ele>
        <time>2013-05-01T07:37:04Z</time>
      </trkpt>
      <trkpt lat="47.26546" lon="0.6331">
        <ele>78</ele>
        <time>2013-05-01T07:37:08Z</time>
      </trkpt>
      <trkpt lat="47.26541" lon="0.63295">
        <ele>78</ele>
        <time>2013-05-01T07:37:12Z</time>
      </trkpt>
      <trkpt lat="47.26536" lon="0.63279">
        <ele>79</ele>
        <time>2013-05-01T07:37:16Z</time>
      </trkpt>
      <trkpt lat="47.26531" lon="0.63263">
        <ele>80</ele>
        <time>2013-05-01T07:37:20Z</time>
      </trkpt>
      <trkpt lat="47.26526" lon="0.63246">
        <ele>81</ele>
        <time>2013-05-01T07:37:24Z</time>
      </trkpt>
      <trkpt lat="47.26521" lon="0.6323">
        <ele>82</ele>
        <time>2013-05-01T07:37:28Z</time>
      </trkpt>
      <trkpt lat="47.26516" lon="0.63213">
        <ele>82</ele>
        <time>2013-05-01T07:37:32Z</time>
      </trkpt>
      <trkpt lat="47.26511" lon="0.63197">
        <ele>83</ele>
        <time>2013-05-01T07:37:36Z</time>
      </trkpt>
      <trkpt lat="47.26506" lon="0.6318">
        <ele>83</ele>
        <time>2013-05-01T07:37:40Z</time>
      </trkpt>
      <trkpt lat="47.26501" lon="0.63163">
        <ele>83</ele>
        <time>2013-05-01T07:37:44Z</time>
      </trkpt>
      <trkpt lat="47.26495" lon="0.63145">
        <ele>84</ele>
        <time>2013-05-01T07:37:48Z</time>
      </trkpt>
      <trkpt lat="47.2649" lon="0.63129">
        <ele>83</ele>
        <time>2013-05-01T07:37:52Z</time>
      </trkpt>
      <trkpt lat="47.26485" lon="0.63112">
        <ele>85</ele>
        <time>2013-05-01T07:37:56Z</time>
      </trkpt>
      <trkpt lat="47.26479" lon="0.63095">
        <ele>84</ele>
        <time>2013-05-01T07:38:00Z</time>
      </trkpt>
      <trkpt lat="47.26474" lon="0.63079">
        <ele>84</ele>
        <time>2013-05-01T07:38:04Z</time>
      </trkpt>
      <trkpt lat="47.26469" lon="0.63063">
        <ele>85</ele>
        <time>2013-05-01T07:38:08Z</time>
      </trkpt>
      <trkpt lat="47.26464" lon="0.63047">
        <ele>86</ele>
        <time>2013-05-01T07:38:12Z</time>
      </trkpt>
      <trkpt lat="47.26457" lon="0.63031">
        <ele>85</ele>
        <time>2013-05-01T07:38:16Z</time>
      </trkpt>
      <trkpt lat="47.26451" lon="0.63014">
        <ele>85</ele>
        <time>2013-05-01T07:38:20Z</time>
      </trkpt>
      <trkpt lat="47.26446" lon="0.62998">
        <ele>86</ele>
        <time>2013-05-01T07:38:24Z</time>
      </trkpt>
      <trkpt lat="47.26442" lon="0.62981">
        <ele>85</ele>
        <time>2013-05-01T07:38:28Z</time>
      </trkpt>
      <trkpt lat="47.2644" lon="0.62963">
        <ele>85</ele>
        <time>2013-05-01T07:38:32Z</time>
      </trkpt>
      <trkpt lat="47.26436" lon="0.62943">
        <ele>84</ele>
        <time>2013-05-01T07:38:36Z</time>
      </trkpt>
      <trkpt lat="47.26431" lon="0.62924">
        <ele>84</ele>
        <time>2013-05-01T07:38:40Z</time>
      </trkpt>
      <trkpt lat="47.26426" lon="0.62906">
        <ele>84</ele>
        <time>2013-05-01T07:38:44Z</time>
      </trkpt>
      <trkpt lat="47.26417" lon="0.62898">
        <ele>82</ele>
        <time>2013-05-01T07:38:48Z</time>
      </trkpt>
      <trkpt lat="47.26403" lon="0.6292">
        <ele>80</ele>
        <time>2013-05-01T07:38:52Z</time>
      </trkpt>
      <trkpt lat="47.26386" lon="0.62937">
        <ele>80</ele>
        <time>2013-05-01T07:38:56Z</time>
      </trkpt>
      <trkpt lat="47.26369" lon="0.62951">
        <ele>81</ele>
        <time>2013-05-01T07:39:00Z</time>
      </trkpt>
      <trkpt lat="47.26353" lon="0.62965">
        <ele>80</ele>
        <time>2013-05-01T07:39:04Z</time>
      </trkpt>
      <trkpt lat="47.26338" lon="0.62977">
        <ele>80</ele>
        <time>2013-05-01T07:39:08Z</time>
      </trkpt>
      <trkpt lat="47.26324" lon="0.62988">
        <ele>80</ele>
        <time>2013-05-01T07:39:12Z</time>
      </trkpt>
      <trkpt lat="47.2631" lon="0.63">
        <ele>80</ele>
        <time>2013-05-01T07:39:16Z</time>
      </trkpt>
      <trkpt lat="47.26295" lon="0.63011">
        <ele>80</ele>
        <time>2013-05-01T07:39:20Z</time>
      </trkpt>
      <trkpt lat="47.2628" lon="0.63018">
        <ele>78</ele>
        <time>2013-05-01T07:39:24Z</time>
      </trkpt>
      <trkpt lat="47.26264" lon="0.63019">
        <ele>78</ele>
        <time>2013-05-01T07:39:28Z</time>
      </trkpt>
      <trkpt lat="47.2625" lon="0.63022">
        <ele>77</ele>
        <time>2013-05-01T07:39:32Z</time>
      </trkpt>
      <trkpt lat="47.26236" lon="0.63031">
        <ele>77</ele>
        <time>2013-05-01T07:39:36Z</time>
      </trkpt>
      <trkpt lat="47.26222" lon="0.63043">
        <ele>77</ele>
        <time>2013-05-01T07:39:40Z</time>
      </trkpt>
      <trkpt lat="47.26213" lon="0.63058">
        <ele>78</ele>
        <time>2013-05-01T07:39:44Z</time>
      </trkpt>
      <trkpt lat="47.26201" lon="0.63071">
        <ele>77</ele>
        <time>2013-05-01T07:39:48Z</time>
      </trkpt>
      <trkpt lat="47.26184" lon="0.63081">
        <ele>76</ele>
        <time>2013-05-01T07:39:52Z</time>
      </trkpt>
      <trkpt lat="47.26163" lon="0.6309">
        <ele>74</ele>
        <time>2013-05-01T07:39:56Z</time>
      </trkpt>
      <trkpt lat="47.26147" lon="0.63092">
        <ele>75</ele>
        <time>2013-05-01T07:40:00Z</time>
      </trkpt>
      <trkpt lat="47.26133" lon="0.63086">
        <ele>76</ele>
        <time>2013-05-01T07:40:04Z</time>
      </trkpt>
      <trkpt lat="47.26119" lon="0.63074">
        <ele>78</ele>
        <time>2013-05-01T07:40:08Z</time>
      </trkpt>
      <trkpt lat="47.26103" lon="0.63061">
        <ele>79</ele>
        <time>2013-05-01T07:40:12Z</time>
      </trkpt>
      <trkpt lat="47.26082" lon="0.63048">
        <ele>79</ele>
        <time>2013-05-01T07:40:16Z</time>
      </trkpt>
      <trkpt lat="47.26051" lon="0.63046">
        <ele>79</ele>
        <time>2013-05-01T07:40:22Z</time>
      </trkpt>
      <trkpt lat="47.26045" lon="0.63049">
        <ele>78</ele>
        <time>2013-05-01T07:40:24Z</time>
      </trkpt>
      <trkpt lat="47.2603" lon="0.63056">
        <ele>79</ele>
        <time>2013-05-01T07:40:28Z</time>
      </trkpt>
      <trkpt lat="47.2602" lon="0.63065">
        <ele>78</ele>
        <time>2013-05-01T07:40:32Z</time>
      </trkpt>
      <trkpt lat="47.26011" lon="0.63075">
        <ele>80</ele>
        <time>2013-05-01T07:40:36Z</time>
      </trkpt>
      <trkpt lat="47.25999" lon="0.63086">
        <ele>79</ele>
        <time>2013-05-01T07:40:40Z</time>
      </trkpt>
      <trkpt lat="47.25978" lon="0.63094">
        <ele>80</ele>
        <time>2013-05-01T07:40:44Z</time>
      </trkpt>
      <trkpt lat="47.25946" lon="0.63096">
        <ele>81</ele>
        <time>2013-05-01T07:40:48Z</time>
      </trkpt>
      <trkpt lat="47.25927" lon="0.63096">
        <ele>81</ele>
        <time>2013-05-01T07:40:52Z</time>
      </trkpt>
      <trkpt lat="47.25908" lon="0.63095">
        <ele>81</ele>
        <time>2013-05-01T07:40:56Z</time>
      </trkpt>
      <trkpt lat="47.25889" lon="0.63095">
        <ele>82</ele>
        <time>2013-05-01T07:41:00Z</time>
      </trkpt>
      <trkpt lat="47.25869" lon="0.63095">
        <ele>83</ele>
        <time>2013-05-01T07:41:04Z</time>
      </trkpt>
      <trkpt lat="47.2585" lon="0.63094">
        <ele>83</ele>
        <time>2013-05-01T07:41:08Z</time>
      </trkpt>
      <trkpt lat="47.25832" lon="0.63094">
        <ele>83</ele>
        <time>2013-05-01T07:41:12Z</time>
      </trkpt>
      <trkpt lat="47.25816" lon="0.63093">
        <ele>84</ele>
        <time>2013-05-01T07:41:16Z</time>
      </trkpt>
      <trkpt lat="47.25801" lon="0.63092">
        <ele>84</ele>
        <time>2013-05-01T07:41:20Z</time>
      </trkpt>
      <trkpt lat="47.25786" lon="0.63092">
        <ele>85</ele>
        <time>2013-05-01T07:41:24Z</time>
      </trkpt>
      <trkpt lat="47.25772" lon="0.63092">
        <ele>87</ele>
        <time>2013-05-01T07:41:28Z</time>
      </trkpt>
      <trkpt lat="47.25761" lon="0.63092">
        <ele>88</ele>
        <time>2013-05-01T07:41:32Z</time>
      </trkpt>
      <trkpt lat="47.2575" lon="0.63093">
        <ele>88</ele>
        <time>2013-05-01T07:41:36Z</time>
      </trkpt>
      <trkpt lat="47.25739" lon="0.63093">
        <ele>88</ele>
        <time>2013-05-01T07:41:40Z</time>
      </trkpt>
      <trkpt lat="47.25728" lon="0.63092">
        <ele>88</ele>
        <time>2013-05-01T07:41:44Z</time>
      </trkpt>
      <trkpt lat="47.25718" lon="0.63091">
        <ele>89</ele>
        <time>2013-05-01T07:41:48Z</time>
      </trkpt>
      <trkpt lat="47.25709" lon="0.63091">
        <ele>88</ele>
        <time>2013-05-01T07:41:52Z</time>
      </trkpt>
      <trkpt lat="47.25699" lon="0.63089">
        <ele>90</ele>
        <time>2013-05-01T07:41:56Z</time>
      </trkpt>
      <trkpt lat="47.25693" lon="0.63077">
        <ele>89</ele>
        <time>2013-05-01T07:42:00Z</time>
      </trkpt>
      <trkpt lat="47.25693" lon="0.63061">
        <ele>89</ele>
        <time>2013-05-01T07:42:04Z</time>
      </trkpt>
      <trkpt lat="47.25693" lon="0.63042">
        <ele>89</ele>
        <time>2013-05-01T07:42:08Z</time>
      </trkpt>
      <trkpt lat="47.25697" lon="0.63012">
        <ele>88</ele>
        <time>2013-05-01T07:42:14Z</time>
      </trkpt>
      <trkpt lat="47.25696" lon="0.62975">
        <ele>89</ele>
        <time>2013-05-01T07:42:21Z</time>
      </trkpt>
      <trkpt lat="47.2569" lon="0.62952">
        <ele>89</ele>
        <time>2013-05-01T07:42:26Z</time>
      </trkpt>
      <trkpt lat="47.25688" lon="0.6294">
        <ele>89</ele>
        <time>2013-05-01T07:42:29Z</time>
      </trkpt>
      <trkpt lat="47.25682" lon="0.62914">
        <ele>90</ele>
        <time>2013-05-01T07:42:34Z</time>
      </trkpt>
      <trkpt lat="47.25678" lon="0.62895">
        <ele>90</ele>
        <time>2013-05-01T07:42:37Z</time>
      </trkpt>
      <trkpt lat="47.25669" lon="0.6287">
        <ele>91</ele>
        <time>2013-05-01T07:42:41Z</time>
      </trkpt>
      <trkpt lat="47.25659" lon="0.62857">
        <ele>90</ele>
        <time>2013-05-01T07:42:45Z</time>
      </trkpt>
      <trkpt lat="47.2565" lon="0.62855">
        <ele>89</ele>
        <time>2013-05-01T07:42:49Z</time>
      </trkpt>
      <trkpt lat="47.25634" lon="0.62865">
        <ele>90</ele>
        <time>2013-05-01T07:42:55Z</time>
      </trkpt>
      <trkpt lat="47.25628" lon="0.62871">
        <ele>88</ele>
        <time>2013-05-01T07:42:57Z</time>
      </trkpt>
      <trkpt lat="47.25615" lon="0.62879">
        <ele>86</ele>
        <time>2013-05-01T07:43:01Z</time>
      </trkpt>
      <trkpt lat="47.25604" lon="0.62874">
        <ele>86</ele>
        <time>2013-05-01T07:43:06Z</time>
      </trkpt>
      <trkpt lat="47.25598" lon="0.62869">
        <ele>84</ele>
        <time>2013-05-01T07:43:09Z</time>
      </trkpt>
      <trkpt lat="47.25588" lon="0.62868">
        <ele>79</ele>
        <time>2013-05-01T07:43:26Z</time>
      </trkpt>
      <trkpt lat="47.25579" lon="0.62866">
        <ele>71</ele>
        <time>2013-05-01T07:43:47Z</time>
      </trkpt>
      <trkpt lat="47.25571" lon="0.62872">
        <ele>73</ele>
        <time>2013-05-01T07:43:52Z</time>
      </trkpt>
      <trkpt lat="47.25562" lon="0.62877">
        <ele>75</ele>
        <time>2013-05-01T07:43:56Z</time>
      </trkpt>
      <trkpt lat="47.25551" lon="0.62882">
        <ele>76</ele>
        <time>2013-05-01T07:44:03Z</time>
      </trkpt>
      <trkpt lat="47.2554" lon="0.62876">
        <ele>80</ele>
        <time>2013-05-01T07:44:10Z</time>
      </trkpt>
      <trkpt lat="47.25529" lon="0.62874">
        <ele>81</ele>
        <time>2013-05-01T07:44:17Z</time>
      </trkpt>
      <trkpt lat="47.25515" lon="0.62869">
        <ele>82</ele>
        <time>2013-05-01T07:44:25Z</time>
      </trkpt>
      <trkpt lat="47.25499" lon="0.62869">
        <ele>83</ele>
        <time>2013-05-01T07:44:35Z</time>
      </trkpt>
      <trkpt lat="47.25493" lon="0.62868">
        <ele>83</ele>
        <time>2013-05-01T07:44:38Z</time>
      </trkpt>
      <trkpt lat="47.25483" lon="0.62865">
        <ele>83</ele>
        <time>2013-05-01T07:44:43Z</time>
      </trkpt>
      <trkpt lat="47.25469" lon="0.62856">
        <ele>80</ele>
        <time>2013-05-01T07:44:49Z</time>
      </trkpt>
      <trkpt lat="47.25464" lon="0.62853">
        <ele>80</ele>
        <time>2013-05-01T07:44:51Z</time>
      </trkpt>
      <trkpt lat="47.25457" lon="0.62845">
        <ele>82</ele>
        <time>2013-05-01T07:44:56Z</time>
      </trkpt>
      <trkpt lat="47.25452" lon="0.62835">
        <ele>81</ele>
        <time>2013-05-01T07:45:00Z</time>
      </trkpt>
      <trkpt lat="47.25448" lon="0.62825">
        <ele>83</ele>
        <time>2013-05-01T07:45:04Z</time>
      </trkpt>
      <trkpt lat="47.25447" lon="0.6281">
        <ele>83</ele>
        <time>2013-05-01T07:45:11Z</time>
      </trkpt>
      <trkpt lat="47.25442" lon="0.62792">
        <ele>84</ele>
        <time>2013-05-01T07:45:19Z</time>
      </trkpt>
      <trkpt lat="47.25437" lon="0.62776">
        <ele>86</ele>
        <time>2013-05-01T07:45:24Z</time>
      </trkpt>
      <trkpt lat="47.25435" lon="0.62762">
        <ele>89</ele>
        <time>2013-05-01T07:45:28Z</time>
      </trkpt>
      <trkpt lat="47.25432" lon="0.6275">
        <ele>88</ele>
        <time>2013-05-01T07:45:32Z</time>
      </trkpt>
      <trkpt lat="47.25429" lon="0.62738">
        <ele>88</ele>
        <time>2013-05-01T07:45:36Z</time>
      </trkpt>
      <trkpt lat="47.25422" lon="0.62727">
        <ele>90</ele>
        <time>2013-05-01T07:45:44Z</time>
      </trkpt>
      <trkpt lat="47.25416" lon="0.62716">
        <ele>93</ele>
        <time>2013-05-01T07:45:53Z</time>
      </trkpt>
      <trkpt lat="47.25405" lon="0.62707">
        <ele>98</ele>
        <time>2013-05-01T07:46:01Z</time>
      </trkpt>
      <trkpt lat="47.25397" lon="0.62697">
        <ele>96</ele>
        <time>2013-05-01T07:46:09Z</time>
      </trkpt>
      <trkpt lat="47.25391" lon="0.62674">
        <ele>95</ele>
        <time>2013-05-01T07:46:19Z</time>
      </trkpt>
      <trkpt lat="47.25392" lon="0.6267">
        <ele>93</ele>
        <time>2013-05-01T07:46:21Z</time>
      </trkpt>
      <trkpt lat="47.25398" lon="0.62658">
        <ele>90</ele>
        <time>2013-05-01T07:46:29Z</time>
      </trkpt>
      <trkpt lat="47.25408" lon="0.62646">
        <ele>89</ele>
        <time>2013-05-01T07:46:37Z</time>
      </trkpt>
      <trkpt lat="47.25415" lon="0.62636">
        <ele>90</ele>
        <time>2013-05-01T07:46:42Z</time>
      </trkpt>
      <trkpt lat="47.25422" lon="0.62631">
        <ele>92</ele>
        <time>2013-05-01T07:46:46Z</time>
      </trkpt>
      <trkpt lat="47.2543" lon="0.62625">
        <ele>92</ele>
        <time>2013-05-01T07:46:50Z</time>
      </trkpt>
      <trkpt lat="47.25437" lon="0.62618">
        <ele>94</ele>
        <time>2013-05-01T07:46:54Z</time>
      </trkpt>
      <trkpt lat="47.25444" lon="0.62609">
        <ele>93</ele>
        <time>2013-05-01T07:46:58Z</time>
      </trkpt>
      <trkpt lat="47.25453" lon="0.62601">
        <ele>93</ele>
        <time>2013-05-01T07:47:02Z</time>
      </trkpt>
      <trkpt lat="47.25462" lon="0.62594">
        <ele>95</ele>
        <time>2013-05-01T07:47:06Z</time>
      </trkpt>
      <trkpt lat="47.25473" lon="0.62588">
        <ele>95</ele>
        <time>2013-05-01T07:47:10Z</time>
      </trkpt>
      <trkpt lat="47.25486" lon="0.62582">
        <ele>95</ele>
        <time>2013-05-01T07:47:14Z</time>
      </trkpt>
      <trkpt lat="47.255" lon="0.62577">
        <ele>94</ele>
        <time>2013-05-01T07:47:18Z</time>
      </trkpt>
      <trkpt lat="47.25513" lon="0.62572">
        <ele>92</ele>
        <time>2013-05-01T07:47:22Z</time>
      </trkpt>
      <trkpt lat="47.25526" lon="0.62566">
        <ele>90</ele>
        <time>2013-05-01T07:47:26Z</time>
      </trkpt>
      <trkpt lat="47.2554" lon="0.62561">
        <ele>88</ele>
        <time>2013-05-01T07:47:30Z</time>
      </trkpt>
      <trkpt lat="47.25554" lon="0.62553">
        <ele>87</ele>
        <time>2013-05-01T07:47:34Z</time>
      </trkpt>
      <trkpt lat="47.25566" lon="0.62544">
        <ele>87</ele>
        <time>2013-05-01T07:47:38Z</time>
      </trkpt>
      <trkpt lat="47.25577" lon="0.62532">
        <ele>88</ele>
        <time>2013-05-01T07:47:42Z</time>
      </trkpt>
      <trkpt lat="47.25589" lon="0.62518">
        <ele>88</ele>
        <time>2013-05-01T07:47:46Z</time>
      </trkpt>
      <trkpt lat="47.25605" lon="0.62508">
        <ele>87</ele>
        <time>2013-05-01T07:47:50Z</time>
      </trkpt>
      <trkpt lat="47.25618" lon="0.62508">
        <ele>87</ele>
        <time>2013-05-01T07:47:54Z</time>
      </trkpt>
      <trkpt lat="47.25627" lon="0.62512">
        <ele>88</ele>
        <time>2013-05-01T07:47:58Z</time>
      </trkpt>
      <trkpt lat="47.25637" lon="0.62515">
        <ele>89</ele>
        <time>2013-05-01T07:48:02Z</time>
      </trkpt>
      <trkpt lat="47.25656" lon="0.62513">
        <ele>83</ele>
        <time>2013-05-01T07:48:06Z</time>
      </trkpt>
      <trkpt lat="47.25671" lon="0.62506">
        <ele>84</ele>
        <time>2013-05-01T07:48:10Z</time>
      </trkpt>
      <trkpt lat="47.25685" lon="0.62498">
        <ele>87</ele>
        <time>2013-05-01T07:48:14Z</time>
      </trkpt>
      <trkpt lat="47.25699" lon="0.62491">
        <ele>87</ele>
        <time>2013-05-01T07:48:18Z</time>
      </trkpt>
      <trkpt lat="47.25711" lon="0.62484">
        <ele>85</ele>
        <time>2013-05-01T07:48:22Z</time>
      </trkpt>
      <trkpt lat="47.25723" lon="0.62479">
        <ele>86</ele>
        <time>2013-05-01T07:48:26Z</time>
      </trkpt>
      <trkpt lat="47.25733" lon="0.62475">
        <ele>88</ele>
        <time>2013-05-01T07:48:31Z</time>
      </trkpt>
      <trkpt lat="47.25743" lon="0.62466">
        <ele>86</ele>
        <time>2013-05-01T07:48:35Z</time>
      </trkpt>
      <trkpt lat="47.25756" lon="0.62458">
        <ele>85</ele>
        <time>2013-05-01T07:48:39Z</time>
      </trkpt>
      <trkpt lat="47.25769" lon="0.62451">
        <ele>85</ele>
        <time>2013-05-01T07:48:43Z</time>
      </trkpt>
      <trkpt lat="47.2578" lon="0.62444">
        <ele>83</ele>
        <time>2013-05-01T07:48:47Z</time>
      </trkpt>
      <trkpt lat="47.25793" lon="0.62436">
        <ele>83</ele>
        <time>2013-05-01T07:48:51Z</time>
      </trkpt>
      <trkpt lat="47.25805" lon="0.62426">
        <ele>83</ele>
        <time>2013-05-01T07:48:55Z</time>
      </trkpt>
      <trkpt lat="47.25817" lon="0.62418">
        <ele>82</ele>
        <time>2013-05-01T07:48:59Z</time>
      </trkpt>
      <trkpt lat="47.2583" lon="0.62409">
        <ele>81</ele>
        <time>2013-05-01T07:49:03Z</time>
      </trkpt>
      <trkpt lat="47.25843" lon="0.624">
        <ele>82</ele>
        <time>2013-05-01T07:49:07Z</time>
      </trkpt>
      <trkpt lat="47.25855" lon="0.62396">
        <ele>81</ele>
        <time>2013-05-01T07:49:11Z</time>
      </trkpt>
      <trkpt lat="47.25868" lon="0.62391">
        <ele>79</ele>
        <time>2013-05-01T07:49:15Z</time>
      </trkpt>
      <trkpt lat="47.25881" lon="0.62387">
        <ele>79</ele>
        <time>2013-05-01T07:49:19Z</time>
      </trkpt>
      <trkpt lat="47.25896" lon="0.62384">
        <ele>78</ele>
        <time>2013-05-01T07:49:23Z</time>
      </trkpt>
      <trkpt lat="47.2591" lon="0.62384">
        <ele>76</ele>
        <time>2013-05-01T07:49:27Z</time>
      </trkpt>
      <trkpt lat="47.25924" lon="0.62383">
        <ele>78</ele>
        <time>2013-05-01T07:49:31Z</time>
      </trkpt>
      <trkpt lat="47.25931" lon="0.62371">
        <ele>78</ele>
        <time>2013-05-01T07:49:35Z</time>
      </trkpt>
      <trkpt lat="47.25928" lon="0.62355">
        <ele>79</ele>
        <time>2013-05-01T07:49:39Z</time>
      </trkpt>
      <trkpt lat="47.25924" lon="0.62341">
        <ele>80</ele>
        <time>2013-05-01T07:49:43Z</time>
      </trkpt>
      <trkpt lat="47.25921" lon="0.62329">
        <ele>80</ele>
        <time>2013-05-01T07:49:47Z</time>
      </trkpt>
      <trkpt lat="47.25919" lon="0.62315">
        <ele>81</ele>
        <time>2013-05-01T07:49:52Z</time>
      </trkpt>
      <trkpt lat="47.25916" lon="0.623">
        <ele>82</ele>
        <time>2013-05-01T07:49:55Z</time>
      </trkpt>
      <trkpt lat="47.25914" lon="0.62284">
        <ele>81</ele>
        <time>2013-05-01T07:50:00Z</time>
      </trkpt>
      <trkpt lat="47.25912" lon="0.62266">
        <ele>82</ele>
        <time>2013-05-01T07:50:05Z</time>
      </trkpt>
      <trkpt lat="47.2591" lon="0.62249">
        <ele>82</ele>
        <time>2013-05-01T07:50:09Z</time>
      </trkpt>
      <trkpt lat="47.25908" lon="0.62235">
        <ele>82</ele>
        <time>2013-05-01T07:50:14Z</time>
      </trkpt>
      <trkpt lat="47.25906" lon="0.62218">
        <ele>84</ele>
        <time>2013-05-01T07:50:18Z</time>
      </trkpt>
      <trkpt lat="47.25904" lon="0.62204">
        <ele>84</ele>
        <time>2013-05-01T07:50:23Z</time>
      </trkpt>
      <trkpt lat="47.25902" lon="0.62186">
        <ele>85</ele>
        <time>2013-05-01T07:50:28Z</time>
      </trkpt>
      <trkpt lat="47.25899" lon="0.62171">
        <ele>85</ele>
        <time>2013-05-01T07:50:32Z</time>
      </trkpt>
      <trkpt lat="47.25897" lon="0.62157">
        <ele>85</ele>
        <time>2013-05-01T07:50:35Z</time>
      </trkpt>
      <trkpt lat="47.25895" lon="0.62142">
        <ele>85</ele>
        <time>2013-05-01T07:50:39Z</time>
      </trkpt>
      <trkpt lat="47.25893" lon="0.62127">
        <ele>85</ele>
        <time>2013-05-01T07:50:43Z</time>
      </trkpt>
      <trkpt lat="47.25891" lon="0.62111">
        <ele>85</ele>
        <time>2013-05-01T07:50:47Z</time>
      </trkpt>
      <trkpt lat="47.25895" lon="0.62096">
        <ele>86</ele>
        <time>2013-05-01T07:50:52Z</time>
      </trkpt>
      <trkpt lat="47.25902" lon="0.62083">
        <ele>87</ele>
        <time>2013-05-01T07:50:56Z</time>
      </trkpt>
      <trkpt lat="47.25911" lon="0.62071">
        <ele>87</ele>
        <time>2013-05-01T07:50:59Z</time>
      </trkpt>
      <trkpt lat="47.2592" lon="0.62059">
        <ele>87</ele>
        <time>2013-05-01T07:51:03Z</time>
      </trkpt>
      <trkpt lat="47.2593" lon="0.62046">
        <ele>88</ele>
        <time>2013-05-01T07:51:08Z</time>
      </trkpt>
      <trkpt lat="47.25941" lon="0.62033">
        <ele>86</ele>
        <time>2013-05-01T07:51:11Z</time>
      </trkpt>
      <trkpt lat="47.25953" lon="0.62019">
        <ele>87</ele>
        <time>2013-05-01T07:51:16Z</time>
      </trkpt>
      <trkpt lat="47.25964" lon="0.62003">
        <ele>86</ele>
        <time>2013-05-01T07:51:20Z</time>
      </trkpt>
      <trkpt lat="47.25977" lon="0.61987">
        <ele>85</ele>
        <time>2013-05-01T07:51:24Z</time>
      </trkpt>
      <trkpt lat="47.2599" lon="0.6197">
        <ele>85</ele>
        <time>2013-05-01T07:51:28Z</time>
      </trkpt>
      <trkpt lat="47.26002" lon="0.6195">
        <ele>85</ele>
        <time>2013-05-01T07:51:32Z</time>
      </trkpt>
      <trkpt lat="47.26016" lon="0.61931">
        <ele>85</ele>
        <time>2013-05-01T07:51:35Z</time>
      </trkpt>
      <trkpt lat="47.2603" lon="0.61911">
        <ele>84</ele>
        <time>2013-05-01T07:51:39Z</time>
      </trkpt>
      <trkpt lat="47.26043" lon="0.61891">
        <ele>85</ele>
        <time>2013-05-01T07:51:44Z</time>
      </trkpt>
      <trkpt lat="47.26058" lon="0.61869">
        <ele>83</ele>
        <time>2013-05-01T07:51:48Z</time>
      </trkpt>
      <trkpt lat="47.26069" lon="0.61841">
        <ele>82</ele>
        <time>2013-05-01T07:51:51Z</time>
      </trkpt>
      <trkpt lat="47.26075" lon="0.61807">
        <ele>81</ele>
        <time>2013-05-01T07:51:55Z</time>
      </trkpt>
      <trkpt lat="47.26077" lon="0.61772">
        <ele>81</ele>
        <time>2013-05-01T07:51:59Z</time>
      </trkpt>
      <trkpt lat="47.26078" lon="0.61738">
        <ele>81</ele>
        <time>2013-05-01T07:52:03Z</time>
      </trkpt>
      <trkpt lat="47.2608" lon="0.61707">
        <ele>81</ele>
        <time>2013-05-01T07:52:07Z</time>
      </trkpt>
      <trkpt lat="47.26073" lon="0.61687">
        <ele>82</ele>
        <time>2013-05-01T07:52:11Z</time>
      </trkpt>
      <trkpt lat="47.26058" lon="0.61685">
        <ele>82</ele>
        <time>2013-05-01T07:52:15Z</time>
      </trkpt>
      <trkpt lat="47.26042" lon="0.61683">
        <ele>82</ele>
        <time>2013-05-01T07:52:19Z</time>
      </trkpt>
      <trkpt lat="47.26027" lon="0.61681">
        <ele>83</ele>
        <time>2013-05-01T07:52:24Z</time>
      </trkpt>
      <trkpt lat="47.26011" lon="0.61678">
        <ele>83</ele>
        <time>2013-05-01T07:52:28Z</time>
      </trkpt>
      <trkpt lat="47.25996" lon="0.61675">
        <ele>84</ele>
        <time>2013-05-01T07:52:32Z</time>
      </trkpt>
      <trkpt lat="47.25981" lon="0.6167">
        <ele>84</ele>
        <time>2013-05-01T07:52:36Z</time>
      </trkpt>
      <trkpt lat="47.25966" lon="0.61663">
        <ele>83</ele>
        <time>2013-05-01T07:52:40Z</time>
      </trkpt>
      <trkpt lat="47.2595" lon="0.61656">
        <ele>83</ele>
        <time>2013-05-01T07:52:44Z</time>
      </trkpt>
      <trkpt lat="47.25935" lon="0.6165">
        <ele>84</ele>
        <time>2013-05-01T07:52:47Z</time>
      </trkpt>
      <trkpt lat="47.2592" lon="0.61642">
        <ele>84</ele>
        <time>2013-05-01T07:52:51Z</time>
      </trkpt>
      <trkpt lat="47.25905" lon="0.61635">
        <ele>84</ele>
        <time>2013-05-01T07:52:55Z</time>
      </trkpt>
      <trkpt lat="47.2589" lon="0.61625">
        <ele>84</ele>
        <time>2013-05-01T07:53:00Z</time>
      </trkpt>
      <trkpt lat="47.25874" lon="0.61616">
        <ele>84</ele>
        <time>2013-05-01T07:53:03Z</time>
      </trkpt>
      <trkpt lat="47.25859" lon="0.61616">
        <ele>85</ele>
        <time>2013-05-01T07:53:08Z</time>
      </trkpt>
      <trkpt lat="47.25845" lon="0.61616">
        <ele>84</ele>
        <time>2013-05-01T07:53:12Z</time>
      </trkpt>
      <trkpt lat="47.2583" lon="0.61615">
        <ele>84</ele>
        <time>2013-05-01T07:53:16Z</time>
      </trkpt>
      <trkpt lat="47.25815" lon="0.61614">
        <ele>84</ele>
        <time>2013-05-01T07:53:20Z</time>
      </trkpt>
      <trkpt lat="47.25801" lon="0.61611">
        <ele>83</ele>
        <time>2013-05-01T07:53:23Z</time>
      </trkpt>
      <trkpt lat="47.25787" lon="0.61608">
        <ele>84</ele>
        <time>2013-05-01T07:53:28Z</time>
      </trkpt>
      <trkpt lat="47.25774" lon="0.61606">
        <ele>83</ele>
        <time>2013-05-01T07:53:31Z</time>
      </trkpt>
      <trkpt lat="47.25759" lon="0.61604">
        <ele>83</ele>
        <time>2013-05-01T07:53:36Z</time>
      </trkpt>
      <trkpt lat="47.25743" lon="0.61604">
        <ele>82</ele>
        <time>2013-05-01T07:53:40Z</time>
      </trkpt>
      <trkpt lat="47.25726" lon="0.616">
        <ele>81</ele>
        <time>2013-05-01T07:53:44Z</time>
      </trkpt>
      <trkpt lat="47.2571" lon="0.61595">
        <ele>80</ele>
        <time>2013-05-01T07:53:47Z</time>
      </trkpt>
      <trkpt lat="47.25694" lon="0.6159">
        <ele>79</ele>
        <time>2013-05-01T07:53:51Z</time>
      </trkpt>
      <trkpt lat="47.25678" lon="0.61585">
        <ele>79</ele>
        <time>2013-05-01T07:53:56Z</time>
      </trkpt>
      <trkpt lat="47.25662" lon="0.6158">
        <ele>79</ele>
        <time>2013-05-01T07:53:59Z</time>
      </trkpt>
      <trkpt lat="47.25648" lon="0.61576">
        <ele>80</ele>
        <time>2013-05-01T07:54:03Z</time>
      </trkpt>
      <trkpt lat="47.25634" lon="0.61571">
        <ele>80</ele>
        <time>2013-05-01T07:54:07Z</time>
      </trkpt>
      <trkpt lat="47.25621" lon="0.61565">
        <ele>80</ele>
        <time>2013-05-01T07:54:12Z</time>
      </trkpt>
      <trkpt lat="47.25608" lon="0.6156">
        <ele>80</ele>
        <time>2013-05-01T07:54:15Z</time>
      </trkpt>
      <trkpt lat="47.25597" lon="0.61556">
        <ele>81</ele>
        <time>2013-05-01T07:54:19Z</time>
      </trkpt>
      <trkpt lat="47.25586" lon="0.61554">
        <ele>82</ele>
        <time>2013-05-01T07:54:23Z</time>
      </trkpt>
      <trkpt lat="47.25578" lon="0.61545">
        <ele>81</ele>
        <time>2013-05-01T07:54:29Z</time>
      </trkpt>
      <trkpt lat="47.25582" lon="0.61528">
        <ele>81</ele>
        <time>2013-05-01T07:54:33Z</time>
      </trkpt>
      <trkpt lat="47.25589" lon="0.6151">
        <ele>83</ele>
        <time>2013-05-01T07:54:37Z</time>
      </trkpt>
      <trkpt lat="47.25597" lon="0.61495">
        <ele>83</ele>
        <time>2013-05-01T07:54:41Z</time>
      </trkpt>
      <trkpt lat="47.25603" lon="0.61485">
        <ele>84</ele>
        <time>2013-05-01T07:54:45Z</time>
      </trkpt>
      <trkpt lat="47.25606" lon="0.61474">
        <ele>84</ele>
        <time>2013-05-01T07:54:49Z</time>
      </trkpt>
      <trkpt lat="47.25606" lon="0.61459">
        <ele>83</ele>
        <time>2013-05-01T07:54:53Z</time>
      </trkpt>
      <trkpt lat="47.25602" lon="0.61443">
        <ele>82</ele>
        <time>2013-05-01T07:54:57Z</time>
      </trkpt>
      <trkpt lat="47.25597" lon="0.61432">
        <ele>83</ele>
        <time>2013-05-01T07:55:01Z</time>
      </trkpt>
      <trkpt lat="47.25593" lon="0.61419">
        <ele>81</ele>
        <time>2013-05-01T07:55:06Z</time>
      </trkpt>
      <trkpt lat="47.2559" lon="0.61402">
        <ele>80</ele>
        <time>2013-05-01T07:55:10Z</time>
      </trkpt>
      <trkpt lat="47.25585" lon="0.61379">
        <ele>80</ele>
        <time>2013-05-01T07:55:14Z</time>
      </trkpt>
      <trkpt lat="47.25576" lon="0.61337">
        <ele>82</ele>
        <time>2013-05-01T07:55:20Z</time>
      </trkpt>
      <trkpt lat="47.2557" lon="0.61313">
        <ele>83</ele>
        <time>2013-05-01T07:55:24Z</time>
      </trkpt>
      <trkpt lat="47.25567" lon="0.61287">
        <ele>83</ele>
        <time>2013-05-01T07:55:28Z</time>
      </trkpt>
      <trkpt lat="47.25567" lon="0.6126">
        <ele>84</ele>
        <time>2013-05-01T07:55:32Z</time>
      </trkpt>
      <trkpt lat="47.25569" lon="0.61231">
        <ele>83</ele>
        <time>2013-05-01T07:55:36Z</time>
      </trkpt>
      <trkpt lat="47.25566" lon="0.61197">
        <ele>81</ele>
        <time>2013-05-01T07:55:40Z</time>
      </trkpt>
      <trkpt lat="47.2555" lon="0.61128">
        <ele>83</ele>
        <time>2013-05-01T07:55:46Z</time>
      </trkpt>
      <trkpt lat="47.25544" lon="0.61107">
        <ele>82</ele>
        <time>2013-05-01T07:55:51Z</time>
      </trkpt>
      <trkpt lat="47.25543" lon="0.61103">
        <ele>83</ele>
        <time>2013-05-01T07:55:53Z</time>
      </trkpt>
      <trkpt lat="47.25543" lon="0.61077">
        <ele>86</ele>
        <time>2013-05-01T07:56:03Z</time>
      </trkpt>
      <trkpt lat="47.25545" lon="0.61071">
        <ele>85</ele>
        <time>2013-05-01T07:56:05Z</time>
      </trkpt>
      <trkpt lat="47.25549" lon="0.61062">
        <ele>86</ele>
        <time>2013-05-01T07:56:08Z</time>
      </trkpt>
      <trkpt lat="47.25554" lon="0.6105">
        <ele>84</ele>
        <time>2013-05-01T07:56:12Z</time>
      </trkpt>
      <trkpt lat="47.25562" lon="0.61041">
        <ele>83</ele>
        <time>2013-05-01T07:56:17Z</time>
      </trkpt>
      <trkpt lat="47.25571" lon="0.6103">
        <ele>83</ele>
        <time>2013-05-01T07:56:24Z</time>
      </trkpt>
      <trkpt lat="47.25574" lon="0.61019">
        <ele>85</ele>
        <time>2013-05-01T07:56:28Z</time>
      </trkpt>
      <trkpt lat="47.25571" lon="0.61007">
        <ele>87</ele>
        <time>2013-05-01T07:56:32Z</time>
      </trkpt>
      <trkpt lat="47.25567" lon="0.60994">
        <ele>86</ele>
        <time>2013-05-01T07:56:36Z</time>
      </trkpt>
      <trkpt lat="47.25562" lon="0.60982">
        <ele>85</ele>
        <time>2013-05-01T07:56:40Z</time>
      </trkpt>
      <trkpt lat="47.25559" lon="0.60969">
        <ele>85</ele>
        <time>2013-05-01T07:56:44Z</time>
      </trkpt>
      <trkpt lat="47.25556" lon="0.60955">
        <ele>85</ele>
        <time>2013-05-01T07:56:48Z</time>
      </trkpt>
      <trkpt lat="47.25552" lon="0.6094">
        <ele>84</ele>
        <time>2013-05-01T07:56:52Z</time>
      </trkpt>
      <trkpt lat="47.25549" lon="0.60926">
        <ele>84</ele>
        <time>2013-05-01T07:56:56Z</time>
      </trkpt>
      <trkpt lat="47.25546" lon="0.60912">
        <ele>82</ele>
        <time>2013-05-01T07:57:00Z</time>
      </trkpt>
      <trkpt lat="47.25543" lon="0.60897">
        <ele>82</ele>
        <time>2013-05-01T07:57:04Z</time>
      </trkpt>
      <trkpt lat="47.25541" lon="0.60884">
        <ele>82</ele>
        <time>2013-05-01T07:57:08Z</time>
      </trkpt>
      <trkpt lat="47.25537" lon="0.60871">
        <ele>82</ele>
        <time>2013-05-01T07:57:12Z</time>
      </trkpt>
      <trkpt lat="47.25535" lon="0.60857">
        <ele>82</ele>
        <time>2013-05-01T07:57:16Z</time>
      </trkpt>
      <trkpt lat="47.25534" lon="0.60841">
        <ele>80</ele>
        <time>2013-05-01T07:57:20Z</time>
      </trkpt>
      <trkpt lat="47.25532" lon="0.60826">
        <ele>79</ele>
        <time>2013-05-01T07:57:24Z</time>
      </trkpt>
      <trkpt lat="47.25533" lon="0.6081">
        <ele>80</ele>
        <time>2013-05-01T07:57:28Z</time>
      </trkpt>
      <trkpt lat="47.25534" lon="0.60793">
        <ele>81</ele>
        <time>2013-05-01T07:57:33Z</time>
      </trkpt>
      <trkpt lat="47.25534" lon="0.60778">
        <ele>81</ele>
        <time>2013-05-01T07:57:36Z</time>
      </trkpt>
      <trkpt lat="47.25535" lon="0.60761">
        <ele>81</ele>
        <time>2013-05-01T07:57:40Z</time>
      </trkpt>
      <trkpt lat="47.25535" lon="0.60742">
        <ele>80</ele>
        <time>2013-05-01T07:57:44Z</time>
      </trkpt>
      <trkpt lat="47.25535" lon="0.60724">
        <ele>80</ele>
        <time>2013-05-01T07:57:48Z</time>
      </trkpt>
      <trkpt lat="47.25535" lon="0.60707">
        <ele>80</ele>
        <time>2013-05-01T07:57:52Z</time>
      </trkpt>
      <trkpt lat="47.25535" lon="0.60688">
        <ele>81</ele>
        <time>2013-05-01T07:57:56Z</time>
      </trkpt>
      <trkpt lat="47.25536" lon="0.60668">
        <ele>81</ele>
        <time>2013-05-01T07:58:00Z</time>
      </trkpt>
      <trkpt lat="47.25537" lon="0.60648">
        <ele>83</ele>
        <time>2013-05-01T07:58:04Z</time>
      </trkpt>
      <trkpt lat="47.25538" lon="0.6063">
        <ele>84</ele>
        <time>2013-05-01T07:58:08Z</time>
      </trkpt>
      <trkpt lat="47.25539" lon="0.60612">
        <ele>84</ele>
        <time>2013-05-01T07:58:12Z</time>
      </trkpt>
      <trkpt lat="47.2554" lon="0.60592">
        <ele>85</ele>
        <time>2013-05-01T07:58:16Z</time>
      </trkpt>
      <trkpt lat="47.25542" lon="0.60573">
        <ele>84</ele>
        <time>2013-05-01T07:58:20Z</time>
      </trkpt>
      <trkpt lat="47.25543" lon="0.60555">
        <ele>83</ele>
        <time>2013-05-01T07:58:24Z</time>
      </trkpt>
      <trkpt lat="47.25543" lon="0.60537">
        <ele>82</ele>
        <time>2013-05-01T07:58:29Z</time>
      </trkpt>
      <trkpt lat="47.25543" lon="0.6052">
        <ele>82</ele>
        <time>2013-05-01T07:58:32Z</time>
      </trkpt>
      <trkpt lat="47.25542" lon="0.60504">
        <ele>82</ele>
        <time>2013-05-01T07:58:36Z</time>
      </trkpt>
      <trkpt lat="47.25541" lon="0.60488">
        <ele>83</ele>
        <time>2013-05-01T07:58:40Z</time>
      </trkpt>
      <trkpt lat="47.25541" lon="0.60472">
        <ele>83</ele>
        <time>2013-05-01T07:58:44Z</time>
      </trkpt>
      <trkpt lat="47.25542" lon="0.60455">
        <ele>83</ele>
        <time>2013-05-01T07:58:48Z</time>
      </trkpt>
      <trkpt lat="47.25542" lon="0.60438">
        <ele>81</ele>
        <time>2013-05-01T07:58:52Z</time>
      </trkpt>
      <trkpt lat="47.25544" lon="0.6042">
        <ele>81</ele>
        <time>2013-05-01T07:58:56Z</time>
      </trkpt>
      <trkpt lat="47.25549" lon="0.60402">
        <ele>81</ele>
        <time>2013-05-01T07:59:00Z</time>
      </trkpt>
      <trkpt lat="47.25553" lon="0.60385">
        <ele>81</ele>
        <time>2013-05-01T07:59:05Z</time>
      </trkpt>
      <trkpt lat="47.25557" lon="0.60368">
        <ele>80</ele>
        <time>2013-05-01T07:59:08Z</time>
      </trkpt>
      <trkpt lat="47.25561" lon="0.60352">
        <ele>81</ele>
        <time>2013-05-01T07:59:12Z</time>
      </trkpt>
      <trkpt lat="47.25564" lon="0.60336">
        <ele>81</ele>
        <time>2013-05-01T07:59:16Z</time>
      </trkpt>
      <trkpt lat="47.25568" lon="0.60321">
        <ele>81</ele>
        <time>2013-05-01T07:59:20Z</time>
      </trkpt>
      <trkpt lat="47.25572" lon="0.60305">
        <ele>80</ele>
        <time>2013-05-01T07:59:24Z</time>
      </trkpt>
      <trkpt lat="47.25577" lon="0.60286">
        <ele>80</ele>
        <time>2013-05-01T07:59:28Z</time>
      </trkpt>
      <trkpt lat="47.25581" lon="0.60268">
        <ele>80</ele>
        <time>2013-05-01T07:59:32Z</time>
      </trkpt>
      <trkpt lat="47.25585" lon="0.60251">
        <ele>81</ele>
        <time>2013-05-01T07:59:36Z</time>
      </trkpt>
      <trkpt lat="47.2559" lon="0.60229">
        <ele>80</ele>
        <time>2013-05-01T07:59:40Z</time>
      </trkpt>
      <trkpt lat="47.25595" lon="0.60207">
        <ele>79</ele>
        <time>2013-05-01T07:59:44Z</time>
      </trkpt>
      <trkpt lat="47.25597" lon="0.60187">
        <ele>79</ele>
        <time>2013-05-01T07:59:48Z</time>
      </trkpt>
      <trkpt lat="47.25596" lon="0.60171">
        <ele>79</ele>
        <time>2013-05-01T07:59:52Z</time>
      </trkpt>
      <trkpt lat="47.25592" lon="0.60156">
        <ele>79</ele>
        <time>2013-05-01T07:59:56Z</time>
      </trkpt>
      <trkpt lat="47.25588" lon="0.60139">
        <ele>79</ele>
        <time>2013-05-01T08:00:00Z</time>
      </trkpt>
      <trkpt lat="47.25585" lon="0.60124">
        <ele>79</ele>
        <time>2013-05-01T08:00:04Z</time>
      </trkpt>
      <trkpt lat="47.25582" lon="0.60108">
        <ele>79</ele>
        <time>2013-05-01T08:00:08Z</time>
      </trkpt>
      <trkpt lat="47.25581" lon="0.60091">
        <ele>79</ele>
        <time>2013-05-01T08:00:12Z</time>
      </trkpt>
      <trkpt lat="47.2558" lon="0.60074">
        <ele>79</ele>
        <time>2013-05-01T08:00:16Z</time>
      </trkpt>
      <trkpt lat="47.2558" lon="0.60057">
        <ele>79</ele>
        <time>2013-05-01T08:00:20Z</time>
      </trkpt>
      <trkpt lat="47.2558" lon="0.6004">
        <ele>79</ele>
        <time>2013-05-01T08:00:24Z</time>
      </trkpt>
      <trkpt lat="47.25581" lon="0.60025">
        <ele>80</ele>
        <time>2013-05-01T08:00:29Z</time>
      </trkpt>
      <trkpt lat="47.2558" lon="0.6001">
        <ele>81</ele>
        <time>2013-05-01T08:00:32Z</time>
      </trkpt>
      <trkpt lat="47.2558" lon="0.59994">
        <ele>81</ele>
        <time>2013-05-01T08:00:36Z</time>
      </trkpt>
      <trkpt lat="47.25579" lon="0.59978">
        <ele>81</ele>
        <time>2013-05-01T08:00:41Z</time>
      </trkpt>
      <trkpt lat="47.25579" lon="0.59958">
        <ele>81</ele>
        <time>2013-05-01T08:00:45Z</time>
      </trkpt>
      <trkpt lat="47.25578" lon="0.59942">
        <ele>82</ele>
        <time>2013-05-01T08:00:49Z</time>
      </trkpt>
      <trkpt lat="47.25579" lon="0.59927">
        <ele>82</ele>
        <time>2013-05-01T08:00:53Z</time>
      </trkpt>
      <trkpt lat="47.25578" lon="0.59912">
        <ele>82</ele>
        <time>2013-05-01T08:00:57Z</time>
      </trkpt>
      <trkpt lat="47.25577" lon="0.59896">
        <ele>82</ele>
        <time>2013-05-01T08:01:01Z</time>
      </trkpt>
      <trkpt lat="47.25576" lon="0.5988">
        <ele>82</ele>
        <time>2013-05-01T08:01:05Z</time>
      </trkpt>
      <trkpt lat="47.25576" lon="0.59865">
        <ele>82</ele>
        <time>2013-05-01T08:01:09Z</time>
      </trkpt>
      <trkpt lat="47.25575" lon="0.59849">
        <ele>82</ele>
        <time>2013-05-01T08:01:13Z</time>
      </trkpt>
      <trkpt lat="47.25575" lon="0.59834">
        <ele>82</ele>
        <time>2013-05-01T08:01:17Z</time>
      </trkpt>
      <trkpt lat="47.25574" lon="0.59819">
        <ele>83</ele>
        <time>2013-05-01T08:01:21Z</time>
      </trkpt>
      <trkpt lat="47.25574" lon="0.59805">
        <ele>83</ele>
        <time>2013-05-01T08:01:25Z</time>
      </trkpt>
      <trkpt lat="47.25583" lon="0.59791">
        <ele>83</ele>
        <time>2013-05-01T08:01:33Z</time>
      </trkpt>
      <trkpt lat="47.25596" lon="0.59795">
        <ele>83</ele>
        <time>2013-05-01T08:01:38Z</time>
      </trkpt>
      <trkpt lat="47.25601" lon="0.59796">
        <ele>83</ele>
        <time>2013-05-01T08:01:40Z</time>
      </trkpt>
      <trkpt lat="47.25611" lon="0.59798">
        <ele>83</ele>
        <time>2013-05-01T08:01:44Z</time>
      </trkpt>
      <trkpt lat="47.2562" lon="0.59798">
        <ele>83</ele>
        <time>2013-05-01T08:01:48Z</time>
      </trkpt>
      <trkpt lat="47.25629" lon="0.59798">
        <ele>82</ele>
        <time>2013-05-01T08:01:52Z</time>
      </trkpt>
      <trkpt lat="47.25639" lon="0.598">
        <ele>82</ele>
        <time>2013-05-01T08:01:56Z</time>
      </trkpt>
      <trkpt lat="47.25648" lon="0.59802">
        <ele>81</ele>
        <time>2013-05-01T08:02:00Z</time>
      </trkpt>
      <trkpt lat="47.25658" lon="0.59803">
        <ele>81</ele>
        <time>2013-05-01T08:02:04Z</time>
      </trkpt>
      <trkpt lat="47.25669" lon="0.59804">
        <ele>81</ele>
        <time>2013-05-01T08:02:08Z</time>
      </trkpt>
      <trkpt lat="47.2568" lon="0.59805">
        <ele>81</ele>
        <time>2013-05-01T08:02:12Z</time>
      </trkpt>
      <trkpt lat="47.25691" lon="0.59807">
        <ele>81</ele>
        <time>2013-05-01T08:02:16Z</time>
      </trkpt>
      <trkpt lat="47.25701" lon="0.59808">
        <ele>81</ele>
        <time>2013-05-01T08:02:20Z</time>
      </trkpt>
      <trkpt lat="47.25711" lon="0.59808">
        <ele>81</ele>
        <time>2013-05-01T08:02:24Z</time>
      </trkpt>
      <trkpt lat="47.25722" lon="0.59809">
        <ele>81</ele>
        <time>2013-05-01T08:02:28Z</time>
      </trkpt>
      <trkpt lat="47.25732" lon="0.5981">
        <ele>81</ele>
        <time>2013-05-01T08:02:32Z</time>
      </trkpt>
      <trkpt lat="47.25745" lon="0.59812">
        <ele>82</ele>
        <time>2013-05-01T08:02:37Z</time>
      </trkpt>
      <trkpt lat="47.25752" lon="0.59815">
        <ele>82</ele>
        <time>2013-05-01T08:02:40Z</time>
      </trkpt>
      <trkpt lat="47.25761" lon="0.59817">
        <ele>82</ele>
        <time>2013-05-01T08:02:44Z</time>
      </trkpt>
      <trkpt lat="47.2577" lon="0.59817">
        <ele>82</ele>
        <time>2013-05-01T08:02:48Z</time>
      </trkpt>
      <trkpt lat="47.25779" lon="0.59816">
        <ele>82</ele>
        <time>2013-05-01T08:02:52Z</time>
      </trkpt>
      <trkpt lat="47.25788" lon="0.59817">
        <ele>82</ele>
        <time>2013-05-01T08:02:56Z</time>
      </trkpt>
      <trkpt lat="47.25798" lon="0.59818">
        <ele>81</ele>
        <time>2013-05-01T08:03:00Z</time>
      </trkpt>
      <trkpt lat="47.25808" lon="0.59818">
        <ele>82</ele>
        <time>2013-05-01T08:03:04Z</time>
      </trkpt>
      <trkpt lat="47.25819" lon="0.5982">
        <ele>82</ele>
        <time>2013-05-01T08:03:08Z</time>
      </trkpt>
      <trkpt lat="47.2583" lon="0.59822">
        <ele>82</ele>
        <time>2013-05-01T08:03:12Z</time>
      </trkpt>
      <trkpt lat="47.25844" lon="0.59824">
        <ele>81</ele>
        <time>2013-05-01T08:03:18Z</time>
      </trkpt>
      <trkpt lat="47.25848" lon="0.59823">
        <ele>82</ele>
        <time>2013-05-01T08:03:20Z</time>
      </trkpt>
      <trkpt lat="47.25858" lon="0.59822">
        <ele>81</ele>
        <time>2013-05-01T08:03:24Z</time>
      </trkpt>
      <trkpt lat="47.25868" lon="0.59821">
        <ele>82</ele>
        <time>2013-05-01T08:03:28Z</time>
      </trkpt>
      <trkpt lat="47.25879" lon="0.59821">
        <ele>81</ele>
        <time>2013-05-01T08:03:32Z</time>
      </trkpt>
      <trkpt lat="47.2589" lon="0.59819">
        <ele>82</ele>
        <time>2013-05-01T08:03:36Z</time>
      </trkpt>
      <trkpt lat="47.25905" lon="0.59816">
        <ele>82</ele>
        <time>2013-05-01T08:03:41Z</time>
      </trkpt>
      <trkpt lat="47.25914" lon="0.59814">
        <ele>82</ele>
        <time>2013-05-01T08:03:44Z</time>
      </trkpt>
      <trkpt lat="47.25929" lon="0.59808">
        <ele>81</ele>
        <time>2013-05-01T08:03:49Z</time>
      </trkpt>
      <trkpt lat="47.2594" lon="0.59804">
        <ele>80</ele>
        <time>2013-05-01T08:03:53Z</time>
      </trkpt>
      <trkpt lat="47.25952" lon="0.59801">
        <ele>80</ele>
        <time>2013-05-01T08:03:57Z</time>
      </trkpt>
      <trkpt lat="47.25966" lon="0.59799">
        <ele>79</ele>
        <time>2013-05-01T08:04:01Z</time>
      </trkpt>
      <trkpt lat="47.2598" lon="0.59795">
        <ele>79</ele>
        <time>2013-05-01T08:04:05Z</time>
      </trkpt>
      <trkpt lat="47.25994" lon="0.59791">
        <ele>79</ele>
        <time>2013-05-01T08:04:09Z</time>
      </trkpt>
      <trkpt lat="47.26009" lon="0.59787">
        <ele>79</ele>
        <time>2013-05-01T08:04:13Z</time>
      </trkpt>
      <trkpt lat="47.26025" lon="0.59783">
        <ele>79</ele>
        <time>2013-05-01T08:04:17Z</time>
      </trkpt>
      <trkpt lat="47.26039" lon="0.59778">
        <ele>78</ele>
        <time>2013-05-01T08:04:21Z</time>
      </trkpt>
      <trkpt lat="47.26066" lon="0.5977">
        <ele>78</ele>
        <time>2013-05-01T08:04:28Z</time>
      </trkpt>
      <trkpt lat="47.26086" lon="0.59764">
        <ele>78</ele>
        <time>2013-05-01T08:04:33Z</time>
      </trkpt>
      <trkpt lat="47.26102" lon="0.59758">
        <ele>78</ele>
        <time>2013-05-01T08:04:37Z</time>
      </trkpt>
      <trkpt lat="47.26118" lon="0.59752">
        <ele>79</ele>
        <time>2013-05-01T08:04:41Z</time>
      </trkpt>
      <trkpt lat="47.26133" lon="0.59747">
        <ele>79</ele>
        <time>2013-05-01T08:04:45Z</time>
      </trkpt>
      <trkpt lat="47.26148" lon="0.59741">
        <ele>79</ele>
        <time>2013-05-01T08:04:49Z</time>
      </trkpt>
      <trkpt lat="47.26162" lon="0.59736">
        <ele>79</ele>
        <time>2013-05-01T08:04:53Z</time>
      </trkpt>
      <trkpt lat="47.26176" lon="0.59732">
        <ele>80</ele>
        <time>2013-05-01T08:04:57Z</time>
      </trkpt>
      <trkpt lat="47.26187" lon="0.59726">
        <ele>80</ele>
        <time>2013-05-01T08:05:01Z</time>
      </trkpt>
      <trkpt lat="47.26201" lon="0.5972">
        <ele>80</ele>
        <time>2013-05-01T08:05:05Z</time>
      </trkpt>
      <trkpt lat="47.26218" lon="0.59706">
        <ele>81</ele>
        <time>2013-05-01T08:05:11Z</time>
      </trkpt>
      <trkpt lat="47.26223" lon="0.59701">
        <ele>81</ele>
        <time>2013-05-01T08:05:13Z</time>
      </trkpt>
      <trkpt lat="47.26235" lon="0.59698">
        <ele>81</ele>
        <time>2013-05-01T08:05:17Z</time>
      </trkpt>
      <trkpt lat="47.26247" lon="0.59705">
        <ele>81</ele>
        <time>2013-05-01T08:05:21Z</time>
      </trkpt>
      <trkpt lat="47.26261" lon="0.59714">
        <ele>80</ele>
        <time>2013-05-01T08:05:25Z</time>
      </trkpt>
      <trkpt lat="47.2628" lon="0.59723">
        <ele>80</ele>
        <time>2013-05-01T08:05:29Z</time>
      </trkpt>
      <trkpt lat="47.26299" lon="0.59733">
        <ele>81</ele>
        <time>2013-05-01T08:05:33Z</time>
      </trkpt>
      <trkpt lat="47.26316" lon="0.59737">
        <ele>79</ele>
        <time>2013-05-01T08:05:37Z</time>
      </trkpt>
      <trkpt lat="47.26328" lon="0.59742">
        <ele>77</ele>
        <time>2013-05-01T08:05:41Z</time>
      </trkpt>
      <trkpt lat="47.26337" lon="0.59749">
        <ele>75</ele>
        <time>2013-05-01T08:05:45Z</time>
      </trkpt>
      <trkpt lat="47.2635" lon="0.59759">
        <ele>72</ele>
        <time>2013-05-01T08:05:49Z</time>
      </trkpt>
      <trkpt lat="47.26361" lon="0.59769">
        <ele>71</ele>
        <time>2013-05-01T08:05:53Z</time>
      </trkpt>
      <trkpt lat="47.26371" lon="0.59776">
        <ele>71</ele>
        <time>2013-05-01T08:05:57Z</time>
      </trkpt>
      <trkpt lat="47.26381" lon="0.59779">
        <ele>71</ele>
        <time>2013-05-01T08:06:01Z</time>
      </trkpt>
      <trkpt lat="47.26397" lon="0.59783">
        <ele>71</ele>
        <time>2013-05-01T08:06:07Z</time>
      </trkpt>
      <trkpt lat="47.26392" lon="0.59816">
        <ele>72</ele>
        <time>2013-05-01T08:06:10Z</time>
      </trkpt>
      <trkpt lat="47.26393" lon="0.5984">
        <ele>71</ele>
        <time>2013-05-01T08:06:13Z</time>
      </trkpt>
      <trkpt lat="47.26405" lon="0.59903">
        <ele>68</ele>
        <time>2013-05-01T08:06:20Z</time>
      </trkpt>
      <trkpt lat="47.26409" lon="0.59915">
        <ele>67</ele>
        <time>2013-05-01T08:06:21Z</time>
      </trkpt>
      <trkpt lat="47.26428" lon="0.59956">
        <ele>66</ele>
        <time>2013-05-01T08:06:25Z</time>
      </trkpt>
      <trkpt lat="47.26454" lon="0.59976">
        <ele>65</ele>
        <time>2013-05-01T08:06:29Z</time>
      </trkpt>
      <trkpt lat="47.26471" lon="0.59978">
        <ele>61</ele>
        <time>2013-05-01T08:06:33Z</time>
      </trkpt>
      <trkpt lat="47.26473" lon="0.59921">
        <ele>57</ele>
        <time>2013-05-01T08:07:54Z</time>
      </trkpt>
      <trkpt lat="47.26474" lon="0.59902">
        <ele>58</ele>
        <time>2013-05-01T08:07:58Z</time>
      </trkpt>
      <trkpt lat="47.26478" lon="0.59882">
        <ele>59</ele>
        <time>2013-05-01T08:08:02Z</time>
      </trkpt>
      <trkpt lat="47.26483" lon="0.59864">
        <ele>61</ele>
        <time>2013-05-01T08:08:06Z</time>
      </trkpt>
      <trkpt lat="47.26489" lon="0.59847">
        <ele>62</ele>
        <time>2013-05-01T08:08:10Z</time>
      </trkpt>
      <trkpt lat="47.26494" lon="0.5983">
        <ele>64</ele>
        <time>2013-05-01T08:08:14Z</time>
      </trkpt>
      <trkpt lat="47.265" lon="0.59814">
        <ele>64</ele>
        <time>2013-05-01T08:08:18Z</time>
      </trkpt>
      <trkpt lat="47.26506" lon="0.59795">
        <ele>65</ele>
        <time>2013-05-01T08:08:22Z</time>
      </trkpt>
      <trkpt lat="47.26513" lon="0.59772">
        <ele>68</ele>
        <time>2013-05-01T08:08:26Z</time>
      </trkpt>
      <trkpt lat="47.26521" lon="0.59749">
        <ele>67</ele>
        <time>2013-05-01T08:08:30Z</time>
      </trkpt>
      <trkpt lat="47.26529" lon="0.59722">
        <ele>67</ele>
        <time>2013-05-01T08:08:34Z</time>
      </trkpt>
      <trkpt lat="47.26536" lon="0.59697">
        <ele>66</ele>
        <time>2013-05-01T08:08:38Z</time>
      </trkpt>
      <trkpt lat="47.26537" lon="0.59672">
        <ele>69</ele>
        <time>2013-05-01T08:08:42Z</time>
      </trkpt>
      <trkpt lat="47.26529" lon="0.59642">
        <ele>72</ele>
        <time>2013-05-01T08:08:48Z</time>
      </trkpt>
      <trkpt lat="47.26522" lon="0.5962">
        <ele>71</ele>
        <time>2013-05-01T08:08:52Z</time>
      </trkpt>
      <trkpt lat="47.2652" lon="0.59583">
        <ele>71</ele>
        <time>2013-05-01T08:08:57Z</time>
      </trkpt>
      <trkpt lat="47.26519" lon="0.59548">
        <ele>71</ele>
        <time>2013-05-01T08:09:02Z</time>
      </trkpt>
      <trkpt lat="47.26518" lon="0.5952">
        <ele>72</ele>
        <time>2013-05-01T08:09:06Z</time>
      </trkpt>
      <trkpt lat="47.26509" lon="0.59486">
        <ele>72</ele>
        <time>2013-05-01T08:09:11Z</time>
      </trkpt>
      <trkpt lat="47.26495" lon="0.59455">
        <ele>71</ele>
        <time>2013-05-01T08:09:16Z</time>
      </trkpt>
      <trkpt lat="47.26484" lon="0.59432">
        <ele>73</ele>
        <time>2013-05-01T08:09:20Z</time>
      </trkpt>
      <trkpt lat="47.26476" lon="0.59406">
        <ele>71</ele>
        <time>2013-05-01T08:09:24Z</time>
      </trkpt>
      <trkpt lat="47.26466" lon="0.59379">
        <ele>70</ele>
        <time>2013-05-01T08:09:28Z</time>
      </trkpt>
      <trkpt lat="47.26457" lon="0.59352">
        <ele>68</ele>
        <time>2013-05-01T08:09:32Z</time>
      </trkpt>
      <trkpt lat="47.2645" lon="0.59331">
        <ele>67</ele>
        <time>2013-05-01T08:09:36Z</time>
      </trkpt>
      <trkpt lat="47.26444" lon="0.59307">
        <ele>67</ele>
        <time>2013-05-01T08:09:40Z</time>
      </trkpt>
      <trkpt lat="47.26438" lon="0.5928">
        <ele>65</ele>
        <time>2013-05-01T08:09:45Z</time>
      </trkpt>
      <trkpt lat="47.26432" lon="0.59259">
        <ele>63</ele>
        <time>2013-05-01T08:09:48Z</time>
      </trkpt>
      <trkpt lat="47.26419" lon="0.59233">
        <ele>63</ele>
        <time>2013-05-01T08:09:53Z</time>
      </trkpt>
      <trkpt lat="47.26418" lon="0.59214">
        <ele>66</ele>
        <time>2013-05-01T08:09:56Z</time>
      </trkpt>
      <trkpt lat="47.26417" lon="0.59196">
        <ele>67</ele>
        <time>2013-05-01T08:10:00Z</time>
      </trkpt>
      <trkpt lat="47.26416" lon="0.59177">
        <ele>71</ele>
        <time>2013-05-01T08:10:04Z</time>
      </trkpt>
      <trkpt lat="47.26412" lon="0.59159">
        <ele>71</ele>
        <time>2013-05-01T08:10:08Z</time>
      </trkpt>
      <trkpt lat="47.26406" lon="0.59138">
        <ele>70</ele>
        <time>2013-05-01T08:10:12Z</time>
      </trkpt>
      <trkpt lat="47.26399" lon="0.59118">
        <ele>71</ele>
        <time>2013-05-01T08:10:16Z</time>
      </trkpt>
      <trkpt lat="47.2639" lon="0.59097">
        <ele>69</ele>
        <time>2013-05-01T08:10:20Z</time>
      </trkpt>
      <trkpt lat="47.26382" lon="0.59078">
        <ele>69</ele>
        <time>2013-05-01T08:10:24Z</time>
      </trkpt>
      <trkpt lat="47.26376" lon="0.59059">
        <ele>70</ele>
        <time>2013-05-01T08:10:28Z</time>
      </trkpt>
      <trkpt lat="47.2637" lon="0.59039">
        <ele>69</ele>
        <time>2013-05-01T08:10:32Z</time>
      </trkpt>
      <trkpt lat="47.26363" lon="0.59018">
        <ele>68</ele>
        <time>2013-05-01T08:10:36Z</time>
      </trkpt>
      <trkpt lat="47.26358" lon="0.58994">
        <ele>69</ele>
        <time>2013-05-01T08:10:40Z</time>
      </trkpt>
      <trkpt lat="47.2635" lon="0.58953">
        <ele>67</ele>
        <time>2013-05-01T08:10:47Z</time>
      </trkpt>
      <trkpt lat="47.26349" lon="0.58948">
        <ele>66</ele>
        <time>2013-05-01T08:10:48Z</time>
      </trkpt>
      <trkpt lat="47.26345" lon="0.58926">
        <ele>64</ele>
        <time>2013-05-01T08:10:52Z</time>
      </trkpt>
      <trkpt lat="47.26345" lon="0.58901">
        <ele>66</ele>
        <time>2013-05-01T08:10:56Z</time>
      </trkpt>
      <trkpt lat="47.26341" lon="0.58877">
        <ele>67</ele>
        <time>2013-05-01T08:11:00Z</time>
      </trkpt>
      <trkpt lat="47.26335" lon="0.58853">
        <ele>70</ele>
        <time>2013-05-01T08:11:04Z</time>
      </trkpt>
      <trkpt lat="47.26326" lon="0.58829">
        <ele>73</ele>
        <time>2013-05-01T08:11:08Z</time>
      </trkpt>
      <trkpt lat="47.26316" lon="0.58808">
        <ele>74</ele>
        <time>2013-05-01T08:11:12Z</time>
      </trkpt>
      <trkpt lat="47.2631" lon="0.5879">
        <ele>73</ele>
        <time>2013-05-01T08:11:16Z</time>
      </trkpt>
      <trkpt lat="47.26305" lon="0.58773">
        <ele>75</ele>
        <time>2013-05-01T08:11:20Z</time>
      </trkpt>
      <trkpt lat="47.26304" lon="0.58754">
        <ele>76</ele>
        <time>2013-05-01T08:11:24Z</time>
      </trkpt>
      <trkpt lat="47.26302" lon="0.58732">
        <ele>76</ele>
        <time>2013-05-01T08:11:28Z</time>
      </trkpt>
      <trkpt lat="47.263" lon="0.58702">
        <ele>74</ele>
        <time>2013-05-01T08:11:33Z</time>
      </trkpt>
      <trkpt lat="47.26303" lon="0.58659">
        <ele>73</ele>
        <time>2013-05-01T08:11:39Z</time>
      </trkpt>
      <trkpt lat="47.26303" lon="0.58652">
        <ele>75</ele>
        <time>2013-05-01T08:11:40Z</time>
      </trkpt>
      <trkpt lat="47.26304" lon="0.58595">
        <ele>65</ele>
        <time>2013-05-01T08:11:47Z</time>
      </trkpt>
      <trkpt lat="47.26306" lon="0.58577">
        <ele>62</ele>
        <time>2013-05-01T08:11:49Z</time>
      </trkpt>
      <trkpt lat="47.26309" lon="0.58548">
        <ele>60</ele>
        <time>2013-05-01T08:11:52Z</time>
      </trkpt>
      <trkpt lat="47.26313" lon="0.58513">
        <ele>59</ele>
        <time>2013-05-01T08:11:56Z</time>
      </trkpt>
      <trkpt lat="47.26311" lon="0.58476">
        <ele>54</ele>
        <time>2013-05-01T08:12:01Z</time>
      </trkpt>
      <trkpt lat="47.26311" lon="0.58442">
        <ele>54</ele>
        <time>2013-05-01T08:12:07Z</time>
      </trkpt>
      <trkpt lat="47.26312" lon="0.58436">
        <ele>54</ele>
        <time>2013-05-01T08:12:08Z</time>
      </trkpt>
      <trkpt lat="47.26313" lon="0.58414">
        <ele>57</ele>
        <time>2013-05-01T08:12:12Z</time>
      </trkpt>
      <trkpt lat="47.26316" lon="0.58393">
        <ele>61</ele>
        <time>2013-05-01T08:12:16Z</time>
      </trkpt>
      <trkpt lat="47.26314" lon="0.58366">
        <ele>58</ele>
        <time>2013-05-01T08:12:21Z</time>
      </trkpt>
      <trkpt lat="47.26309" lon="0.58349">
        <ele>56</ele>
        <time>2013-05-01T08:12:24Z</time>
      </trkpt>
      <trkpt lat="47.26303" lon="0.58328">
        <ele>56</ele>
        <time>2013-05-01T08:12:28Z</time>
      </trkpt>
      <trkpt lat="47.26303" lon="0.58307">
        <ele>53</ele>
        <time>2013-05-01T08:12:32Z</time>
      </trkpt>
      <trkpt lat="47.26306" lon="0.58285">
        <ele>52</ele>
        <time>2013-05-01T08:12:36Z</time>
      </trkpt>
      <trkpt lat="47.26311" lon="0.58266">
        <ele>53</ele>
        <time>2013-05-01T08:12:40Z</time>
      </trkpt>
      <trkpt lat="47.26312" lon="0.58243">
        <ele>55</ele>
        <time>2013-05-01T08:12:44Z</time>
      </trkpt>
      <trkpt lat="47.2631" lon="0.58224">
        <ele>56</ele>
        <time>2013-05-01T08:12:48Z</time>
      </trkpt>
      <trkpt lat="47.26307" lon="0.58204">
        <ele>57</ele>
        <time>2013-05-01T08:12:52Z</time>
      </trkpt>
      <trkpt lat="47.26306" lon="0.5818">
        <ele>64</ele>
        <time>2013-05-01T08:12:56Z</time>
      </trkpt>
      <trkpt lat="47.26307" lon="0.58152">
        <ele>66</ele>
        <time>2013-05-01T08:13:00Z</time>
      </trkpt>
      <trkpt lat="47.26306" lon="0.5812">
        <ele>71</ele>
        <time>2013-05-01T08:13:05Z</time>
      </trkpt>
      <trkpt lat="47.26305" lon="0.58103">
        <ele>72</ele>
        <time>2013-05-01T08:13:08Z</time>
      </trkpt>
      <trkpt lat="47.26305" lon="0.58078">
        <ele>73</ele>
        <time>2013-05-01T08:13:12Z</time>
      </trkpt>
      <trkpt lat="47.26301" lon="0.58053">
        <ele>69</ele>
        <time>2013-05-01T08:13:16Z</time>
      </trkpt>
      <trkpt lat="47.26295" lon="0.5803">
        <ele>69</ele>
        <time>2013-05-01T08:13:20Z</time>
      </trkpt>
      <trkpt lat="47.26292" lon="0.5801">
        <ele>71</ele>
        <time>2013-05-01T08:13:24Z</time>
      </trkpt>
      <trkpt lat="47.2629" lon="0.57993">
        <ele>70</ele>
        <time>2013-05-01T08:13:28Z</time>
      </trkpt>
      <trkpt lat="47.26286" lon="0.57977">
        <ele>71</ele>
        <time>2013-05-01T08:13:32Z</time>
      </trkpt>
      <trkpt lat="47.26282" lon="0.57961">
        <ele>68</ele>
        <time>2013-05-01T08:13:36Z</time>
      </trkpt>
      <trkpt lat="47.26283" lon="0.57938">
        <ele>65</ele>
        <time>2013-05-01T08:13:40Z</time>
      </trkpt>
      <trkpt lat="47.2628" lon="0.57911">
        <ele>67</ele>
        <time>2013-05-01T08:13:44Z</time>
      </trkpt>
      <trkpt lat="47.26264" lon="0.57878">
        <ele>66</ele>
        <time>2013-05-01T08:13:50Z</time>
      </trkpt>
      <trkpt lat="47.26252" lon="0.57859">
        <ele>65</ele>
        <time>2013-05-01T08:13:54Z</time>
      </trkpt>
      <trkpt lat="47.26247" lon="0.5785">
        <ele>62</ele>
        <time>2013-05-01T08:13:56Z</time>
      </trkpt>
      <trkpt lat="47.26236" lon="0.57833">
        <ele>59</ele>
        <time>2013-05-01T08:14:00Z</time>
      </trkpt>
      <trkpt lat="47.26223" lon="0.57815">
        <ele>57</ele>
        <time>2013-05-01T08:14:05Z</time>
      </trkpt>
      <trkpt lat="47.26216" lon="0.57814">
        <ele>58</ele>
        <time>2013-05-01T08:14:08Z</time>
      </trkpt>
      <trkpt lat="47.2621" lon="0.57826">
        <ele>57</ele>
        <time>2013-05-01T08:14:12Z</time>
      </trkpt>
      <trkpt lat="47.26211" lon="0.57839">
        <ele>60</ele>
        <time>2013-05-01T08:14:16Z</time>
      </trkpt>
      <trkpt lat="47.262" lon="0.57854">
        <ele>62</ele>
        <time>2013-05-01T08:14:26Z</time>
      </trkpt>
      <trkpt lat="47.26198" lon="0.57855">
        <ele>63</ele>
        <time>2013-05-01T08:14:27Z</time>
      </trkpt>
      <trkpt lat="47.26188" lon="0.57862">
        <ele>66</ele>
        <time>2013-05-01T08:14:32Z</time>
      </trkpt>
      <trkpt lat="47.26184" lon="0.57868">
        <ele>70</ele>
        <time>2013-05-01T08:14:35Z</time>
      </trkpt>
      <trkpt lat="47.26175" lon="0.57875">
        <ele>69</ele>
        <time>2013-05-01T08:14:40Z</time>
      </trkpt>
      <trkpt lat="47.26167" lon="0.57879">
        <ele>69</ele>
        <time>2013-05-01T08:14:44Z</time>
      </trkpt>
      <trkpt lat="47.26159" lon="0.57885">
        <ele>68</ele>
        <time>2013-05-01T08:14:48Z</time>
      </trkpt>
      <trkpt lat="47.26153" lon="0.57897">
        <ele>67</ele>
        <time>2013-05-01T08:14:52Z</time>
      </trkpt>
      <trkpt lat="47.26149" lon="0.57912">
        <ele>71</ele>
        <time>2013-05-01T08:14:59Z</time>
      </trkpt>
      <trkpt lat="47.26144" lon="0.57926">
        <ele>74</ele>
        <time>2013-05-01T08:15:07Z</time>
      </trkpt>
      <trkpt lat="47.26132" lon="0.57937">
        <ele>82</ele>
        <time>2013-05-01T08:15:15Z</time>
      </trkpt>
      <trkpt lat="47.2613" lon="0.57942">
        <ele>83</ele>
        <time>2013-05-01T08:15:17Z</time>
      </trkpt>
      <trkpt lat="47.26118" lon="0.57956">
        <ele>82</ele>
        <time>2013-05-01T08:15:25Z</time>
      </trkpt>
      <trkpt lat="47.26115" lon="0.57961">
        <ele>83</ele>
        <time>2013-05-01T08:15:29Z</time>
      </trkpt>
      <trkpt lat="47.2611" lon="0.57974">
        <ele>81</ele>
        <time>2013-05-01T08:15:35Z</time>
      </trkpt>
      <trkpt lat="47.26105" lon="0.57985">
        <ele>82</ele>
        <time>2013-05-01T08:15:39Z</time>
      </trkpt>
      <trkpt lat="47.261" lon="0.58002">
        <ele>82</ele>
        <time>2013-05-01T08:15:45Z</time>
      </trkpt>
      <trkpt lat="47.26095" lon="0.5802">
        <ele>82</ele>
        <time>2013-05-01T08:15:54Z</time>
      </trkpt>
      <trkpt lat="47.26088" lon="0.58033">
        <ele>82</ele>
        <time>2013-05-01T08:16:02Z</time>
      </trkpt>
      <trkpt lat="47.26084" lon="0.58047">
        <ele>86</ele>
        <time>2013-05-01T08:16:10Z</time>
      </trkpt>
      <trkpt lat="47.26082" lon="0.58061">
        <ele>90</ele>
        <time>2013-05-01T08:16:18Z</time>
      </trkpt>
      <trkpt lat="47.26077" lon="0.58078">
        <ele>85</ele>
        <time>2013-05-01T08:16:26Z</time>
      </trkpt>
      <trkpt lat="47.26075" lon="0.58093">
        <ele>86</ele>
        <time>2013-05-01T08:16:34Z</time>
      </trkpt>
      <trkpt lat="47.26079" lon="0.58112">
        <ele>89</ele>
        <time>2013-05-01T08:16:42Z</time>
      </trkpt>
      <trkpt lat="47.26079" lon="0.58124">
        <ele>92</ele>
        <time>2013-05-01T08:16:47Z</time>
      </trkpt>
      <trkpt lat="47.26078" lon="0.58142">
        <ele>93</ele>
        <time>2013-05-01T08:16:55Z</time>
      </trkpt>
      <trkpt lat="47.26077" lon="0.58159">
        <ele>93</ele>
        <time>2013-05-01T08:17:02Z</time>
      </trkpt>
      <trkpt lat="47.26074" lon="0.58171">
        <ele>91</ele>
        <time>2013-05-01T08:17:06Z</time>
      </trkpt>
      <trkpt lat="47.26073" lon="0.58183">
        <ele>91</ele>
        <time>2013-05-01T08:17:10Z</time>
      </trkpt>
      <trkpt lat="47.26072" lon="0.58196">
        <ele>90</ele>
        <time>2013-05-01T08:17:14Z</time>
      </trkpt>
      <trkpt lat="47.26072" lon="0.58222">
        <ele>90</ele>
        <time>2013-05-01T08:17:19Z</time>
      </trkpt>
      <trkpt lat="47.26071" lon="0.58243">
        <ele>93</ele>
        <time>2013-05-01T08:17:24Z</time>
      </trkpt>
      <trkpt lat="47.26071" lon="0.58251">
        <ele>94</ele>
        <time>2013-05-01T08:17:26Z</time>
      </trkpt>
      <trkpt lat="47.26068" lon="0.58277">
        <ele>96</ele>
        <time>2013-05-01T08:17:33Z</time>
      </trkpt>
      <trkpt lat="47.26066" lon="0.58281">
        <ele>92</ele>
        <time>2013-05-01T08:17:35Z</time>
      </trkpt>
      <trkpt lat="47.26063" lon="0.58292">
        <ele>84</ele>
        <time>2013-05-01T08:17:52Z</time>
      </trkpt>
      <trkpt lat="47.26046" lon="0.58299">
        <ele>75</ele>
        <time>2013-05-01T08:18:36Z</time>
      </trkpt>
      <trkpt lat="47.26036" lon="0.58299">
        <ele>74</ele>
        <time>2013-05-01T08:18:40Z</time>
      </trkpt>
      <trkpt lat="47.26024" lon="0.58304">
        <ele>74</ele>
        <time>2013-05-01T08:18:44Z</time>
      </trkpt>
      <trkpt lat="47.26013" lon="0.58313">
        <ele>73</ele>
        <time>2013-05-01T08:18:48Z</time>
      </trkpt>
      <trkpt lat="47.26003" lon="0.58322">
        <ele>74</ele>
        <time>2013-05-01T08:18:52Z</time>
      </trkpt>
      <trkpt lat="47.25992" lon="0.58329">
        <ele>76</ele>
        <time>2013-05-01T08:18:56Z</time>
      </trkpt>
      <trkpt lat="47.25982" lon="0.58338">
        <ele>77</ele>
        <time>2013-05-01T08:19:00Z</time>
      </trkpt>
      <trkpt lat="47.25972" lon="0.58345">
        <ele>77</ele>
        <time>2013-05-01T08:19:04Z</time>
      </trkpt>
      <trkpt lat="47.25962" lon="0.58352">
        <ele>78</ele>
        <time>2013-05-01T08:19:08Z</time>
      </trkpt>
      <trkpt lat="47.25953" lon="0.58359">
        <ele>78</ele>
        <time>2013-05-01T08:19:12Z</time>
      </trkpt>
      <trkpt lat="47.25944" lon="0.58365">
        <ele>79</ele>
        <time>2013-05-01T08:19:16Z</time>
      </trkpt>
      <trkpt lat="47.25928" lon="0.58376">
        <ele>79</ele>
        <time>2013-05-01T08:19:23Z</time>
      </trkpt>
      <trkpt lat="47.25921" lon="0.58381">
        <ele>79</ele>
        <time>2013-05-01T08:19:26Z</time>
      </trkpt>
      <trkpt lat="47.25916" lon="0.58384">
        <ele>79</ele>
        <time>2013-05-01T08:19:28Z</time>
      </trkpt>
      <trkpt lat="47.25907" lon="0.58391">
        <ele>80</ele>
        <time>2013-05-01T08:19:32Z</time>
      </trkpt>
      <trkpt lat="47.25898" lon="0.58397">
        <ele>80</ele>
        <time>2013-05-01T08:19:36Z</time>
      </trkpt>
      <trkpt lat="47.2589" lon="0.58403">
        <ele>80</ele>
        <time>2013-05-01T08:19:40Z</time>
      </trkpt>
      <trkpt lat="47.25873" lon="0.58412">
        <ele>81</ele>
        <time>2013-05-01T08:19:48Z</time>
      </trkpt>
      <trkpt lat="47.25871" lon="0.58413">
        <ele>81</ele>
        <time>2013-05-01T08:19:49Z</time>
      </trkpt>
      <trkpt lat="47.25862" lon="0.58418">
        <ele>82</ele>
        <time>2013-05-01T08:19:53Z</time>
      </trkpt>
      <trkpt lat="47.25854" lon="0.58424">
        <ele>81</ele>
        <time>2013-05-01T08:19:57Z</time>
      </trkpt>
      <trkpt lat="47.25844" lon="0.58433">
        <ele>81</ele>
        <time>2013-05-01T08:20:02Z</time>
      </trkpt>
      <trkpt lat="47.25837" lon="0.5844">
        <ele>79</ele>
        <time>2013-05-01T08:20:05Z</time>
      </trkpt>
      <trkpt lat="47.25827" lon="0.58448">
        <ele>79</ele>
        <time>2013-05-01T08:20:09Z</time>
      </trkpt>
      <trkpt lat="47.2582" lon="0.58458">
        <ele>79</ele>
        <time>2013-05-01T08:20:13Z</time>
      </trkpt>
      <trkpt lat="47.25822" lon="0.58469">
        <ele>81</ele>
        <time>2013-05-01T08:20:17Z</time>
      </trkpt>
      <trkpt lat="47.25828" lon="0.58482">
        <ele>80</ele>
        <time>2013-05-01T08:20:21Z</time>
      </trkpt>
      <trkpt lat="47.25835" lon="0.58496">
        <ele>80</ele>
        <time>2013-05-01T08:20:25Z</time>
      </trkpt>
      <trkpt lat="47.25844" lon="0.5851">
        <ele>81</ele>
        <time>2013-05-01T08:20:29Z</time>
      </trkpt>
      <trkpt lat="47.25852" lon="0.58525">
        <ele>81</ele>
        <time>2013-05-01T08:20:33Z</time>
      </trkpt>
      <trkpt lat="47.25861" lon="0.58542">
        <ele>81</ele>
        <time>2013-05-01T08:20:38Z</time>
      </trkpt>
      <trkpt lat="47.25865" lon="0.58555">
        <ele>80</ele>
        <time>2013-05-01T08:20:41Z</time>
      </trkpt>
      <trkpt lat="47.25862" lon="0.58573">
        <ele>80</ele>
        <time>2013-05-01T08:20:45Z</time>
      </trkpt>
      <trkpt lat="47.25852" lon="0.58588">
        <ele>79</ele>
        <time>2013-05-01T08:20:49Z</time>
      </trkpt>
      <trkpt lat="47.2584" lon="0.58601">
        <ele>78</ele>
        <time>2013-05-01T08:20:53Z</time>
      </trkpt>
      <trkpt lat="47.25828" lon="0.58615">
        <ele>77</ele>
        <time>2013-05-01T08:20:57Z</time>
      </trkpt>
      <trkpt lat="47.25816" lon="0.58628">
        <ele>77</ele>
        <time>2013-05-01T08:21:01Z</time>
      </trkpt>
      <trkpt lat="47.25804" lon="0.58642">
        <ele>78</ele>
        <time>2013-05-01T08:21:05Z</time>
      </trkpt>
      <trkpt lat="47.25793" lon="0.58655">
        <ele>79</ele>
        <time>2013-05-01T08:21:09Z</time>
      </trkpt>
      <trkpt lat="47.25782" lon="0.58668">
        <ele>79</ele>
        <time>2013-05-01T08:21:13Z</time>
      </trkpt>
      <trkpt lat="47.25765" lon="0.58686">
        <ele>80</ele>
        <time>2013-05-01T08:21:19Z</time>
      </trkpt>
      <trkpt lat="47.2575" lon="0.58699">
        <ele>79</ele>
        <time>2013-05-01T08:21:24Z</time>
      </trkpt>
      <trkpt lat="47.25725" lon="0.58721">
        <ele>77</ele>
        <time>2013-05-01T08:21:32Z</time>
      </trkpt>
      <trkpt lat="47.25723" lon="0.58723">
        <ele>77</ele>
        <time>2013-05-01T08:21:33Z</time>
      </trkpt>
      <trkpt lat="47.25711" lon="0.58732">
        <ele>77</ele>
        <time>2013-05-01T08:21:37Z</time>
      </trkpt>
      <trkpt lat="47.257" lon="0.58742">
        <ele>77</ele>
        <time>2013-05-01T08:21:41Z</time>
      </trkpt>
      <trkpt lat="47.25689" lon="0.58753">
        <ele>76</ele>
        <time>2013-05-01T08:21:45Z</time>
      </trkpt>
      <trkpt lat="47.25676" lon="0.58763">
        <ele>76</ele>
        <time>2013-05-01T08:21:51Z</time>
      </trkpt>
      <trkpt lat="47.25665" lon="0.58768">
        <ele>76</ele>
        <time>2013-05-01T08:21:55Z</time>
      </trkpt>
      <trkpt lat="47.25659" lon="0.58771">
        <ele>76</ele>
        <time>2013-05-01T08:21:57Z</time>
      </trkpt>
      <trkpt lat="47.25649" lon="0.58776">
        <ele>77</ele>
        <time>2013-05-01T08:22:01Z</time>
      </trkpt>
      <trkpt lat="47.25637" lon="0.58786">
        <ele>78</ele>
        <time>2013-05-01T08:22:05Z</time>
      </trkpt>
      <trkpt lat="47.25627" lon="0.58796">
        <ele>79</ele>
        <time>2013-05-01T08:22:09Z</time>
      </trkpt>
      <trkpt lat="47.25618" lon="0.58805">
        <ele>80</ele>
        <time>2013-05-01T08:22:13Z</time>
      </trkpt>
      <trkpt lat="47.25606" lon="0.58818">
        <ele>80</ele>
        <time>2013-05-01T08:22:18Z</time>
      </trkpt>
      <trkpt lat="47.25599" lon="0.58826">
        <ele>81</ele>
        <time>2013-05-01T08:22:21Z</time>
      </trkpt>
      <trkpt lat="47.25589" lon="0.58837">
        <ele>81</ele>
        <time>2013-05-01T08:22:25Z</time>
      </trkpt>
      <trkpt lat="47.25579" lon="0.58848">
        <ele>82</ele>
        <time>2013-05-01T08:22:30Z</time>
      </trkpt>
      <trkpt lat="47.25572" lon="0.58855">
        <ele>82</ele>
        <time>2013-05-01T08:22:33Z</time>
      </trkpt>
      <trkpt lat="47.25564" lon="0.58864">
        <ele>82</ele>
        <time>2013-05-01T08:22:37Z</time>
      </trkpt>
      <trkpt lat="47.25558" lon="0.58874">
        <ele>87</ele>
        <time>2013-05-01T08:22:41Z</time>
      </trkpt>
      <trkpt lat="47.25546" lon="0.58891">
        <ele>87</ele>
        <time>2013-05-01T08:22:47Z</time>
      </trkpt>
      <trkpt lat="47.25539" lon="0.58902">
        <ele>87</ele>
        <time>2013-05-01T08:22:51Z</time>
      </trkpt>
      <trkpt lat="47.25534" lon="0.58914">
        <ele>87</ele>
        <time>2013-05-01T08:22:55Z</time>
      </trkpt>
      <trkpt lat="47.25527" lon="0.58926">
        <ele>86</ele>
        <time>2013-05-01T08:22:59Z</time>
      </trkpt>
      <trkpt lat="47.25524" lon="0.58931">
        <ele>86</ele>
        <time>2013-05-01T08:23:01Z</time>
      </trkpt>
      <trkpt lat="47.25518" lon="0.58941">
        <ele>86</ele>
        <time>2013-05-01T08:23:05Z</time>
      </trkpt>
      <trkpt lat="47.25509" lon="0.58956">
        <ele>86</ele>
        <time>2013-05-01T08:23:11Z</time>
      </trkpt>
      <trkpt lat="47.25504" lon="0.58966">
        <ele>86</ele>
        <time>2013-05-01T08:23:15Z</time>
      </trkpt>
      <trkpt lat="47.25502" lon="0.58973">
        <ele>85</ele>
        <time>2013-05-01T08:23:17Z</time>
      </trkpt>
      <trkpt lat="47.25497" lon="0.58983">
        <ele>86</ele>
        <time>2013-05-01T08:23:21Z</time>
      </trkpt>
      <trkpt lat="47.25492" lon="0.58996">
        <ele>86</ele>
        <time>2013-05-01T08:23:25Z</time>
      </trkpt>
      <trkpt lat="47.25483" lon="0.59014">
        <ele>86</ele>
        <time>2013-05-01T08:23:32Z</time>
      </trkpt>
      <trkpt lat="47.25482" lon="0.59017">
        <ele>85</ele>
        <time>2013-05-01T08:23:33Z</time>
      </trkpt>
      <trkpt lat="47.25476" lon="0.59027">
        <ele>86</ele>
        <time>2013-05-01T08:23:37Z</time>
      </trkpt>
      <trkpt lat="47.2547" lon="0.59047">
        <ele>88</ele>
        <time>2013-05-01T08:23:47Z</time>
      </trkpt>
      <trkpt lat="47.25464" lon="0.59055">
        <ele>86</ele>
        <time>2013-05-01T08:23:56Z</time>
      </trkpt>
      <trkpt lat="47.25457" lon="0.59068">
        <ele>84</ele>
        <time>2013-05-01T08:24:04Z</time>
      </trkpt>
      <trkpt lat="47.25454" lon="0.59078">
        <ele>83</ele>
        <time>2013-05-01T08:24:08Z</time>
      </trkpt>
      <trkpt lat="47.2545" lon="0.59089">
        <ele>83</ele>
        <time>2013-05-01T08:24:13Z</time>
      </trkpt>
      <trkpt lat="47.25446" lon="0.59102">
        <ele>83</ele>
        <time>2013-05-01T08:24:19Z</time>
      </trkpt>
      <trkpt lat="47.25442" lon="0.59115">
        <ele>83</ele>
        <time>2013-05-01T08:24:24Z</time>
      </trkpt>
      <trkpt lat="47.2544" lon="0.59126">
        <ele>83</ele>
        <time>2013-05-01T08:24:28Z</time>
      </trkpt>
      <trkpt lat="47.25437" lon="0.59136">
        <ele>83</ele>
        <time>2013-05-01T08:24:32Z</time>
      </trkpt>
      <trkpt lat="47.25434" lon="0.59147">
        <ele>82</ele>
        <time>2013-05-01T08:24:36Z</time>
      </trkpt>
      <trkpt lat="47.2543" lon="0.59158">
        <ele>82</ele>
        <time>2013-05-01T08:24:40Z</time>
      </trkpt>
      <trkpt lat="47.25426" lon="0.59171">
        <ele>83</ele>
        <time>2013-05-01T08:24:44Z</time>
      </trkpt>
      <trkpt lat="47.25423" lon="0.59183">
        <ele>82</ele>
        <time>2013-05-01T08:24:48Z</time>
      </trkpt>
      <trkpt lat="47.25419" lon="0.59196">
        <ele>82</ele>
        <time>2013-05-01T08:24:52Z</time>
      </trkpt>
      <trkpt lat="47.25416" lon="0.5921">
        <ele>83</ele>
        <time>2013-05-01T08:24:56Z</time>
      </trkpt>
      <trkpt lat="47.25412" lon="0.59223">
        <ele>83</ele>
        <time>2013-05-01T08:25:00Z</time>
      </trkpt>
      <trkpt lat="47.25408" lon="0.59237">
        <ele>83</ele>
        <time>2013-05-01T08:25:04Z</time>
      </trkpt>
      <trkpt lat="47.25405" lon="0.5925">
        <ele>83</ele>
        <time>2013-05-01T08:25:08Z</time>
      </trkpt>
      <trkpt lat="47.25401" lon="0.59263">
        <ele>83</ele>
        <time>2013-05-01T08:25:12Z</time>
      </trkpt>
      <trkpt lat="47.25398" lon="0.59277">
        <ele>83</ele>
        <time>2013-05-01T08:25:16Z</time>
      </trkpt>
      <trkpt lat="47.25394" lon="0.59291">
        <ele>82</ele>
        <time>2013-05-01T08:25:20Z</time>
      </trkpt>
      <trkpt lat="47.25389" lon="0.59305">
        <ele>82</ele>
        <time>2013-05-01T08:25:24Z</time>
      </trkpt>
      <trkpt lat="47.25385" lon="0.5932">
        <ele>82</ele>
        <time>2013-05-01T08:25:28Z</time>
      </trkpt>
      <trkpt lat="47.25381" lon="0.59333">
        <ele>81</ele>
        <time>2013-05-01T08:25:32Z</time>
      </trkpt>
      <trkpt lat="47.25378" lon="0.59347">
        <ele>81</ele>
        <time>2013-05-01T08:25:36Z</time>
      </trkpt>
      <trkpt lat="47.25374" lon="0.59359">
        <ele>81</ele>
        <time>2013-05-01T08:25:40Z</time>
      </trkpt>
      <trkpt lat="47.2537" lon="0.5937">
        <ele>81</ele>
        <time>2013-05-01T08:25:44Z</time>
      </trkpt>
      <trkpt lat="47.25366" lon="0.59381">
        <ele>81</ele>
        <time>2013-05-01T08:25:48Z</time>
      </trkpt>
      <trkpt lat="47.25362" lon="0.5939">
        <ele>81</ele>
        <time>2013-05-01T08:25:52Z</time>
      </trkpt>
      <trkpt lat="47.25356" lon="0.59399">
        <ele>82</ele>
        <time>2013-05-01T08:25:59Z</time>
      </trkpt>
      <trkpt lat="47.25348" lon="0.59411">
        <ele>77</ele>
        <time>2013-05-01T08:26:07Z</time>
      </trkpt>
      <trkpt lat="47.25342" lon="0.59422">
        <ele>79</ele>
        <time>2013-05-01T08:26:11Z</time>
      </trkpt>
      <trkpt lat="47.25335" lon="0.5943">
        <ele>79</ele>
        <time>2013-05-01T08:26:15Z</time>
      </trkpt>
      <trkpt lat="47.25328" lon="0.59437">
        <ele>81</ele>
        <time>2013-05-01T08:26:19Z</time>
      </trkpt>
      <trkpt lat="47.25321" lon="0.59447">
        <ele>82</ele>
        <time>2013-05-01T08:26:23Z</time>
      </trkpt>
      <trkpt lat="47.25314" lon="0.59455">
        <ele>83</ele>
        <time>2013-05-01T08:26:27Z</time>
      </trkpt>
      <trkpt lat="47.25307" lon="0.59464">
        <ele>83</ele>
        <time>2013-05-01T08:26:31Z</time>
      </trkpt>
      <trkpt lat="47.253" lon="0.59473">
        <ele>84</ele>
        <time>2013-05-01T08:26:35Z</time>
      </trkpt>
      <trkpt lat="47.25292" lon="0.59482">
        <ele>84</ele>
        <time>2013-05-01T08:26:39Z</time>
      </trkpt>
      <trkpt lat="47.25285" lon="0.59492">
        <ele>86</ele>
        <time>2013-05-01T08:26:44Z</time>
      </trkpt>
      <trkpt lat="47.25276" lon="0.59496">
        <ele>84</ele>
        <time>2013-05-01T08:26:48Z</time>
      </trkpt>
      <trkpt lat="47.25282" lon="0.5951">
        <ele>93</ele>
        <time>2013-05-01T08:26:55Z</time>
      </trkpt>
      <trkpt lat="47.25276" lon="0.59514">
        <ele>94</ele>
        <time>2013-05-01T08:26:58Z</time>
      </trkpt>
      <trkpt lat="47.25268" lon="0.59526">
        <ele>93</ele>
        <time>2013-05-01T08:27:02Z</time>
      </trkpt>
      <trkpt lat="47.2526" lon="0.59538">
        <ele>92</ele>
        <time>2013-05-01T08:27:06Z</time>
      </trkpt>
      <trkpt lat="47.25254" lon="0.5955">
        <ele>95</ele>
        <time>2013-05-01T08:27:10Z</time>
      </trkpt>
      <trkpt lat="47.2525" lon="0.59565">
        <ele>99</ele>
        <time>2013-05-01T08:27:16Z</time>
      </trkpt>
      <trkpt lat="47.25243" lon="0.59576">
        <ele>101</ele>
        <time>2013-05-01T08:27:20Z</time>
      </trkpt>
      <trkpt lat="47.25254" lon="0.59586">
        <ele>122</ele>
        <time>2013-05-01T08:27:25Z</time>
      </trkpt>
      <trkpt lat="47.25257" lon="0.59595">
        <ele>136</ele>
        <time>2013-05-01T08:27:29Z</time>
      </trkpt>
      <trkpt lat="47.25241" lon="0.59611">
        <ele>126</ele>
        <time>2013-05-01T08:27:33Z</time>
      </trkpt>
      <trkpt lat="47.25225" lon="0.59634">
        <ele>113</ele>
        <time>2013-05-01T08:27:39Z</time>
      </trkpt>
      <trkpt lat="47.25218" lon="0.59648">
        <ele>107</ele>
        <time>2013-05-01T08:27:43Z</time>
      </trkpt>
      <trkpt lat="47.25209" lon="0.59665">
        <ele>102</ele>
        <time>2013-05-01T08:27:48Z</time>
      </trkpt>
      <trkpt lat="47.25208" lon="0.59669">
        <ele>101</ele>
        <time>2013-05-01T08:27:49Z</time>
      </trkpt>
      <trkpt lat="47.25201" lon="0.59683">
        <ele>100</ele>
        <time>2013-05-01T08:27:53Z</time>
      </trkpt>
      <trkpt lat="47.25194" lon="0.59697">
        <ele>98</ele>
        <time>2013-05-01T08:27:57Z</time>
      </trkpt>
      <trkpt lat="47.25186" lon="0.59712">
        <ele>99</ele>
        <time>2013-05-01T08:28:02Z</time>
      </trkpt>
      <trkpt lat="47.2518" lon="0.59719">
        <ele>99</ele>
        <time>2013-05-01T08:28:05Z</time>
      </trkpt>
      <trkpt lat="47.25175" lon="0.5973">
        <ele>98</ele>
        <time>2013-05-01T08:28:10Z</time>
      </trkpt>
      <trkpt lat="47.25186" lon="0.59736">
        <ele>94</ele>
        <time>2013-05-01T08:28:15Z</time>
      </trkpt>
      <trkpt lat="47.25196" lon="0.59737">
        <ele>92</ele>
        <time>2013-05-01T08:28:19Z</time>
      </trkpt>
      <trkpt lat="47.25206" lon="0.59739">
        <ele>90</ele>
        <time>2013-05-01T08:28:23Z</time>
      </trkpt>
      <trkpt lat="47.25216" lon="0.5974">
        <ele>90</ele>
        <time>2013-05-01T08:28:28Z</time>
      </trkpt>
      <trkpt lat="47.25226" lon="0.59744">
        <ele>89</ele>
        <time>2013-05-01T08:28:33Z</time>
      </trkpt>
      <trkpt lat="47.25235" lon="0.59745">
        <ele>90</ele>
        <time>2013-05-01T08:28:37Z</time>
      </trkpt>
      <trkpt lat="47.25244" lon="0.59746">
        <ele>90</ele>
        <time>2013-05-01T08:28:41Z</time>
      </trkpt>
      <trkpt lat="47.25254" lon="0.59747">
        <ele>89</ele>
        <time>2013-05-01T08:28:45Z</time>
      </trkpt>
      <trkpt lat="47.25263" lon="0.5975">
        <ele>90</ele>
        <time>2013-05-01T08:28:49Z</time>
      </trkpt>
      <trkpt lat="47.25273" lon="0.59752">
        <ele>88</ele>
        <time>2013-05-01T08:28:53Z</time>
      </trkpt>
      <trkpt lat="47.25283" lon="0.59753">
        <ele>87</ele>
        <time>2013-05-01T08:28:57Z</time>
      </trkpt>
      <trkpt lat="47.25292" lon="0.59756">
        <ele>87</ele>
        <time>2013-05-01T08:29:01Z</time>
      </trkpt>
      <trkpt lat="47.25302" lon="0.59759">
        <ele>87</ele>
        <time>2013-05-01T08:29:05Z</time>
      </trkpt>
      <trkpt lat="47.25311" lon="0.59761">
        <ele>87</ele>
        <time>2013-05-01T08:29:09Z</time>
      </trkpt>
      <trkpt lat="47.2532" lon="0.59761">
        <ele>87</ele>
        <time>2013-05-01T08:29:13Z</time>
      </trkpt>
      <trkpt lat="47.2533" lon="0.59762">
        <ele>88</ele>
        <time>2013-05-01T08:29:17Z</time>
      </trkpt>
      <trkpt lat="47.25338" lon="0.59764">
        <ele>87</ele>
        <time>2013-05-01T08:29:21Z</time>
      </trkpt>
      <trkpt lat="47.25347" lon="0.59763">
        <ele>87</ele>
        <time>2013-05-01T08:29:25Z</time>
      </trkpt>
      <trkpt lat="47.25356" lon="0.59763">
        <ele>87</ele>
        <time>2013-05-01T08:29:29Z</time>
      </trkpt>
      <trkpt lat="47.25365" lon="0.59765">
        <ele>86</ele>
        <time>2013-05-01T08:29:33Z</time>
      </trkpt>
      <trkpt lat="47.25375" lon="0.59767">
        <ele>89</ele>
        <time>2013-05-01T08:29:37Z</time>
      </trkpt>
      <trkpt lat="47.25385" lon="0.59769">
        <ele>87</ele>
        <time>2013-05-01T08:29:41Z</time>
      </trkpt>
      <trkpt lat="47.25396" lon="0.5977">
        <ele>87</ele>
        <time>2013-05-01T08:29:45Z</time>
      </trkpt>
      <trkpt lat="47.25408" lon="0.59772">
        <ele>86</ele>
        <time>2013-05-01T08:29:49Z</time>
      </trkpt>
      <trkpt lat="47.25421" lon="0.59774">
        <ele>86</ele>
        <time>2013-05-01T08:29:53Z</time>
      </trkpt>
      <trkpt lat="47.25433" lon="0.59776">
        <ele>85</ele>
        <time>2013-05-01T08:29:57Z</time>
      </trkpt>
      <trkpt lat="47.25445" lon="0.59778">
        <ele>85</ele>
        <time>2013-05-01T08:30:01Z</time>
      </trkpt>
      <trkpt lat="47.25457" lon="0.59781">
        <ele>84</ele>
        <time>2013-05-01T08:30:05Z</time>
      </trkpt>
      <trkpt lat="47.2547" lon="0.59782">
        <ele>85</ele>
        <time>2013-05-01T08:30:09Z</time>
      </trkpt>
      <trkpt lat="47.25488" lon="0.59785">
        <ele>86</ele>
        <time>2013-05-01T08:30:15Z</time>
      </trkpt>
      <trkpt lat="47.25505" lon="0.59788">
        <ele>86</ele>
        <time>2013-05-01T08:30:20Z</time>
      </trkpt>
      <trkpt lat="47.25517" lon="0.5979">
        <ele>85</ele>
        <time>2013-05-01T08:30:24Z</time>
      </trkpt>
      <trkpt lat="47.2553" lon="0.5979">
        <ele>85</ele>
        <time>2013-05-01T08:30:28Z</time>
      </trkpt>
      <trkpt lat="47.25543" lon="0.59792">
        <ele>85</ele>
        <time>2013-05-01T08:30:32Z</time>
      </trkpt>
      <trkpt lat="47.25555" lon="0.59794">
        <ele>85</ele>
        <time>2013-05-01T08:30:36Z</time>
      </trkpt>
      <trkpt lat="47.25567" lon="0.59796">
        <ele>85</ele>
        <time>2013-05-01T08:30:40Z</time>
      </trkpt>
      <trkpt lat="47.25574" lon="0.59805">
        <ele>82</ele>
        <time>2013-05-01T08:30:44Z</time>
      </trkpt>
      <trkpt lat="47.25574" lon="0.59826">
        <ele>82</ele>
        <time>2013-05-01T08:30:48Z</time>
      </trkpt>
      <trkpt lat="47.25574" lon="0.59848">
        <ele>81</ele>
        <time>2013-05-01T08:30:52Z</time>
      </trkpt>
      <trkpt lat="47.25575" lon="0.5987">
        <ele>81</ele>
        <time>2013-05-01T08:30:56Z</time>
      </trkpt>
      <trkpt lat="47.25576" lon="0.59892">
        <ele>81</ele>
        <time>2013-05-01T08:31:00Z</time>
      </trkpt>
      <trkpt lat="47.25576" lon="0.59911">
        <ele>81</ele>
        <time>2013-05-01T08:31:04Z</time>
      </trkpt>
      <trkpt lat="47.25577" lon="0.5993">
        <ele>81</ele>
        <time>2013-05-01T08:31:08Z</time>
      </trkpt>
      <trkpt lat="47.25578" lon="0.59949">
        <ele>81</ele>
        <time>2013-05-01T08:31:12Z</time>
      </trkpt>
      <trkpt lat="47.25579" lon="0.5997">
        <ele>81</ele>
        <time>2013-05-01T08:31:16Z</time>
      </trkpt>
      <trkpt lat="47.2558" lon="0.5999">
        <ele>81</ele>
        <time>2013-05-01T08:31:20Z</time>
      </trkpt>
      <trkpt lat="47.2558" lon="0.60012">
        <ele>80</ele>
        <time>2013-05-01T08:31:24Z</time>
      </trkpt>
      <trkpt lat="47.25581" lon="0.60034">
        <ele>80</ele>
        <time>2013-05-01T08:31:28Z</time>
      </trkpt>
      <trkpt lat="47.2558" lon="0.60056">
        <ele>78</ele>
        <time>2013-05-01T08:31:32Z</time>
      </trkpt>
      <trkpt lat="47.25581" lon="0.60076">
        <ele>78</ele>
        <time>2013-05-01T08:31:36Z</time>
      </trkpt>
      <trkpt lat="47.25582" lon="0.60093">
        <ele>78</ele>
        <time>2013-05-01T08:31:40Z</time>
      </trkpt>
      <trkpt lat="47.25584" lon="0.60113">
        <ele>77</ele>
        <time>2013-05-01T08:31:44Z</time>
      </trkpt>
      <trkpt lat="47.25589" lon="0.60136">
        <ele>76</ele>
        <time>2013-05-01T08:31:48Z</time>
      </trkpt>
      <trkpt lat="47.25592" lon="0.60155">
        <ele>77</ele>
        <time>2013-05-01T08:31:52Z</time>
      </trkpt>
      <trkpt lat="47.25594" lon="0.60171">
        <ele>78</ele>
        <time>2013-05-01T08:31:56Z</time>
      </trkpt>
      <trkpt lat="47.25595" lon="0.60187">
        <ele>79</ele>
        <time>2013-05-01T08:32:00Z</time>
      </trkpt>
      <trkpt lat="47.25593" lon="0.60204">
        <ele>78</ele>
        <time>2013-05-01T08:32:04Z</time>
      </trkpt>
      <trkpt lat="47.2559" lon="0.60221">
        <ele>75</ele>
        <time>2013-05-01T08:32:08Z</time>
      </trkpt>
      <trkpt lat="47.25584" lon="0.60238">
        <ele>77</ele>
        <time>2013-05-01T08:32:12Z</time>
      </trkpt>
      <trkpt lat="47.2558" lon="0.60256">
        <ele>77</ele>
        <time>2013-05-01T08:32:16Z</time>
      </trkpt>
      <trkpt lat="47.25576" lon="0.60276">
        <ele>77</ele>
        <time>2013-05-01T08:32:20Z</time>
      </trkpt>
      <trkpt lat="47.25572" lon="0.60297">
        <ele>78</ele>
        <time>2013-05-01T08:32:24Z</time>
      </trkpt>
      <trkpt lat="47.25567" lon="0.60326">
        <ele>79</ele>
        <time>2013-05-01T08:32:31Z</time>
      </trkpt>
      <trkpt lat="47.25566" lon="0.6033">
        <ele>78</ele>
        <time>2013-05-01T08:32:32Z</time>
      </trkpt>
      <trkpt lat="47.25562" lon="0.60354">
        <ele>75</ele>
        <time>2013-05-01T08:32:38Z</time>
      </trkpt>
      <trkpt lat="47.25561" lon="0.60361">
        <ele>75</ele>
        <time>2013-05-01T08:32:40Z</time>
      </trkpt>
      <trkpt lat="47.25558" lon="0.60375">
        <ele>76</ele>
        <time>2013-05-01T08:32:44Z</time>
      </trkpt>
      <trkpt lat="47.25556" lon="0.60389">
        <ele>76</ele>
        <time>2013-05-01T08:32:48Z</time>
      </trkpt>
      <trkpt lat="47.25554" lon="0.60402">
        <ele>76</ele>
        <time>2013-05-01T08:32:52Z</time>
      </trkpt>
      <trkpt lat="47.25551" lon="0.60416">
        <ele>75</ele>
        <time>2013-05-01T08:32:56Z</time>
      </trkpt>
      <trkpt lat="47.25549" lon="0.6043">
        <ele>75</ele>
        <time>2013-05-01T08:33:00Z</time>
      </trkpt>
      <trkpt lat="47.25547" lon="0.60453">
        <ele>76</ele>
        <time>2013-05-01T08:33:06Z</time>
      </trkpt>
      <trkpt lat="47.25546" lon="0.60468">
        <ele>75</ele>
        <time>2013-05-01T08:33:10Z</time>
      </trkpt>
      <trkpt lat="47.25546" lon="0.60483">
        <ele>75</ele>
        <time>2013-05-01T08:33:14Z</time>
      </trkpt>
      <trkpt lat="47.25547" lon="0.60497">
        <ele>76</ele>
        <time>2013-05-01T08:33:18Z</time>
      </trkpt>
      <trkpt lat="47.25547" lon="0.60511">
        <ele>76</ele>
        <time>2013-05-01T08:33:22Z</time>
      </trkpt>
      <trkpt lat="47.25546" lon="0.60526">
        <ele>77</ele>
        <time>2013-05-01T08:33:26Z</time>
      </trkpt>
      <trkpt lat="47.25545" lon="0.6054">
        <ele>77</ele>
        <time>2013-05-01T08:33:30Z</time>
      </trkpt>
      <trkpt lat="47.25543" lon="0.60557">
        <ele>77</ele>
        <time>2013-05-01T08:33:34Z</time>
      </trkpt>
      <trkpt lat="47.25542" lon="0.60574">
        <ele>78</ele>
        <time>2013-05-01T08:33:38Z</time>
      </trkpt>
      <trkpt lat="47.25541" lon="0.60589">
        <ele>78</ele>
        <time>2013-05-01T08:33:42Z</time>
      </trkpt>
      <trkpt lat="47.2554" lon="0.60608">
        <ele>77</ele>
        <time>2013-05-01T08:33:46Z</time>
      </trkpt>
      <trkpt lat="47.2554" lon="0.60626">
        <ele>73</ele>
        <time>2013-05-01T08:33:50Z</time>
      </trkpt>
      <trkpt lat="47.25537" lon="0.60643">
        <ele>72</ele>
        <time>2013-05-01T08:33:54Z</time>
      </trkpt>
      <trkpt lat="47.25537" lon="0.60661">
        <ele>73</ele>
        <time>2013-05-01T08:33:58Z</time>
      </trkpt>
      <trkpt lat="47.25534" lon="0.6068">
        <ele>71</ele>
        <time>2013-05-01T08:34:02Z</time>
      </trkpt>
      <trkpt lat="47.25535" lon="0.60701">
        <ele>72</ele>
        <time>2013-05-01T08:34:06Z</time>
      </trkpt>
      <trkpt lat="47.25536" lon="0.60726">
        <ele>72</ele>
        <time>2013-05-01T08:34:11Z</time>
      </trkpt>
      <trkpt lat="47.25536" lon="0.60739">
        <ele>71</ele>
        <time>2013-05-01T08:34:14Z</time>
      </trkpt>
      <trkpt lat="47.25537" lon="0.6076">
        <ele>71</ele>
        <time>2013-05-01T08:34:19Z</time>
      </trkpt>
      <trkpt lat="47.25537" lon="0.60772">
        <ele>72</ele>
        <time>2013-05-01T08:34:22Z</time>
      </trkpt>
      <trkpt lat="47.25538" lon="0.60789">
        <ele>73</ele>
        <time>2013-05-01T08:34:26Z</time>
      </trkpt>
      <trkpt lat="47.25539" lon="0.60805">
        <ele>73</ele>
        <time>2013-05-01T08:34:30Z</time>
      </trkpt>
      <trkpt lat="47.25538" lon="0.60824">
        <ele>73</ele>
        <time>2013-05-01T08:34:34Z</time>
      </trkpt>
      <trkpt lat="47.25536" lon="0.60838">
        <ele>73</ele>
        <time>2013-05-01T08:34:40Z</time>
      </trkpt>
      <trkpt lat="47.25538" lon="0.60853">
        <ele>75</ele>
        <time>2013-05-01T08:34:45Z</time>
      </trkpt>
      <trkpt lat="47.25542" lon="0.60869">
        <ele>74</ele>
        <time>2013-05-01T08:34:49Z</time>
      </trkpt>
      <trkpt lat="47.25547" lon="0.60891">
        <ele>75</ele>
        <time>2013-05-01T08:34:54Z</time>
      </trkpt>
      <trkpt lat="47.25554" lon="0.60923">
        <ele>76</ele>
        <time>2013-05-01T08:35:00Z</time>
      </trkpt>
      <trkpt lat="47.25562" lon="0.60955">
        <ele>77</ele>
        <time>2013-05-01T08:35:05Z</time>
      </trkpt>
      <trkpt lat="47.25572" lon="0.60989">
        <ele>75</ele>
        <time>2013-05-01T08:35:10Z</time>
      </trkpt>
      <trkpt lat="47.25575" lon="0.61007">
        <ele>74</ele>
        <time>2013-05-01T08:35:13Z</time>
      </trkpt>
      <trkpt lat="47.25564" lon="0.61024">
        <ele>75</ele>
        <time>2013-05-01T08:35:18Z</time>
      </trkpt>
      <trkpt lat="47.25556" lon="0.61032">
        <ele>73</ele>
        <time>2013-05-01T08:35:21Z</time>
      </trkpt>
      <trkpt lat="47.25548" lon="0.6105">
        <ele>71</ele>
        <time>2013-05-01T08:35:25Z</time>
      </trkpt>
      <trkpt lat="47.2555" lon="0.61079">
        <ele>64</ele>
        <time>2013-05-01T08:35:30Z</time>
      </trkpt>
      <trkpt lat="47.25556" lon="0.61103">
        <ele>61</ele>
        <time>2013-05-01T08:35:33Z</time>
      </trkpt>
      <trkpt lat="47.25563" lon="0.61137">
        <ele>59</ele>
        <time>2013-05-01T08:35:37Z</time>
      </trkpt>
      <trkpt lat="47.25567" lon="0.6117">
        <ele>56</ele>
        <time>2013-05-01T08:35:43Z</time>
      </trkpt>
      <trkpt lat="47.25563" lon="0.61182">
        <ele>61</ele>
        <time>2013-05-01T08:35:49Z</time>
      </trkpt>
      <trkpt lat="47.25561" lon="0.61198">
        <ele>58</ele>
        <time>2013-05-01T08:35:56Z</time>
      </trkpt>
      <trkpt lat="47.25562" lon="0.61215">
        <ele>65</ele>
        <time>2013-05-01T08:36:02Z</time>
      </trkpt>
      <trkpt lat="47.25565" lon="0.61225">
        <ele>67</ele>
        <time>2013-05-01T08:36:06Z</time>
      </trkpt>
      <trkpt lat="47.25568" lon="0.6124">
        <ele>65</ele>
        <time>2013-05-01T08:36:11Z</time>
      </trkpt>
      <trkpt lat="47.25572" lon="0.61256">
        <ele>73</ele>
        <time>2013-05-01T08:36:17Z</time>
      </trkpt>
      <trkpt lat="47.25577" lon="0.61281">
        <ele>80</ele>
        <time>2013-05-01T08:36:24Z</time>
      </trkpt>
      <trkpt lat="47.25578" lon="0.61287">
        <ele>82</ele>
        <time>2013-05-01T08:36:26Z</time>
      </trkpt>
      <trkpt lat="47.25582" lon="0.61307">
        <ele>88</ele>
        <time>2013-05-01T08:36:32Z</time>
      </trkpt>
      <trkpt lat="47.25584" lon="0.61312">
        <ele>90</ele>
        <time>2013-05-01T08:36:34Z</time>
      </trkpt>
      <trkpt lat="47.25588" lon="0.61336">
        <ele>98</ele>
        <time>2013-05-01T08:36:43Z</time>
      </trkpt>
      <trkpt lat="47.25589" lon="0.61341">
        <ele>97</ele>
        <time>2013-05-01T08:36:45Z</time>
      </trkpt>
      <trkpt lat="47.2559" lon="0.61359">
        <ele>97</ele>
        <time>2013-05-01T08:36:49Z</time>
      </trkpt>
      <trkpt lat="47.25593" lon="0.61377">
        <ele>99</ele>
        <time>2013-05-01T08:36:55Z</time>
      </trkpt>
      <trkpt lat="47.25597" lon="0.6139">
        <ele>97</ele>
        <time>2013-05-01T08:37:00Z</time>
      </trkpt>
      <trkpt lat="47.256" lon="0.61404">
        <ele>99</ele>
        <time>2013-05-01T08:37:05Z</time>
      </trkpt>
      <trkpt lat="47.25602" lon="0.61413">
        <ele>100</ele>
        <time>2013-05-01T08:37:11Z</time>
      </trkpt>
      <trkpt lat="47.256" lon="0.61429">
        <ele>103</ele>
        <time>2013-05-01T08:37:16Z</time>
      </trkpt>
      <trkpt lat="47.256" lon="0.61439">
        <ele>105</ele>
        <time>2013-05-01T08:37:19Z</time>
      </trkpt>
      <trkpt lat="47.25607" lon="0.6146">
        <ele>118</ele>
        <time>2013-05-01T08:37:29Z</time>
      </trkpt>
      <trkpt lat="47.25605" lon="0.61466">
        <ele>116</ele>
        <time>2013-05-01T08:37:31Z</time>
      </trkpt>
      <trkpt lat="47.25602" lon="0.61472">
        <ele>116</ele>
        <time>2013-05-01T08:37:34Z</time>
      </trkpt>
      <trkpt lat="47.25598" lon="0.61485">
        <ele>115</ele>
        <time>2013-05-01T08:37:39Z</time>
      </trkpt>
      <trkpt lat="47.25597" lon="0.61498">
        <ele>113</ele>
        <time>2013-05-01T08:37:43Z</time>
      </trkpt>
      <trkpt lat="47.25592" lon="0.61509">
        <ele>107</ele>
        <time>2013-05-01T08:37:47Z</time>
      </trkpt>
      <trkpt lat="47.25579" lon="0.6153">
        <ele>107</ele>
        <time>2013-05-01T08:37:59Z</time>
      </trkpt>
      <trkpt lat="47.25577" lon="0.61533">
        <ele>105</ele>
        <time>2013-05-01T08:38:01Z</time>
      </trkpt>
      <trkpt lat="47.25542" lon="0.61551">
        <ele>96</ele>
        <time>2013-05-01T08:39:29Z</time>
      </trkpt>
      <trkpt lat="47.2553" lon="0.61551">
        <ele>98</ele>
        <time>2013-05-01T08:39:33Z</time>
      </trkpt>
      <trkpt lat="47.25517" lon="0.61551">
        <ele>97</ele>
        <time>2013-05-01T08:39:37Z</time>
      </trkpt>
      <trkpt lat="47.25507" lon="0.61549">
        <ele>96</ele>
        <time>2013-05-01T08:39:41Z</time>
      </trkpt>
      <trkpt lat="47.25496" lon="0.61548">
        <ele>95</ele>
        <time>2013-05-01T08:39:45Z</time>
      </trkpt>
      <trkpt lat="47.25485" lon="0.61548">
        <ele>95</ele>
        <time>2013-05-01T08:39:49Z</time>
      </trkpt>
      <trkpt lat="47.25473" lon="0.61548">
        <ele>94</ele>
        <time>2013-05-01T08:39:53Z</time>
      </trkpt>
      <trkpt lat="47.25463" lon="0.61549">
        <ele>92</ele>
        <time>2013-05-01T08:39:57Z</time>
      </trkpt>
      <trkpt lat="47.25448" lon="0.6155">
        <ele>90</ele>
        <time>2013-05-01T08:40:02Z</time>
      </trkpt>
      <trkpt lat="47.25437" lon="0.6155">
        <ele>90</ele>
        <time>2013-05-01T08:40:06Z</time>
      </trkpt>
      <trkpt lat="47.25425" lon="0.61547">
        <ele>89</ele>
        <time>2013-05-01T08:40:10Z</time>
      </trkpt>
      <trkpt lat="47.25414" lon="0.61542">
        <ele>90</ele>
        <time>2013-05-01T08:40:14Z</time>
      </trkpt>
      <trkpt lat="47.25403" lon="0.61536">
        <ele>90</ele>
        <time>2013-05-01T08:40:18Z</time>
      </trkpt>
      <trkpt lat="47.2539" lon="0.61532">
        <ele>90</ele>
        <time>2013-05-01T08:40:22Z</time>
      </trkpt>
      <trkpt lat="47.25378" lon="0.61528">
        <ele>89</ele>
        <time>2013-05-01T08:40:26Z</time>
      </trkpt>
      <trkpt lat="47.25365" lon="0.61524">
        <ele>90</ele>
        <time>2013-05-01T08:40:30Z</time>
      </trkpt>
      <trkpt lat="47.25353" lon="0.61519">
        <ele>90</ele>
        <time>2013-05-01T08:40:34Z</time>
      </trkpt>
      <trkpt lat="47.25341" lon="0.61514">
        <ele>91</ele>
        <time>2013-05-01T08:40:38Z</time>
      </trkpt>
      <trkpt lat="47.25329" lon="0.61509">
        <ele>91</ele>
        <time>2013-05-01T08:40:42Z</time>
      </trkpt>
      <trkpt lat="47.25316" lon="0.61504">
        <ele>91</ele>
        <time>2013-05-01T08:40:46Z</time>
      </trkpt>
      <trkpt lat="47.25302" lon="0.61501">
        <ele>92</ele>
        <time>2013-05-01T08:40:50Z</time>
      </trkpt>
      <trkpt lat="47.25289" lon="0.61498">
        <ele>91</ele>
        <time>2013-05-01T08:40:54Z</time>
      </trkpt>
      <trkpt lat="47.25277" lon="0.61496">
        <ele>91</ele>
        <time>2013-05-01T08:40:58Z</time>
      </trkpt>
      <trkpt lat="47.25265" lon="0.61495">
        <ele>91</ele>
        <time>2013-05-01T08:41:02Z</time>
      </trkpt>
      <trkpt lat="47.25254" lon="0.61494">
        <ele>91</ele>
        <time>2013-05-01T08:41:06Z</time>
      </trkpt>
      <trkpt lat="47.25244" lon="0.61495">
        <ele>91</ele>
        <time>2013-05-01T08:41:10Z</time>
      </trkpt>
      <trkpt lat="47.25234" lon="0.61495">
        <ele>93</ele>
        <time>2013-05-01T08:41:22Z</time>
      </trkpt>
      <trkpt lat="47.25226" lon="0.61494">
        <ele>92</ele>
        <time>2013-05-01T08:41:26Z</time>
      </trkpt>
      <trkpt lat="47.25217" lon="0.61494">
        <ele>93</ele>
        <time>2013-05-01T08:41:30Z</time>
      </trkpt>
      <trkpt lat="47.25207" lon="0.61494">
        <ele>93</ele>
        <time>2013-05-01T08:41:34Z</time>
      </trkpt>
      <trkpt lat="47.25196" lon="0.61495">
        <ele>93</ele>
        <time>2013-05-01T08:41:38Z</time>
      </trkpt>
      <trkpt lat="47.25187" lon="0.61496">
        <ele>93</ele>
        <time>2013-05-01T08:41:42Z</time>
      </trkpt>
      <trkpt lat="47.25176" lon="0.61497">
        <ele>92</ele>
        <time>2013-05-01T08:41:46Z</time>
      </trkpt>
      <trkpt lat="47.25161" lon="0.61497">
        <ele>92</ele>
        <time>2013-05-01T08:41:52Z</time>
      </trkpt>
      <trkpt lat="47.25151" lon="0.615">
        <ele>92</ele>
        <time>2013-05-01T08:41:56Z</time>
      </trkpt>
      <trkpt lat="47.2514" lon="0.61502">
        <ele>92</ele>
        <time>2013-05-01T08:42:00Z</time>
      </trkpt>
      <trkpt lat="47.25129" lon="0.61505">
        <ele>92</ele>
        <time>2013-05-01T08:42:04Z</time>
      </trkpt>
      <trkpt lat="47.25119" lon="0.61508">
        <ele>94</ele>
        <time>2013-05-01T08:42:08Z</time>
      </trkpt>
      <trkpt lat="47.25111" lon="0.61512">
        <ele>95</ele>
        <time>2013-05-01T08:42:12Z</time>
      </trkpt>
      <trkpt lat="47.25101" lon="0.61515">
        <ele>95</ele>
        <time>2013-05-01T08:42:16Z</time>
      </trkpt>
      <trkpt lat="47.2509" lon="0.61519">
        <ele>96</ele>
        <time>2013-05-01T08:42:20Z</time>
      </trkpt>
      <trkpt lat="47.25079" lon="0.61523">
        <ele>97</ele>
        <time>2013-05-01T08:42:24Z</time>
      </trkpt>
      <trkpt lat="47.25068" lon="0.61527">
        <ele>99</ele>
        <time>2013-05-01T08:42:28Z</time>
      </trkpt>
      <trkpt lat="47.25058" lon="0.61529">
        <ele>99</ele>
        <time>2013-05-01T08:42:32Z</time>
      </trkpt>
      <trkpt lat="47.25041" lon="0.61533">
        <ele>98</ele>
        <time>2013-05-01T08:42:38Z</time>
      </trkpt>
      <trkpt lat="47.25035" lon="0.61533">
        <ele>98</ele>
        <time>2013-05-01T08:42:40Z</time>
      </trkpt>
      <trkpt lat="47.25024" lon="0.61533">
        <ele>98</ele>
        <time>2013-05-01T08:42:44Z</time>
      </trkpt>
      <trkpt lat="47.25013" lon="0.61531">
        <ele>98</ele>
        <time>2013-05-01T08:42:48Z</time>
      </trkpt>
      <trkpt lat="47.25001" lon="0.61531">
        <ele>98</ele>
        <time>2013-05-01T08:42:52Z</time>
      </trkpt>
      <trkpt lat="47.2499" lon="0.61531">
        <ele>97</ele>
        <time>2013-05-01T08:42:56Z</time>
      </trkpt>
      <trkpt lat="47.2498" lon="0.6153">
        <ele>97</ele>
        <time>2013-05-01T08:43:00Z</time>
      </trkpt>
      <trkpt lat="47.2497" lon="0.6153">
        <ele>97</ele>
        <time>2013-05-01T08:43:04Z</time>
      </trkpt>
      <trkpt lat="47.24961" lon="0.6153">
        <ele>97</ele>
        <time>2013-05-01T08:43:08Z</time>
      </trkpt>
      <trkpt lat="47.24951" lon="0.6153">
        <ele>96</ele>
        <time>2013-05-01T08:43:12Z</time>
      </trkpt>
      <trkpt lat="47.24939" lon="0.61529">
        <ele>97</ele>
        <time>2013-05-01T08:43:16Z</time>
      </trkpt>
      <trkpt lat="47.24927" lon="0.61528">
        <ele>97</ele>
        <time>2013-05-01T08:43:20Z</time>
      </trkpt>
      <trkpt lat="47.24916" lon="0.61528">
        <ele>98</ele>
        <time>2013-05-01T08:43:24Z</time>
      </trkpt>
      <trkpt lat="47.24905" lon="0.61527">
        <ele>97</ele>
        <time>2013-05-01T08:43:28Z</time>
      </trkpt>
      <trkpt lat="47.24894" lon="0.61528">
        <ele>98</ele>
        <time>2013-05-01T08:43:32Z</time>
      </trkpt>
      <trkpt lat="47.24882" lon="0.61529">
        <ele>99</ele>
        <time>2013-05-01T08:43:36Z</time>
      </trkpt>
      <trkpt lat="47.24871" lon="0.61531">
        <ele>98</ele>
        <time>2013-05-01T08:43:40Z</time>
      </trkpt>
      <trkpt lat="47.24858" lon="0.61534">
        <ele>98</ele>
        <time>2013-05-01T08:43:44Z</time>
      </trkpt>
      <trkpt lat="47.24845" lon="0.61536">
        <ele>99</ele>
        <time>2013-05-01T08:43:48Z</time>
      </trkpt>
      <trkpt lat="47.24833" lon="0.6154">
        <ele>99</ele>
        <time>2013-05-01T08:43:52Z</time>
      </trkpt>
      <trkpt lat="47.24822" lon="0.61544">
        <ele>100</ele>
        <time>2013-05-01T08:43:56Z</time>
      </trkpt>
      <trkpt lat="47.24807" lon="0.6155">
        <ele>100</ele>
        <time>2013-05-01T08:44:01Z</time>
      </trkpt>
      <trkpt lat="47.2479" lon="0.61557">
        <ele>98</ele>
        <time>2013-05-01T08:44:07Z</time>
      </trkpt>
      <trkpt lat="47.24779" lon="0.61564">
        <ele>100</ele>
        <time>2013-05-01T08:44:11Z</time>
      </trkpt>
      <trkpt lat="47.24768" lon="0.61571">
        <ele>100</ele>
        <time>2013-05-01T08:44:15Z</time>
      </trkpt>
      <trkpt lat="47.24757" lon="0.61577">
        <ele>100</ele>
        <time>2013-05-01T08:44:19Z</time>
      </trkpt>
      <trkpt lat="47.24747" lon="0.61582">
        <ele>100</ele>
        <time>2013-05-01T08:44:23Z</time>
      </trkpt>
      <trkpt lat="47.24736" lon="0.61587">
        <ele>101</ele>
        <time>2013-05-01T08:44:27Z</time>
      </trkpt>
      <trkpt lat="47.2472" lon="0.61594">
        <ele>103</ele>
        <time>2013-05-01T08:44:32Z</time>
      </trkpt>
      <trkpt lat="47.24708" lon="0.61603">
        <ele>102</ele>
        <time>2013-05-01T08:44:37Z</time>
      </trkpt>
      <trkpt lat="47.24702" lon="0.61605">
        <ele>102</ele>
        <time>2013-05-01T08:44:39Z</time>
      </trkpt>
      <trkpt lat="47.24691" lon="0.6161">
        <ele>104</ele>
        <time>2013-05-01T08:44:43Z</time>
      </trkpt>
      <trkpt lat="47.2468" lon="0.61612">
        <ele>104</ele>
        <time>2013-05-01T08:44:47Z</time>
      </trkpt>
      <trkpt lat="47.24669" lon="0.61616">
        <ele>105</ele>
        <time>2013-05-01T08:44:51Z</time>
      </trkpt>
      <trkpt lat="47.24653" lon="0.61631">
        <ele>113</ele>
        <time>2013-05-01T08:44:57Z</time>
      </trkpt>
      <trkpt lat="47.24648" lon="0.61636">
        <ele>119</ele>
        <time>2013-05-01T08:44:59Z</time>
      </trkpt>
      <trkpt lat="47.24628" lon="0.61642">
        <ele>126</ele>
        <time>2013-05-01T08:45:04Z</time>
      </trkpt>
      <trkpt lat="47.24617" lon="0.61635">
        <ele>122</ele>
        <time>2013-05-01T08:45:07Z</time>
      </trkpt>
      <trkpt lat="47.24606" lon="0.61631">
        <ele>121</ele>
        <time>2013-05-01T08:45:11Z</time>
      </trkpt>
      <trkpt lat="47.24593" lon="0.61627">
        <ele>116</ele>
        <time>2013-05-01T08:45:15Z</time>
      </trkpt>
      <trkpt lat="47.24576" lon="0.61621">
        <ele>114</ele>
        <time>2013-05-01T08:45:20Z</time>
      </trkpt>
      <trkpt lat="47.24562" lon="0.6162">
        <ele>116</ele>
        <time>2013-05-01T08:45:24Z</time>
      </trkpt>
      <trkpt lat="47.2455" lon="0.61619">
        <ele>115</ele>
        <time>2013-05-01T08:45:28Z</time>
      </trkpt>
      <trkpt lat="47.24536" lon="0.61615">
        <ele>115</ele>
        <time>2013-05-01T08:45:32Z</time>
      </trkpt>
      <trkpt lat="47.24517" lon="0.61612">
        <ele>112</ele>
        <time>2013-05-01T08:45:37Z</time>
      </trkpt>
      <trkpt lat="47.24511" lon="0.61614">
        <ele>111</ele>
        <time>2013-05-01T08:45:39Z</time>
      </trkpt>
      <trkpt lat="47.24505" lon="0.6162">
        <ele>109</ele>
        <time>2013-05-01T08:45:44Z</time>
      </trkpt>
      <trkpt lat="47.24519" lon="0.61635">
        <ele>107</ele>
        <time>2013-05-01T08:45:49Z</time>
      </trkpt>
      <trkpt lat="47.24527" lon="0.61653">
        <ele>106</ele>
        <time>2013-05-01T08:45:53Z</time>
      </trkpt>
      <trkpt lat="47.24532" lon="0.61668">
        <ele>105</ele>
        <time>2013-05-01T08:45:56Z</time>
      </trkpt>
      <trkpt lat="47.24538" lon="0.61689">
        <ele>103</ele>
        <time>2013-05-01T08:46:00Z</time>
      </trkpt>
      <trkpt lat="47.24545" lon="0.6171">
        <ele>101</ele>
        <time>2013-05-01T08:46:04Z</time>
      </trkpt>
      <trkpt lat="47.24552" lon="0.61732">
        <ele>100</ele>
        <time>2013-05-01T08:46:08Z</time>
      </trkpt>
      <trkpt lat="47.24561" lon="0.61753">
        <ele>100</ele>
        <time>2013-05-01T08:46:12Z</time>
      </trkpt>
      <trkpt lat="47.24572" lon="0.6178">
        <ele>98</ele>
        <time>2013-05-01T08:46:17Z</time>
      </trkpt>
      <trkpt lat="47.24581" lon="0.61801">
        <ele>98</ele>
        <time>2013-05-01T08:46:21Z</time>
      </trkpt>
      <trkpt lat="47.24588" lon="0.61816">
        <ele>97</ele>
        <time>2013-05-01T08:46:24Z</time>
      </trkpt>
      <trkpt lat="47.24597" lon="0.61837">
        <ele>97</ele>
        <time>2013-05-01T08:46:28Z</time>
      </trkpt>
      <trkpt lat="47.24606" lon="0.61859">
        <ele>96</ele>
        <time>2013-05-01T08:46:32Z</time>
      </trkpt>
      <trkpt lat="47.24622" lon="0.61894">
        <ele>96</ele>
        <time>2013-05-01T08:46:38Z</time>
      </trkpt>
      <trkpt lat="47.24627" lon="0.61906">
        <ele>96</ele>
        <time>2013-05-01T08:46:40Z</time>
      </trkpt>
      <trkpt lat="47.24637" lon="0.6194">
        <ele>94</ele>
        <time>2013-05-01T08:46:45Z</time>
      </trkpt>
      <trkpt lat="47.24643" lon="0.61961">
        <ele>94</ele>
        <time>2013-05-01T08:46:48Z</time>
      </trkpt>
      <trkpt lat="47.24649" lon="0.61993">
        <ele>93</ele>
        <time>2013-05-01T08:46:52Z</time>
      </trkpt>
      <trkpt lat="47.2465" lon="0.62028">
        <ele>93</ele>
        <time>2013-05-01T08:46:56Z</time>
      </trkpt>
      <trkpt lat="47.2465" lon="0.62062">
        <ele>92</ele>
        <time>2013-05-01T08:47:00Z</time>
      </trkpt>
      <trkpt lat="47.24651" lon="0.62098">
        <ele>91</ele>
        <time>2013-05-01T08:47:04Z</time>
      </trkpt>
      <trkpt lat="47.24652" lon="0.62142">
        <ele>90</ele>
        <time>2013-05-01T08:47:09Z</time>
      </trkpt>
      <trkpt lat="47.24653" lon="0.62175">
        <ele>89</ele>
        <time>2013-05-01T08:47:13Z</time>
      </trkpt>
      <trkpt lat="47.24655" lon="0.62257">
        <ele>90</ele>
        <time>2013-05-01T08:47:24Z</time>
      </trkpt>
      <trkpt lat="47.24656" lon="0.62271">
        <ele>90</ele>
        <time>2013-05-01T08:47:26Z</time>
      </trkpt>
      <trkpt lat="47.24642" lon="0.62309">
        <ele>91</ele>
        <time>2013-05-01T08:47:34Z</time>
      </trkpt>
      <trkpt lat="47.2463" lon="0.62346">
        <ele>92</ele>
        <time>2013-05-01T08:47:42Z</time>
      </trkpt>
      <trkpt lat="47.24628" lon="0.62377">
        <ele>93</ele>
        <time>2013-05-01T08:47:47Z</time>
      </trkpt>
      <trkpt lat="47.24626" lon="0.62403">
        <ele>92</ele>
        <time>2013-05-01T08:47:51Z</time>
      </trkpt>
      <trkpt lat="47.24623" lon="0.62429">
        <ele>91</ele>
        <time>2013-05-01T08:47:55Z</time>
      </trkpt>
      <trkpt lat="47.2462" lon="0.62454">
        <ele>91</ele>
        <time>2013-05-01T08:47:59Z</time>
      </trkpt>
      <trkpt lat="47.24618" lon="0.62479">
        <ele>90</ele>
        <time>2013-05-01T08:48:03Z</time>
      </trkpt>
      <trkpt lat="47.24615" lon="0.62504">
        <ele>91</ele>
        <time>2013-05-01T08:48:07Z</time>
      </trkpt>
      <trkpt lat="47.24612" lon="0.6253">
        <ele>91</ele>
        <time>2013-05-01T08:48:11Z</time>
      </trkpt>
      <trkpt lat="47.24609" lon="0.62556">
        <ele>91</ele>
        <time>2013-05-01T08:48:15Z</time>
      </trkpt>
      <trkpt lat="47.24607" lon="0.62583">
        <ele>90</ele>
        <time>2013-05-01T08:48:19Z</time>
      </trkpt>
      <trkpt lat="47.24604" lon="0.6261">
        <ele>89</ele>
        <time>2013-05-01T08:48:23Z</time>
      </trkpt>
      <trkpt lat="47.24599" lon="0.62634">
        <ele>89</ele>
        <time>2013-05-01T08:48:27Z</time>
      </trkpt>
      <trkpt lat="47.24587" lon="0.62652">
        <ele>90</ele>
        <time>2013-05-01T08:48:31Z</time>
      </trkpt>
      <trkpt lat="47.24578" lon="0.62674">
        <ele>91</ele>
        <time>2013-05-01T08:48:35Z</time>
      </trkpt>
      <trkpt lat="47.24579" lon="0.62703">
        <ele>91</ele>
        <time>2013-05-01T08:48:39Z</time>
      </trkpt>
      <trkpt lat="47.2458" lon="0.62732">
        <ele>91</ele>
        <time>2013-05-01T08:48:43Z</time>
      </trkpt>
      <trkpt lat="47.24582" lon="0.6276">
        <ele>91</ele>
        <time>2013-05-01T08:48:47Z</time>
      </trkpt>
      <trkpt lat="47.24587" lon="0.62789">
        <ele>89</ele>
        <time>2013-05-01T08:48:51Z</time>
      </trkpt>
      <trkpt lat="47.24595" lon="0.62816">
        <ele>88</ele>
        <time>2013-05-01T08:48:55Z</time>
      </trkpt>
      <trkpt lat="47.24603" lon="0.62842">
        <ele>87</ele>
        <time>2013-05-01T08:48:59Z</time>
      </trkpt>
      <trkpt lat="47.24614" lon="0.62867">
        <ele>86</ele>
        <time>2013-05-01T08:49:03Z</time>
      </trkpt>
      <trkpt lat="47.24625" lon="0.62892">
        <ele>85</ele>
        <time>2013-05-01T08:49:07Z</time>
      </trkpt>
      <trkpt lat="47.24636" lon="0.62921">
        <ele>83</ele>
        <time>2013-05-01T08:49:11Z</time>
      </trkpt>
      <trkpt lat="47.24641" lon="0.6295">
        <ele>82</ele>
        <time>2013-05-01T08:49:15Z</time>
      </trkpt>
      <trkpt lat="47.24651" lon="0.62973">
        <ele>83</ele>
        <time>2013-05-01T08:49:20Z</time>
      </trkpt>
      <trkpt lat="47.24662" lon="0.62973">
        <ele>84</ele>
        <time>2013-05-01T08:49:25Z</time>
      </trkpt>
      <trkpt lat="47.24669" lon="0.62971">
        <ele>83</ele>
        <time>2013-05-01T08:49:28Z</time>
      </trkpt>
      <trkpt lat="47.24681" lon="0.62972">
        <ele>85</ele>
        <time>2013-05-01T08:49:32Z</time>
      </trkpt>
      <trkpt lat="47.24693" lon="0.62974">
        <ele>86</ele>
        <time>2013-05-01T08:49:36Z</time>
      </trkpt>
      <trkpt lat="47.24704" lon="0.62976">
        <ele>86</ele>
        <time>2013-05-01T08:49:40Z</time>
      </trkpt>
      <trkpt lat="47.24716" lon="0.62977">
        <ele>88</ele>
        <time>2013-05-01T08:49:44Z</time>
      </trkpt>
      <trkpt lat="47.24727" lon="0.62978">
        <ele>88</ele>
        <time>2013-05-01T08:49:48Z</time>
      </trkpt>
      <trkpt lat="47.2474" lon="0.62979">
        <ele>88</ele>
        <time>2013-05-01T08:49:52Z</time>
      </trkpt>
      <trkpt lat="47.24752" lon="0.6298">
        <ele>88</ele>
        <time>2013-05-01T08:49:56Z</time>
      </trkpt>
      <trkpt lat="47.24765" lon="0.62982">
        <ele>87</ele>
        <time>2013-05-01T08:50:00Z</time>
      </trkpt>
      <trkpt lat="47.24776" lon="0.62982">
        <ele>87</ele>
        <time>2013-05-01T08:50:04Z</time>
      </trkpt>
      <trkpt lat="47.2479" lon="0.62988">
        <ele>84</ele>
        <time>2013-05-01T08:50:08Z</time>
      </trkpt>
      <trkpt lat="47.24801" lon="0.62994">
        <ele>83</ele>
        <time>2013-05-01T08:50:12Z</time>
      </trkpt>
      <trkpt lat="47.24813" lon="0.63001">
        <ele>83</ele>
        <time>2013-05-01T08:50:16Z</time>
      </trkpt>
      <trkpt lat="47.24822" lon="0.63009">
        <ele>84</ele>
        <time>2013-05-01T08:50:20Z</time>
      </trkpt>
      <trkpt lat="47.24831" lon="0.63015">
        <ele>84</ele>
        <time>2013-05-01T08:50:24Z</time>
      </trkpt>
      <trkpt lat="47.2484" lon="0.63019">
        <ele>85</ele>
        <time>2013-05-01T08:50:28Z</time>
      </trkpt>
      <trkpt lat="47.24849" lon="0.63023">
        <ele>85</ele>
        <time>2013-05-01T08:50:32Z</time>
      </trkpt>
      <trkpt lat="47.24857" lon="0.6303">
        <ele>87</ele>
        <time>2013-05-01T08:50:36Z</time>
      </trkpt>
      <trkpt lat="47.24867" lon="0.6304">
        <ele>87</ele>
        <time>2013-05-01T08:50:40Z</time>
      </trkpt>
      <trkpt lat="47.24885" lon="0.63052">
        <ele>84</ele>
        <time>2013-05-01T08:50:46Z</time>
      </trkpt>
      <trkpt lat="47.24899" lon="0.63058">
        <ele>83</ele>
        <time>2013-05-01T08:50:50Z</time>
      </trkpt>
      <trkpt lat="47.24911" lon="0.63065">
        <ele>85</ele>
        <time>2013-05-01T08:50:54Z</time>
      </trkpt>
      <trkpt lat="47.24923" lon="0.63071">
        <ele>87</ele>
        <time>2013-05-01T08:50:58Z</time>
      </trkpt>
      <trkpt lat="47.24938" lon="0.63078">
        <ele>83</ele>
        <time>2013-05-01T08:51:02Z</time>
      </trkpt>
      <trkpt lat="47.24953" lon="0.63088">
        <ele>90</ele>
        <time>2013-05-01T08:51:08Z</time>
      </trkpt>
      <trkpt lat="47.24959" lon="0.63083">
        <ele>95</ele>
        <time>2013-05-01T08:51:11Z</time>
      </trkpt>
      <trkpt lat="47.24969" lon="0.63073">
        <ele>100</ele>
        <time>2013-05-01T08:51:15Z</time>
      </trkpt>
      <trkpt lat="47.24978" lon="0.63062">
        <ele>102</ele>
        <time>2013-05-01T08:51:18Z</time>
      </trkpt>
      <trkpt lat="47.24988" lon="0.63055">
        <ele>101</ele>
        <time>2013-05-01T08:51:22Z</time>
      </trkpt>
      <trkpt lat="47.25003" lon="0.63048">
        <ele>99</ele>
        <time>2013-05-01T08:51:26Z</time>
      </trkpt>
      <trkpt lat="47.25018" lon="0.63043">
        <ele>101</ele>
        <time>2013-05-01T08:51:30Z</time>
      </trkpt>
      <trkpt lat="47.2504" lon="0.63041">
        <ele>97</ele>
        <time>2013-05-01T08:51:36Z</time>
      </trkpt>
      <trkpt lat="47.2506" lon="0.63038">
        <ele>104</ele>
        <time>2013-05-01T08:51:41Z</time>
      </trkpt>
      <trkpt lat="47.25063" lon="0.63037">
        <ele>105</ele>
        <time>2013-05-01T08:51:42Z</time>
      </trkpt>
      <trkpt lat="47.25076" lon="0.63031">
        <ele>105</ele>
        <time>2013-05-01T08:51:46Z</time>
      </trkpt>
      <trkpt lat="47.25088" lon="0.63022">
        <ele>108</ele>
        <time>2013-05-01T08:51:50Z</time>
      </trkpt>
      <trkpt lat="47.25104" lon="0.63013">
        <ele>108</ele>
        <time>2013-05-01T08:51:54Z</time>
      </trkpt>
      <trkpt lat="47.25118" lon="0.63003">
        <ele>110</ele>
        <time>2013-05-01T08:51:58Z</time>
      </trkpt>
      <trkpt lat="47.2514" lon="0.62992">
        <ele>120</ele>
        <time>2013-05-01T08:52:04Z</time>
      </trkpt>
      <trkpt lat="47.25148" lon="0.62986">
        <ele>116</ele>
        <time>2013-05-01T08:52:06Z</time>
      </trkpt>
      <trkpt lat="47.25168" lon="0.6299">
        <ele>104</ele>
        <time>2013-05-01T08:52:11Z</time>
      </trkpt>
      <trkpt lat="47.25185" lon="0.62997">
        <ele>100</ele>
        <time>2013-05-01T08:52:18Z</time>
      </trkpt>
      <trkpt lat="47.25189" lon="0.62995">
        <ele>103</ele>
        <time>2013-05-01T08:52:20Z</time>
      </trkpt>
      <trkpt lat="47.25198" lon="0.62992">
        <ele>106</ele>
        <time>2013-05-01T08:52:23Z</time>
      </trkpt>
      <trkpt lat="47.25214" lon="0.6298">
        <ele>116</ele>
        <time>2013-05-01T08:52:29Z</time>
      </trkpt>
      <trkpt lat="47.25219" lon="0.62975">
        <ele>117</ele>
        <time>2013-05-01T08:52:31Z</time>
      </trkpt>
      <trkpt lat="47.25229" lon="0.62968">
        <ele>119</ele>
        <time>2013-05-01T08:52:35Z</time>
      </trkpt>
      <trkpt lat="47.25241" lon="0.62956">
        <ele>118</ele>
        <time>2013-05-01T08:52:39Z</time>
      </trkpt>
      <trkpt lat="47.25257" lon="0.6294">
        <ele>120</ele>
        <time>2013-05-01T08:52:45Z</time>
      </trkpt>
      <trkpt lat="47.25264" lon="0.62934">
        <ele>125</ele>
        <time>2013-05-01T08:52:48Z</time>
      </trkpt>
      <trkpt lat="47.25273" lon="0.62928">
        <ele>129</ele>
        <time>2013-05-01T08:52:51Z</time>
      </trkpt>
      <trkpt lat="47.25287" lon="0.62917">
        <ele>136</ele>
        <time>2013-05-01T08:52:55Z</time>
      </trkpt>
      <trkpt lat="47.25307" lon="0.62913">
        <ele>134</ele>
        <time>2013-05-01T08:53:01Z</time>
      </trkpt>
      <trkpt lat="47.2532" lon="0.62911">
        <ele>135</ele>
        <time>2013-05-01T08:53:05Z</time>
      </trkpt>
      <trkpt lat="47.25325" lon="0.62908">
        <ele>134</ele>
        <time>2013-05-01T08:53:07Z</time>
      </trkpt>
      <trkpt lat="47.25336" lon="0.629">
        <ele>131</ele>
        <time>2013-05-01T08:53:11Z</time>
      </trkpt>
      <trkpt lat="47.25349" lon="0.62893">
        <ele>124</ele>
        <time>2013-05-01T08:53:15Z</time>
      </trkpt>
      <trkpt lat="47.25375" lon="0.62877">
        <ele>122</ele>
        <time>2013-05-01T08:53:22Z</time>
      </trkpt>
      <trkpt lat="47.25379" lon="0.62878">
        <ele>122</ele>
        <time>2013-05-01T08:53:23Z</time>
      </trkpt>
      <trkpt lat="47.25392" lon="0.62879">
        <ele>121</ele>
        <time>2013-05-01T08:53:27Z</time>
      </trkpt>
      <trkpt lat="47.25404" lon="0.62881">
        <ele>122</ele>
        <time>2013-05-01T08:53:31Z</time>
      </trkpt>
      <trkpt lat="47.25416" lon="0.62881">
        <ele>121</ele>
        <time>2013-05-01T08:53:35Z</time>
      </trkpt>
      <trkpt lat="47.25427" lon="0.62883">
        <ele>118</ele>
        <time>2013-05-01T08:53:39Z</time>
      </trkpt>
      <trkpt lat="47.2544" lon="0.62881">
        <ele>116</ele>
        <time>2013-05-01T08:53:45Z</time>
      </trkpt>
      <trkpt lat="47.25445" lon="0.62878">
        <ele>114</ele>
        <time>2013-05-01T08:53:48Z</time>
      </trkpt>
      <trkpt lat="47.25461" lon="0.62881">
        <ele>108</ele>
        <time>2013-05-01T08:53:55Z</time>
      </trkpt>
      <trkpt lat="47.25464" lon="0.62882">
        <ele>107</ele>
        <time>2013-05-01T08:53:56Z</time>
      </trkpt>
      <trkpt lat="47.25477" lon="0.62883">
        <ele>103</ele>
        <time>2013-05-01T08:54:00Z</time>
      </trkpt>
      <trkpt lat="47.25492" lon="0.62882">
        <ele>100</ele>
        <time>2013-05-01T08:54:04Z</time>
      </trkpt>
      <trkpt lat="47.25507" lon="0.62884">
        <ele>97</ele>
        <time>2013-05-01T08:54:08Z</time>
      </trkpt>
      <trkpt lat="47.25521" lon="0.62883">
        <ele>95</ele>
        <time>2013-05-01T08:54:12Z</time>
      </trkpt>
      <trkpt lat="47.25549" lon="0.6288">
        <ele>82</ele>
        <time>2013-05-01T08:54:19Z</time>
      </trkpt>
      <trkpt lat="47.25561" lon="0.62877">
        <ele>80</ele>
        <time>2013-05-01T08:54:23Z</time>
      </trkpt>
      <trkpt lat="47.25567" lon="0.62873">
        <ele>79</ele>
        <time>2013-05-01T08:54:35Z</time>
      </trkpt>
      <trkpt lat="47.25574" lon="0.62866">
        <ele>79</ele>
        <time>2013-05-01T08:54:48Z</time>
      </trkpt>
      <trkpt lat="47.25581" lon="0.62865">
        <ele>80</ele>
        <time>2013-05-01T08:55:03Z</time>
      </trkpt>
      <trkpt lat="47.25588" lon="0.6287">
        <ele>80</ele>
        <time>2013-05-01T08:55:19Z</time>
      </trkpt>
      <trkpt lat="47.25601" lon="0.62875">
        <ele>91</ele>
        <time>2013-05-01T08:55:33Z</time>
      </trkpt>
      <trkpt lat="47.25608" lon="0.62873">
        <ele>94</ele>
        <time>2013-05-01T08:55:37Z</time>
      </trkpt>
      <trkpt lat="47.25614" lon="0.62869">
        <ele>93</ele>
        <time>2013-05-01T08:55:40Z</time>
      </trkpt>
      <trkpt lat="47.25631" lon="0.62855">
        <ele>91</ele>
        <time>2013-05-01T08:55:47Z</time>
      </trkpt>
      <trkpt lat="47.25633" lon="0.62853">
        <ele>92</ele>
        <time>2013-05-01T08:55:48Z</time>
      </trkpt>
      <trkpt lat="47.25641" lon="0.62848">
        <ele>95</ele>
        <time>2013-05-01T08:55:59Z</time>
      </trkpt>
      <trkpt lat="47.25655" lon="0.62838">
        <ele>98</ele>
        <time>2013-05-01T08:56:11Z</time>
      </trkpt>
      <trkpt lat="47.25659" lon="0.62836">
        <ele>100</ele>
        <time>2013-05-01T08:56:15Z</time>
      </trkpt>
      <trkpt lat="47.25667" lon="0.62844">
        <ele>101</ele>
        <time>2013-05-01T08:56:23Z</time>
      </trkpt>
      <trkpt lat="47.25672" lon="0.62858">
        <ele>103</ele>
        <time>2013-05-01T08:56:34Z</time>
      </trkpt>
      <trkpt lat="47.25676" lon="0.6287">
        <ele>103</ele>
        <time>2013-05-01T08:56:41Z</time>
      </trkpt>
      <trkpt lat="47.2568" lon="0.6288">
        <ele>101</ele>
        <time>2013-05-01T08:56:47Z</time>
      </trkpt>
      <trkpt lat="47.25684" lon="0.62891">
        <ele>103</ele>
        <time>2013-05-01T08:56:56Z</time>
      </trkpt>
      <trkpt lat="47.25687" lon="0.62905">
        <ele>99</ele>
        <time>2013-05-01T08:57:04Z</time>
      </trkpt>
      <trkpt lat="47.25692" lon="0.6292">
        <ele>102</ele>
        <time>2013-05-01T08:57:14Z</time>
      </trkpt>
      <trkpt lat="47.25693" lon="0.62931">
        <ele>101</ele>
        <time>2013-05-01T08:57:20Z</time>
      </trkpt>
      <trkpt lat="47.25696" lon="0.62948">
        <ele>103</ele>
        <time>2013-05-01T08:57:30Z</time>
      </trkpt>
      <trkpt lat="47.25697" lon="0.62957">
        <ele>102</ele>
        <time>2013-05-01T08:57:36Z</time>
      </trkpt>
      <trkpt lat="47.25697" lon="0.62972">
        <ele>105</ele>
        <time>2013-05-01T08:57:45Z</time>
      </trkpt>
      <trkpt lat="47.25697" lon="0.62989">
        <ele>112</ele>
        <time>2013-05-01T08:57:57Z</time>
      </trkpt>
      <trkpt lat="47.25698" lon="0.62999">
        <ele>113</ele>
        <time>2013-05-01T08:58:04Z</time>
      </trkpt>
      <trkpt lat="47.25696" lon="0.63012">
        <ele>113</ele>
        <time>2013-05-01T08:58:12Z</time>
      </trkpt>
      <trkpt lat="47.25694" lon="0.6306">
        <ele>99</ele>
        <time>2013-05-01T08:59:15Z</time>
      </trkpt>
      <trkpt lat="47.25695" lon="0.63071">
        <ele>97</ele>
        <time>2013-05-01T08:59:19Z</time>
      </trkpt>
      <trkpt lat="47.25697" lon="0.6308">
        <ele>96</ele>
        <time>2013-05-01T08:59:22Z</time>
      </trkpt>
      <trkpt lat="47.25706" lon="0.63087">
        <ele>95</ele>
        <time>2013-05-01T08:59:26Z</time>
      </trkpt>
      <trkpt lat="47.25717" lon="0.63089">
        <ele>94</ele>
        <time>2013-05-01T08:59:30Z</time>
      </trkpt>
      <trkpt lat="47.25727" lon="0.6309">
        <ele>93</ele>
        <time>2013-05-01T08:59:34Z</time>
      </trkpt>
      <trkpt lat="47.25741" lon="0.6309">
        <ele>92</ele>
        <time>2013-05-01T08:59:38Z</time>
      </trkpt>
      <trkpt lat="47.25754" lon="0.63091">
        <ele>93</ele>
        <time>2013-05-01T08:59:42Z</time>
      </trkpt>
      <trkpt lat="47.25767" lon="0.63093">
        <ele>92</ele>
        <time>2013-05-01T08:59:46Z</time>
      </trkpt>
      <trkpt lat="47.25781" lon="0.63092">
        <ele>90</ele>
        <time>2013-05-01T08:59:50Z</time>
      </trkpt>
      <trkpt lat="47.25797" lon="0.63094">
        <ele>88</ele>
        <time>2013-05-01T08:59:55Z</time>
      </trkpt>
      <trkpt lat="47.2581" lon="0.63098">
        <ele>86</ele>
        <time>2013-05-01T08:59:59Z</time>
      </trkpt>
      <trkpt lat="47.25838" lon="0.631">
        <ele>83</ele>
        <time>2013-05-01T09:00:06Z</time>
      </trkpt>
      <trkpt lat="47.25855" lon="0.63098">
        <ele>83</ele>
        <time>2013-05-01T09:00:10Z</time>
      </trkpt>
      <trkpt lat="47.2587" lon="0.63102">
        <ele>83</ele>
        <time>2013-05-01T09:00:14Z</time>
      </trkpt>
      <trkpt lat="47.25886" lon="0.631">
        <ele>84</ele>
        <time>2013-05-01T09:00:18Z</time>
      </trkpt>
      <trkpt lat="47.25902" lon="0.63102">
        <ele>84</ele>
        <time>2013-05-01T09:00:22Z</time>
      </trkpt>
      <trkpt lat="47.25924" lon="0.63102">
        <ele>83</ele>
        <time>2013-05-01T09:00:27Z</time>
      </trkpt>
      <trkpt lat="47.25939" lon="0.63102">
        <ele>83</ele>
        <time>2013-05-01T09:00:30Z</time>
      </trkpt>
      <trkpt lat="47.25958" lon="0.63099">
        <ele>84</ele>
        <time>2013-05-01T09:00:34Z</time>
      </trkpt>
      <trkpt lat="47.2598" lon="0.63084">
        <ele>86</ele>
        <time>2013-05-01T09:00:38Z</time>
      </trkpt>
      <trkpt lat="47.25996" lon="0.6308">
        <ele>81</ele>
        <time>2013-05-01T09:00:43Z</time>
      </trkpt>
      <trkpt lat="47.26007" lon="0.63075">
        <ele>82</ele>
        <time>2013-05-01T09:00:46Z</time>
      </trkpt>
      <trkpt lat="47.26036" lon="0.63059">
        <ele>82</ele>
        <time>2013-05-01T09:00:53Z</time>
      </trkpt>
      <trkpt lat="47.26046" lon="0.63058">
        <ele>83</ele>
        <time>2013-05-01T09:00:55Z</time>
      </trkpt>
      <trkpt lat="47.26073" lon="0.63069">
        <ele>80</ele>
        <time>2013-05-01T09:01:00Z</time>
      </trkpt>
      <trkpt lat="47.26084" lon="0.63076">
        <ele>81</ele>
        <time>2013-05-01T09:01:02Z</time>
      </trkpt>
      <trkpt lat="47.26108" lon="0.63096">
        <ele>82</ele>
        <time>2013-05-01T09:01:07Z</time>
      </trkpt>
      <trkpt lat="47.26128" lon="0.63107">
        <ele>80</ele>
        <time>2013-05-01T09:01:11Z</time>
      </trkpt>
      <trkpt lat="47.26143" lon="0.63112">
        <ele>82</ele>
        <time>2013-05-01T09:01:14Z</time>
      </trkpt>
      <trkpt lat="47.26156" lon="0.63112">
        <ele>83</ele>
        <time>2013-05-01T09:01:18Z</time>
      </trkpt>
      <trkpt lat="47.26169" lon="0.6311">
        <ele>87</ele>
        <time>2013-05-01T09:01:22Z</time>
      </trkpt>
      <trkpt lat="47.26197" lon="0.63086">
        <ele>92</ele>
        <time>2013-05-01T09:01:26Z</time>
      </trkpt>
      <trkpt lat="47.26215" lon="0.63073">
        <ele>95</ele>
        <time>2013-05-01T09:01:30Z</time>
      </trkpt>
      <trkpt lat="47.26236" lon="0.63054">
        <ele>98</ele>
        <time>2013-05-01T09:01:34Z</time>
      </trkpt>
      <trkpt lat="47.26257" lon="0.63051">
        <ele>95</ele>
        <time>2013-05-01T09:01:38Z</time>
      </trkpt>
      <trkpt lat="47.2628" lon="0.63046">
        <ele>91</ele>
        <time>2013-05-01T09:01:42Z</time>
      </trkpt>
      <trkpt lat="47.26309" lon="0.63009">
        <ele>90</ele>
        <time>2013-05-01T09:01:47Z</time>
      </trkpt>
      <trkpt lat="47.26324" lon="0.62995">
        <ele>88</ele>
        <time>2013-05-01T09:01:50Z</time>
      </trkpt>
      <trkpt lat="47.26351" lon="0.6297">
        <ele>87</ele>
        <time>2013-05-01T09:01:55Z</time>
      </trkpt>
      <trkpt lat="47.26367" lon="0.62956">
        <ele>86</ele>
        <time>2013-05-01T09:01:58Z</time>
      </trkpt>
      <trkpt lat="47.2639" lon="0.62936">
        <ele>85</ele>
        <time>2013-05-01T09:02:03Z</time>
      </trkpt>
      <trkpt lat="47.26401" lon="0.62925">
        <ele>84</ele>
        <time>2013-05-01T09:02:06Z</time>
      </trkpt>
      <trkpt lat="47.26414" lon="0.62913">
        <ele>85</ele>
        <time>2013-05-01T09:02:10Z</time>
      </trkpt>
      <trkpt lat="47.26424" lon="0.62906">
        <ele>83</ele>
        <time>2013-05-01T09:02:14Z</time>
      </trkpt>
      <trkpt lat="47.26431" lon="0.62916">
        <ele>81</ele>
        <time>2013-05-01T09:02:18Z</time>
      </trkpt>
      <trkpt lat="47.26435" lon="0.62935">
        <ele>81</ele>
        <time>2013-05-01T09:02:22Z</time>
      </trkpt>
      <trkpt lat="47.26441" lon="0.6296">
        <ele>81</ele>
        <time>2013-05-01T09:02:27Z</time>
      </trkpt>
      <trkpt lat="47.26443" lon="0.62975">
        <ele>81</ele>
        <time>2013-05-01T09:02:30Z</time>
      </trkpt>
      <trkpt lat="47.26447" lon="0.62994">
        <ele>80</ele>
        <time>2013-05-01T09:02:34Z</time>
      </trkpt>
      <trkpt lat="47.26452" lon="0.63013">
        <ele>80</ele>
        <time>2013-05-01T09:02:38Z</time>
      </trkpt>
      <trkpt lat="47.26459" lon="0.63032">
        <ele>80</ele>
        <time>2013-05-01T09:02:42Z</time>
      </trkpt>
      <trkpt lat="47.26466" lon="0.63052">
        <ele>79</ele>
        <time>2013-05-01T09:02:46Z</time>
      </trkpt>
      <trkpt lat="47.26474" lon="0.63073">
        <ele>78</ele>
        <time>2013-05-01T09:02:50Z</time>
      </trkpt>
      <trkpt lat="47.26481" lon="0.63096">
        <ele>78</ele>
        <time>2013-05-01T09:02:54Z</time>
      </trkpt>
      <trkpt lat="47.26488" lon="0.63119">
        <ele>79</ele>
        <time>2013-05-01T09:02:58Z</time>
      </trkpt>
      <trkpt lat="47.26494" lon="0.63139">
        <ele>81</ele>
        <time>2013-05-01T09:03:02Z</time>
      </trkpt>
      <trkpt lat="47.26502" lon="0.6316">
        <ele>79</ele>
        <time>2013-05-01T09:03:06Z</time>
      </trkpt>
      <trkpt lat="47.26509" lon="0.63183">
        <ele>79</ele>
        <time>2013-05-01T09:03:10Z</time>
      </trkpt>
      <trkpt lat="47.26516" lon="0.63206">
        <ele>79</ele>
        <time>2013-05-01T09:03:14Z</time>
      </trkpt>
      <trkpt lat="47.26524" lon="0.63237">
        <ele>81</ele>
        <time>2013-05-01T09:03:20Z</time>
      </trkpt>
      <trkpt lat="47.26527" lon="0.63248">
        <ele>81</ele>
        <time>2013-05-01T09:03:22Z</time>
      </trkpt>
      <trkpt lat="47.26533" lon="0.6327">
        <ele>80</ele>
        <time>2013-05-01T09:03:26Z</time>
      </trkpt>
      <trkpt lat="47.2654" lon="0.63292">
        <ele>82</ele>
        <time>2013-05-01T09:03:30Z</time>
      </trkpt>
      <trkpt lat="47.26547" lon="0.63313">
        <ele>81</ele>
        <time>2013-05-01T09:03:34Z</time>
      </trkpt>
      <trkpt lat="47.26553" lon="0.63332">
        <ele>79</ele>
        <time>2013-05-01T09:03:38Z</time>
      </trkpt>
      <trkpt lat="47.2656" lon="0.63356">
        <ele>78</ele>
        <time>2013-05-01T09:03:43Z</time>
      </trkpt>
      <trkpt lat="47.26566" lon="0.63376">
        <ele>79</ele>
        <time>2013-05-01T09:03:47Z</time>
      </trkpt>
      <trkpt lat="47.26572" lon="0.63398">
        <ele>78</ele>
        <time>2013-05-01T09:03:51Z</time>
      </trkpt>
      <trkpt lat="47.26578" lon="0.63418">
        <ele>79</ele>
        <time>2013-05-01T09:03:55Z</time>
      </trkpt>
      <trkpt lat="47.26584" lon="0.63439">
        <ele>78</ele>
        <time>2013-05-01T09:03:59Z</time>
      </trkpt>
      <trkpt lat="47.26591" lon="0.63459">
        <ele>77</ele>
        <time>2013-05-01T09:04:03Z</time>
      </trkpt>
      <trkpt lat="47.26598" lon="0.63483">
        <ele>76</ele>
        <time>2013-05-01T09:04:07Z</time>
      </trkpt>
      <trkpt lat="47.26605" lon="0.63506">
        <ele>76</ele>
        <time>2013-05-01T09:04:11Z</time>
      </trkpt>
      <trkpt lat="47.26611" lon="0.63526">
        <ele>76</ele>
        <time>2013-05-01T09:04:15Z</time>
      </trkpt>
      <trkpt lat="47.26617" lon="0.63547">
        <ele>75</ele>
        <time>2013-05-01T09:04:19Z</time>
      </trkpt>
      <trkpt lat="47.26623" lon="0.63567">
        <ele>75</ele>
        <time>2013-05-01T09:04:23Z</time>
      </trkpt>
      <trkpt lat="47.26628" lon="0.63585">
        <ele>75</ele>
        <time>2013-05-01T09:04:27Z</time>
      </trkpt>
      <trkpt lat="47.26637" lon="0.63603">
        <ele>73</ele>
        <time>2013-05-01T09:04:31Z</time>
      </trkpt>
      <trkpt lat="47.26643" lon="0.63619">
        <ele>75</ele>
        <time>2013-05-01T09:04:35Z</time>
      </trkpt>
      <trkpt lat="47.26651" lon="0.63638">
        <ele>75</ele>
        <time>2013-05-01T09:04:39Z</time>
      </trkpt>
      <trkpt lat="47.26659" lon="0.63658">
        <ele>74</ele>
        <time>2013-05-01T09:04:43Z</time>
      </trkpt>
      <trkpt lat="47.26668" lon="0.63678">
        <ele>73</ele>
        <time>2013-05-01T09:04:47Z</time>
      </trkpt>
      <trkpt lat="47.26675" lon="0.63697">
        <ele>73</ele>
        <time>2013-05-01T09:04:51Z</time>
      </trkpt>
      <trkpt lat="47.26684" lon="0.63715">
        <ele>73</ele>
        <time>2013-05-01T09:04:55Z</time>
      </trkpt>
      <trkpt lat="47.26691" lon="0.63732">
        <ele>74</ele>
        <time>2013-05-01T09:04:59Z</time>
      </trkpt>
      <trkpt lat="47.26697" lon="0.63745">
        <ele>73</ele>
        <time>2013-05-01T09:05:03Z</time>
      </trkpt>
      <trkpt lat="47.26702" lon="0.6376">
        <ele>75</ele>
        <time>2013-05-01T09:05:07Z</time>
      </trkpt>
      <trkpt lat="47.26708" lon="0.63776">
        <ele>75</ele>
        <time>2013-05-01T09:05:11Z</time>
      </trkpt>
      <trkpt lat="47.26714" lon="0.63793">
        <ele>74</ele>
        <time>2013-05-01T09:05:15Z</time>
      </trkpt>
      <trkpt lat="47.26719" lon="0.6381">
        <ele>74</ele>
        <time>2013-05-01T09:05:19Z</time>
      </trkpt>
      <trkpt lat="47.26723" lon="0.63825">
        <ele>74</ele>
        <time>2013-05-01T09:05:23Z</time>
      </trkpt>
      <trkpt lat="47.26726" lon="0.6384">
        <ele>77</ele>
        <time>2013-05-01T09:05:27Z</time>
      </trkpt>
      <trkpt lat="47.26727" lon="0.63854">
        <ele>77</ele>
        <time>2013-05-01T09:05:31Z</time>
      </trkpt>
      <trkpt lat="47.26721" lon="0.63868">
        <ele>77</ele>
        <time>2013-05-01T09:05:35Z</time>
      </trkpt>
      <trkpt lat="47.26715" lon="0.63883">
        <ele>79</ele>
        <time>2013-05-01T09:05:39Z</time>
      </trkpt>
      <trkpt lat="47.2671" lon="0.63899">
        <ele>80</ele>
        <time>2013-05-01T09:05:43Z</time>
      </trkpt>
      <trkpt lat="47.26705" lon="0.63922">
        <ele>79</ele>
        <time>2013-05-01T09:05:48Z</time>
      </trkpt>
      <trkpt lat="47.26701" lon="0.63937">
        <ele>79</ele>
        <time>2013-05-01T09:05:51Z</time>
      </trkpt>
      <trkpt lat="47.26697" lon="0.63956">
        <ele>81</ele>
        <time>2013-05-01T09:05:55Z</time>
      </trkpt>
      <trkpt lat="47.26693" lon="0.63985">
        <ele>80</ele>
        <time>2013-05-01T09:06:01Z</time>
      </trkpt>
      <trkpt lat="47.2669" lon="0.6401">
        <ele>79</ele>
        <time>2013-05-01T09:06:06Z</time>
      </trkpt>
      <trkpt lat="47.26701" lon="0.64021">
        <ele>80</ele>
        <time>2013-05-01T09:06:10Z</time>
      </trkpt>
      <trkpt lat="47.26716" lon="0.64021">
        <ele>78</ele>
        <time>2013-05-01T09:06:14Z</time>
      </trkpt>
      <trkpt lat="47.26727" lon="0.64025">
        <ele>77</ele>
        <time>2013-05-01T09:06:18Z</time>
      </trkpt>
      <trkpt lat="47.26749" lon="0.64034">
        <ele>77</ele>
        <time>2013-05-01T09:06:25Z</time>
      </trkpt>
      <trkpt lat="47.26753" lon="0.64035">
        <ele>77</ele>
        <time>2013-05-01T09:06:26Z</time>
      </trkpt>
      <trkpt lat="47.26769" lon="0.64036">
        <ele>81</ele>
        <time>2013-05-01T09:06:30Z</time>
      </trkpt>
      <trkpt lat="47.26785" lon="0.6404">
        <ele>81</ele>
        <time>2013-05-01T09:06:34Z</time>
      </trkpt>
      <trkpt lat="47.26803" lon="0.64043">
        <ele>80</ele>
        <time>2013-05-01T09:06:38Z</time>
      </trkpt>
      <trkpt lat="47.26822" lon="0.64044">
        <ele>79</ele>
        <time>2013-05-01T09:06:42Z</time>
      </trkpt>
      <trkpt lat="47.26842" lon="0.64042">
        <ele>76</ele>
        <time>2013-05-01T09:06:46Z</time>
      </trkpt>
      <trkpt lat="47.26862" lon="0.64036">
        <ele>73</ele>
        <time>2013-05-01T09:06:50Z</time>
      </trkpt>
      <trkpt lat="47.26894" lon="0.64029">
        <ele>71</ele>
        <time>2013-05-01T09:06:57Z</time>
      </trkpt>
      <trkpt lat="47.26899" lon="0.6403">
        <ele>72</ele>
        <time>2013-05-01T09:06:58Z</time>
      </trkpt>
      <trkpt lat="47.2692" lon="0.64037">
        <ele>74</ele>
        <time>2013-05-01T09:07:02Z</time>
      </trkpt>
      <trkpt lat="47.26937" lon="0.64048">
        <ele>74</ele>
        <time>2013-05-01T09:07:06Z</time>
      </trkpt>
      <trkpt lat="47.26951" lon="0.64064">
        <ele>73</ele>
        <time>2013-05-01T09:07:10Z</time>
      </trkpt>
      <trkpt lat="47.26966" lon="0.64081">
        <ele>75</ele>
        <time>2013-05-01T09:07:14Z</time>
      </trkpt>
      <trkpt lat="47.2698" lon="0.64098">
        <ele>74</ele>
        <time>2013-05-01T09:07:18Z</time>
      </trkpt>
      <trkpt lat="47.26994" lon="0.64114">
        <ele>75</ele>
        <time>2013-05-01T09:07:22Z</time>
      </trkpt>
      <trkpt lat="47.27011" lon="0.64129">
        <ele>75</ele>
        <time>2013-05-01T09:07:26Z</time>
      </trkpt>
      <trkpt lat="47.27027" lon="0.64144">
        <ele>74</ele>
        <time>2013-05-01T09:07:30Z</time>
      </trkpt>
      <trkpt lat="47.27046" lon="0.64152">
        <ele>73</ele>
        <time>2013-05-01T09:07:34Z</time>
      </trkpt>
      <trkpt lat="47.27072" lon="0.64144">
        <ele>74</ele>
        <time>2013-05-01T09:07:39Z</time>
      </trkpt>
      <trkpt lat="47.27086" lon="0.64135">
        <ele>74</ele>
        <time>2013-05-01T09:07:42Z</time>
      </trkpt>
      <trkpt lat="47.27105" lon="0.64121">
        <ele>74</ele>
        <time>2013-05-01T09:07:46Z</time>
      </trkpt>
      <trkpt lat="47.27122" lon="0.64107">
        <ele>78</ele>
        <time>2013-05-01T09:07:50Z</time>
      </trkpt>
      <trkpt lat="47.27137" lon="0.64095">
        <ele>78</ele>
        <time>2013-05-01T09:07:54Z</time>
      </trkpt>
      <trkpt lat="47.27149" lon="0.64085">
        <ele>79</ele>
        <time>2013-05-01T09:07:58Z</time>
      </trkpt>
      <trkpt lat="47.27166" lon="0.64077">
        <ele>78</ele>
        <time>2013-05-01T09:08:04Z</time>
      </trkpt>
      <trkpt lat="47.27167" lon="0.64103">
        <ele>78</ele>
        <time>2013-05-01T09:08:09Z</time>
      </trkpt>
      <trkpt lat="47.27164" lon="0.64124">
        <ele>76</ele>
        <time>2013-05-01T09:08:12Z</time>
      </trkpt>
      <trkpt lat="47.27163" lon="0.64148">
        <ele>74</ele>
        <time>2013-05-01T09:08:16Z</time>
      </trkpt>
      <trkpt lat="47.27162" lon="0.64176">
        <ele>73</ele>
        <time>2013-05-01T09:08:20Z</time>
      </trkpt>
      <trkpt lat="47.27156" lon="0.64208">
        <ele>76</ele>
        <time>2013-05-01T09:08:25Z</time>
      </trkpt>
      <trkpt lat="47.27154" lon="0.64228">
        <ele>76</ele>
        <time>2013-05-01T09:08:28Z</time>
      </trkpt>
      <trkpt lat="47.27153" lon="0.64253">
        <ele>77</ele>
        <time>2013-05-01T09:08:32Z</time>
      </trkpt>
      <trkpt lat="47.2715" lon="0.64273">
        <ele>78</ele>
        <time>2013-05-01T09:08:36Z</time>
      </trkpt>
      <trkpt lat="47.27147" lon="0.6429">
        <ele>80</ele>
        <time>2013-05-01T09:08:40Z</time>
      </trkpt>
      <trkpt lat="47.27141" lon="0.64306">
        <ele>81</ele>
        <time>2013-05-01T09:08:44Z</time>
      </trkpt>
      <trkpt lat="47.27139" lon="0.64322">
        <ele>83</ele>
        <time>2013-05-01T09:08:48Z</time>
      </trkpt>
      <trkpt lat="47.27158" lon="0.64325">
        <ele>81</ele>
        <time>2013-05-01T09:08:55Z</time>
      </trkpt>
      <trkpt lat="47.27161" lon="0.64324">
        <ele>81</ele>
        <time>2013-05-01T09:08:56Z</time>
      </trkpt>
      <trkpt lat="47.27173" lon="0.64322">
        <ele>81</ele>
        <time>2013-05-01T09:09:00Z</time>
      </trkpt>
      <trkpt lat="47.27184" lon="0.64319">
        <ele>81</ele>
        <time>2013-05-01T09:09:04Z</time>
      </trkpt>
      <trkpt lat="47.27195" lon="0.64318">
        <ele>81</ele>
        <time>2013-05-01T09:09:08Z</time>
      </trkpt>
      <trkpt lat="47.27205" lon="0.64319">
        <ele>81</ele>
        <time>2013-05-01T09:09:12Z</time>
      </trkpt>
      <trkpt lat="47.27207" lon="0.64335">
        <ele>76</ele>
        <time>2013-05-01T09:09:16Z</time>
      </trkpt>
      <trkpt lat="47.27205" lon="0.64361">
        <ele>74</ele>
        <time>2013-05-01T09:09:21Z</time>
      </trkpt>
      <trkpt lat="47.27205" lon="0.64374">
        <ele>76</ele>
        <time>2013-05-01T09:09:24Z</time>
      </trkpt>
      <trkpt lat="47.27204" lon="0.6439">
        <ele>76</ele>
        <time>2013-05-01T09:09:28Z</time>
      </trkpt>
      <trkpt lat="47.27191" lon="0.64395">
        <ele>75</ele>
        <time>2013-05-01T09:09:32Z</time>
      </trkpt>
      <trkpt lat="47.27177" lon="0.64396">
        <ele>75</ele>
        <time>2013-05-01T09:09:36Z</time>
      </trkpt>
      <trkpt lat="47.27162" lon="0.64399">
        <ele>75</ele>
        <time>2013-05-01T09:09:40Z</time>
      </trkpt>
      <trkpt lat="47.27151" lon="0.64412">
        <ele>76</ele>
        <time>2013-05-01T09:09:44Z</time>
      </trkpt>
      <trkpt lat="47.27144" lon="0.64432">
        <ele>76</ele>
        <time>2013-05-01T09:09:48Z</time>
      </trkpt>
      <trkpt lat="47.27138" lon="0.64452">
        <ele>76</ele>
        <time>2013-05-01T09:09:52Z</time>
      </trkpt>
      <trkpt lat="47.27131" lon="0.6447">
        <ele>76</ele>
        <time>2013-05-01T09:09:56Z</time>
      </trkpt>
      <trkpt lat="47.2713" lon="0.6449">
        <ele>77</ele>
        <time>2013-05-01T09:10:00Z</time>
      </trkpt>
      <trkpt lat="47.27143" lon="0.64504">
        <ele>76</ele>
        <time>2013-05-01T09:10:04Z</time>
      </trkpt>
      <trkpt lat="47.27165" lon="0.64522">
        <ele>77</ele>
        <time>2013-05-01T09:10:10Z</time>
      </trkpt>
      <trkpt lat="47.27185" lon="0.64538">
        <ele>78</ele>
        <time>2013-05-01T09:10:15Z</time>
      </trkpt>
      <trkpt lat="47.272" lon="0.64551">
        <ele>78</ele>
        <time>2013-05-01T09:10:19Z</time>
      </trkpt>
      <trkpt lat="47.27215" lon="0.64564">
        <ele>79</ele>
        <time>2013-05-01T09:10:23Z</time>
      </trkpt>
      <trkpt lat="47.27229" lon="0.64577">
        <ele>79</ele>
        <time>2013-05-01T09:10:27Z</time>
      </trkpt>
      <trkpt lat="47.27244" lon="0.6459">
        <ele>80</ele>
        <time>2013-05-01T09:10:31Z</time>
      </trkpt>
      <trkpt lat="47.27259" lon="0.64608">
        <ele>81</ele>
        <time>2013-05-01T09:10:35Z</time>
      </trkpt>
      <trkpt lat="47.27272" lon="0.64626">
        <ele>80</ele>
        <time>2013-05-01T09:10:39Z</time>
      </trkpt>
      <trkpt lat="47.27285" lon="0.64644">
        <ele>80</ele>
        <time>2013-05-01T09:10:43Z</time>
      </trkpt>
      <trkpt lat="47.27296" lon="0.64664">
        <ele>82</ele>
        <time>2013-05-01T09:10:47Z</time>
      </trkpt>
      <trkpt lat="47.27311" lon="0.6468">
        <ele>82</ele>
        <time>2013-05-01T09:10:51Z</time>
      </trkpt>
      <trkpt lat="47.27319" lon="0.64701">
        <ele>82</ele>
        <time>2013-05-01T09:10:55Z</time>
      </trkpt>
      <trkpt lat="47.27326" lon="0.64726">
        <ele>83</ele>
        <time>2013-05-01T09:10:59Z</time>
      </trkpt>
      <trkpt lat="47.27332" lon="0.6475">
        <ele>83</ele>
        <time>2013-05-01T09:11:03Z</time>
      </trkpt>
      <trkpt lat="47.27339" lon="0.64773">
        <ele>84</ele>
        <time>2013-05-01T09:11:07Z</time>
      </trkpt>
      <trkpt lat="47.27346" lon="0.64797">
        <ele>85</ele>
        <time>2013-05-01T09:11:11Z</time>
      </trkpt>
      <trkpt lat="47.27358" lon="0.64815">
        <ele>85</ele>
        <time>2013-05-01T09:11:15Z</time>
      </trkpt>
      <trkpt lat="47.2737" lon="0.6483">
        <ele>87</ele>
        <time>2013-05-01T09:11:19Z</time>
      </trkpt>
      <trkpt lat="47.27383" lon="0.64847">
        <ele>85</ele>
        <time>2013-05-01T09:11:23Z</time>
      </trkpt>
      <trkpt lat="47.27394" lon="0.64861">
        <ele>85</ele>
        <time>2013-05-01T09:11:27Z</time>
      </trkpt>
      <trkpt lat="47.27406" lon="0.64873">
        <ele>86</ele>
        <time>2013-05-01T09:11:31Z</time>
      </trkpt>
      <trkpt lat="47.27417" lon="0.64886">
        <ele>86</ele>
        <time>2013-05-01T09:11:35Z</time>
      </trkpt>
      <trkpt lat="47.27428" lon="0.64897">
        <ele>85</ele>
        <time>2013-05-01T09:11:39Z</time>
      </trkpt>
      <trkpt lat="47.27438" lon="0.64897">
        <ele>84</ele>
        <time>2013-05-01T09:11:43Z</time>
      </trkpt>
      <trkpt lat="47.27444" lon="0.64882">
        <ele>84</ele>
        <time>2013-05-01T09:11:47Z</time>
      </trkpt>
      <trkpt lat="47.27452" lon="0.64867">
        <ele>86</ele>
        <time>2013-05-01T09:11:51Z</time>
      </trkpt>
      <trkpt lat="47.2746" lon="0.64852">
        <ele>88</ele>
        <time>2013-05-01T09:11:55Z</time>
      </trkpt>
      <trkpt lat="47.2747" lon="0.64835">
        <ele>90</ele>
        <time>2013-05-01T09:11:59Z</time>
      </trkpt>
      <trkpt lat="47.27481" lon="0.64818">
        <ele>90</ele>
        <time>2013-05-01T09:12:03Z</time>
      </trkpt>
      <trkpt lat="47.27492" lon="0.64799">
        <ele>89</ele>
        <time>2013-05-01T09:12:07Z</time>
      </trkpt>
      <trkpt lat="47.27503" lon="0.64781">
        <ele>91</ele>
        <time>2013-05-01T09:12:11Z</time>
      </trkpt>
      <trkpt lat="47.27517" lon="0.64757">
        <ele>90</ele>
        <time>2013-05-01T09:12:16Z</time>
      </trkpt>
      <trkpt lat="47.27525" lon="0.64744">
        <ele>90</ele>
        <time>2013-05-01T09:12:19Z</time>
      </trkpt>
      <trkpt lat="47.2754" lon="0.6472">
        <ele>90</ele>
        <time>2013-05-01T09:12:24Z</time>
      </trkpt>
      <trkpt lat="47.27552" lon="0.64701">
        <ele>89</ele>
        <time>2013-05-01T09:12:28Z</time>
      </trkpt>
      <trkpt lat="47.27563" lon="0.64684">
        <ele>88</ele>
        <time>2013-05-01T09:12:31Z</time>
      </trkpt>
      <trkpt lat="47.27577" lon="0.64659">
        <ele>90</ele>
        <time>2013-05-01T09:12:36Z</time>
      </trkpt>
      <trkpt lat="47.27587" lon="0.64643">
        <ele>90</ele>
        <time>2013-05-01T09:12:39Z</time>
      </trkpt>
      <trkpt lat="47.27603" lon="0.64612">
        <ele>92</ele>
        <time>2013-05-01T09:12:43Z</time>
      </trkpt>
      <trkpt lat="47.27612" lon="0.64586">
        <ele>91</ele>
        <time>2013-05-01T09:12:47Z</time>
      </trkpt>
      <trkpt lat="47.2762" lon="0.64567">
        <ele>81</ele>
        <time>2013-05-01T09:12:56Z</time>
      </trkpt>
      <trkpt lat="47.27696" lon="0.64603">
        <ele>70</ele>
        <time>2013-05-01T09:16:19Z</time>
      </trkpt>
      <trkpt lat="47.27707" lon="0.64634">
        <ele>72</ele>
        <time>2013-05-01T09:16:24Z</time>
      </trkpt>
      <trkpt lat="47.27715" lon="0.64659">
        <ele>74</ele>
        <time>2013-05-01T09:16:28Z</time>
      </trkpt>
      <trkpt lat="47.27723" lon="0.64681">
        <ele>73</ele>
        <time>2013-05-01T09:16:32Z</time>
      </trkpt>
      <trkpt lat="47.2773" lon="0.64704">
        <ele>72</ele>
        <time>2013-05-01T09:16:36Z</time>
      </trkpt>
      <trkpt lat="47.27737" lon="0.64728">
        <ele>71</ele>
        <time>2013-05-01T09:16:40Z</time>
      </trkpt>
      <trkpt lat="47.27741" lon="0.64751">
        <ele>70</ele>
        <time>2013-05-01T09:16:44Z</time>
      </trkpt>
      <trkpt lat="47.27758" lon="0.64762">
        <ele>68</ele>
        <time>2013-05-01T09:16:49Z</time>
      </trkpt>
      <trkpt lat="47.27775" lon="0.6476">
        <ele>67</ele>
        <time>2013-05-01T09:16:52Z</time>
      </trkpt>
      <trkpt lat="47.27802" lon="0.64772">
        <ele>65</ele>
        <time>2013-05-01T09:16:56Z</time>
      </trkpt>
      <trkpt lat="47.27821" lon="0.64802">
        <ele>65</ele>
        <time>2013-05-01T09:17:00Z</time>
      </trkpt>
      <trkpt lat="47.27838" lon="0.64832">
        <ele>65</ele>
        <time>2013-05-01T09:17:04Z</time>
      </trkpt>
      <trkpt lat="47.2785" lon="0.6486">
        <ele>65</ele>
        <time>2013-05-01T09:17:08Z</time>
      </trkpt>
      <trkpt lat="47.27859" lon="0.64888">
        <ele>63</ele>
        <time>2013-05-01T09:17:12Z</time>
      </trkpt>
      <trkpt lat="47.27873" lon="0.64891">
        <ele>63</ele>
        <time>2013-05-01T09:17:16Z</time>
      </trkpt>
      <trkpt lat="47.27908" lon="0.64863">
        <ele>64</ele>
        <time>2013-05-01T09:17:23Z</time>
      </trkpt>
      <trkpt lat="47.27915" lon="0.6486">
        <ele>64</ele>
        <time>2013-05-01T09:17:24Z</time>
      </trkpt>
      <trkpt lat="47.27937" lon="0.64832">
        <ele>66</ele>
        <time>2013-05-01T09:17:30Z</time>
      </trkpt>
      <trkpt lat="47.27957" lon="0.64811">
        <ele>65</ele>
        <time>2013-05-01T09:17:35Z</time>
      </trkpt>
      <trkpt lat="47.27961" lon="0.64806">
        <ele>65</ele>
        <time>2013-05-01T09:17:36Z</time>
      </trkpt>
      <trkpt lat="47.2798" lon="0.64784">
        <ele>65</ele>
        <time>2013-05-01T09:17:40Z</time>
      </trkpt>
      <trkpt lat="47.28004" lon="0.64762">
        <ele>60</ele>
        <time>2013-05-01T09:17:44Z</time>
      </trkpt>
      <trkpt lat="47.2803" lon="0.6474">
        <ele>59</ele>
        <time>2013-05-01T09:17:48Z</time>
      </trkpt>
      <trkpt lat="47.28057" lon="0.64721">
        <ele>57</ele>
        <time>2013-05-01T09:17:52Z</time>
      </trkpt>
      <trkpt lat="47.28095" lon="0.64696">
        <ele>54</ele>
        <time>2013-05-01T09:17:58Z</time>
      </trkpt>
      <trkpt lat="47.28109" lon="0.64689">
        <ele>51</ele>
        <time>2013-05-01T09:18:02Z</time>
      </trkpt>
      <trkpt lat="47.28114" lon="0.64691">
        <ele>51</ele>
        <time>2013-05-01T09:18:05Z</time>
      </trkpt>
      <trkpt lat="47.28129" lon="0.64693">
        <ele>51</ele>
        <time>2013-05-01T09:18:09Z</time>
      </trkpt>
      <trkpt lat="47.28152" lon="0.64665">
        <ele>51</ele>
        <time>2013-05-01T09:18:15Z</time>
      </trkpt>
      <trkpt lat="47.28162" lon="0.64651">
        <ele>51</ele>
        <time>2013-05-01T09:18:18Z</time>
      </trkpt>
      <trkpt lat="47.28171" lon="0.64641">
        <ele>53</ele>
        <time>2013-05-01T09:18:23Z</time>
      </trkpt>
    </trkseg>
  </trk>
</gpx>